<?xml version="1.0" encoding="UTF-8" standalone="no" ?>
<gpx xmlns="http://www.topografix.com/GPX/1/1" xmlns:xsi="http://www.w3.org/2001/XMLSchema-instance" xsi:schemaLocation="http://www.topografix.com/GPX/1/1 http://www.topografix.com/GPX/1/1/gpx.xsd" version="1.1" creator="VisuGPX - https://www.visugpx.com">
  <metadata>
    <name>Mirabel vallon de Charsac</name>
    <desc><![CDATA[File with points/tracks from Locus Map/3.32.2]]></desc>
  </metadata>
  <trk>
    <name><![CDATA[F26400 Mirabel vallon de Charsac R2000]]></name>
    <trkseg>
      <trkpt lat="44.7102" lon="5.12249">
        <ele>256.95</ele>
        <time>2018-09-12T07:00:27.000Z</time>
      </trkpt>
      <trkpt lat="44.71006" lon="5.12247">
        <ele>258.29</ele>
        <time>2018-09-12T07:00:37.000Z</time>
      </trkpt>
      <trkpt lat="44.71014" lon="5.12242">
        <ele>256.91</ele>
        <time>2018-09-12T07:00:53.000Z</time>
      </trkpt>
      <trkpt lat="44.71022" lon="5.12249">
        <ele>256.7</ele>
        <time>2018-09-12T07:01:05.000Z</time>
      </trkpt>
      <trkpt lat="44.7103" lon="5.12258">
        <ele>256.2</ele>
        <time>2018-09-12T07:01:15.000Z</time>
      </trkpt>
      <trkpt lat="44.71039" lon="5.12267">
        <ele>255.16</ele>
        <time>2018-09-12T07:01:26.000Z</time>
      </trkpt>
      <trkpt lat="44.71049" lon="5.1228">
        <ele>253.68</ele>
        <time>2018-09-12T07:01:36.000Z</time>
      </trkpt>
      <trkpt lat="44.71057" lon="5.12288">
        <ele>252.18</ele>
        <time>2018-09-12T07:01:47.000Z</time>
      </trkpt>
      <trkpt lat="44.71063" lon="5.123">
        <ele>251.25</ele>
        <time>2018-09-12T07:01:57.000Z</time>
      </trkpt>
      <trkpt lat="44.71072" lon="5.12307">
        <ele>249.93</ele>
        <time>2018-09-12T07:02:07.000Z</time>
      </trkpt>
      <trkpt lat="44.71083" lon="5.1231">
        <ele>249.13</ele>
        <time>2018-09-12T07:02:17.000Z</time>
      </trkpt>
      <trkpt lat="44.71095" lon="5.12304">
        <ele>249.47</ele>
        <time>2018-09-12T07:02:27.000Z</time>
      </trkpt>
      <trkpt lat="44.71106" lon="5.12296">
        <ele>250.68</ele>
        <time>2018-09-12T07:02:37.000Z</time>
      </trkpt>
      <trkpt lat="44.71115" lon="5.12287">
        <ele>252.3</ele>
        <time>2018-09-12T07:02:47.000Z</time>
      </trkpt>
      <trkpt lat="44.71124" lon="5.12279">
        <ele>254.1</ele>
        <time>2018-09-12T07:02:57.000Z</time>
      </trkpt>
      <trkpt lat="44.71134" lon="5.12274">
        <ele>256.36</ele>
        <time>2018-09-12T07:03:07.000Z</time>
      </trkpt>
      <trkpt lat="44.71143" lon="5.12267">
        <ele>258.37</ele>
        <time>2018-09-12T07:03:17.000Z</time>
      </trkpt>
      <trkpt lat="44.71153" lon="5.12262">
        <ele>260.63</ele>
        <time>2018-09-12T07:03:27.000Z</time>
      </trkpt>
      <trkpt lat="44.71163" lon="5.12253">
        <ele>263.17</ele>
        <time>2018-09-12T07:03:37.000Z</time>
      </trkpt>
      <trkpt lat="44.71172" lon="5.12245">
        <ele>265.29</ele>
        <time>2018-09-12T07:03:47.000Z</time>
      </trkpt>
      <trkpt lat="44.71183" lon="5.12243">
        <ele>267.84</ele>
        <time>2018-09-12T07:03:57.000Z</time>
      </trkpt>
      <trkpt lat="44.71188" lon="5.12254">
        <ele>268.7</ele>
        <time>2018-09-12T07:05:24.000Z</time>
      </trkpt>
      <trkpt lat="44.71193" lon="5.1227">
        <ele>269.39</ele>
        <time>2018-09-12T07:05:34.000Z</time>
      </trkpt>
      <trkpt lat="44.71196" lon="5.12284">
        <ele>269.78</ele>
        <time>2018-09-12T07:05:44.000Z</time>
      </trkpt>
      <trkpt lat="44.71201" lon="5.12298">
        <ele>270.73</ele>
        <time>2018-09-12T07:05:54.000Z</time>
      </trkpt>
      <trkpt lat="44.71204" lon="5.12314">
        <ele>270.89</ele>
        <time>2018-09-12T07:06:04.000Z</time>
      </trkpt>
      <trkpt lat="44.7121" lon="5.12331">
        <ele>271.51</ele>
        <time>2018-09-12T07:06:14.000Z</time>
      </trkpt>
      <trkpt lat="44.71216" lon="5.12347">
        <ele>271.77</ele>
        <time>2018-09-12T07:06:24.000Z</time>
      </trkpt>
      <trkpt lat="44.7122" lon="5.12364">
        <ele>271.03</ele>
        <time>2018-09-12T07:06:34.000Z</time>
      </trkpt>
      <trkpt lat="44.71226" lon="5.12379">
        <ele>270.72</ele>
        <time>2018-09-12T07:06:44.000Z</time>
      </trkpt>
      <trkpt lat="44.71231" lon="5.12395">
        <ele>270.23</ele>
        <time>2018-09-12T07:06:54.000Z</time>
      </trkpt>
      <trkpt lat="44.71236" lon="5.1241">
        <ele>270.05</ele>
        <time>2018-09-12T07:07:04.000Z</time>
      </trkpt>
      <trkpt lat="44.71238" lon="5.12427">
        <ele>269.89</ele>
        <time>2018-09-12T07:07:14.000Z</time>
      </trkpt>
      <trkpt lat="44.71242" lon="5.12441">
        <ele>270.87</ele>
        <time>2018-09-12T07:07:24.000Z</time>
      </trkpt>
      <trkpt lat="44.71246" lon="5.12458">
        <ele>272.6</ele>
        <time>2018-09-12T07:07:34.000Z</time>
      </trkpt>
      <trkpt lat="44.7125" lon="5.12474">
        <ele>274.17</ele>
        <time>2018-09-12T07:07:44.000Z</time>
      </trkpt>
      <trkpt lat="44.71253" lon="5.12492">
        <ele>275.34</ele>
        <time>2018-09-12T07:07:54.000Z</time>
      </trkpt>
      <trkpt lat="44.71256" lon="5.12508">
        <ele>275.49</ele>
        <time>2018-09-12T07:08:04.000Z</time>
      </trkpt>
      <trkpt lat="44.71261" lon="5.12525">
        <ele>275.54</ele>
        <time>2018-09-12T07:08:14.000Z</time>
      </trkpt>
      <trkpt lat="44.71266" lon="5.12541">
        <ele>275.3</ele>
        <time>2018-09-12T07:08:24.000Z</time>
      </trkpt>
      <trkpt lat="44.71271" lon="5.12556">
        <ele>274.99</ele>
        <time>2018-09-12T07:08:34.000Z</time>
      </trkpt>
      <trkpt lat="44.71275" lon="5.12573">
        <ele>274.33</ele>
        <time>2018-09-12T07:08:44.000Z</time>
      </trkpt>
      <trkpt lat="44.71279" lon="5.12589">
        <ele>274.39</ele>
        <time>2018-09-12T07:08:54.000Z</time>
      </trkpt>
      <trkpt lat="44.71282" lon="5.12606">
        <ele>274.12</ele>
        <time>2018-09-12T07:09:04.000Z</time>
      </trkpt>
      <trkpt lat="44.71287" lon="5.12623">
        <ele>274.11</ele>
        <time>2018-09-12T07:09:14.000Z</time>
      </trkpt>
      <trkpt lat="44.71291" lon="5.12642">
        <ele>273.05</ele>
        <time>2018-09-12T07:09:24.000Z</time>
      </trkpt>
      <trkpt lat="44.71295" lon="5.12659">
        <ele>272.2</ele>
        <time>2018-09-12T07:09:34.000Z</time>
      </trkpt>
      <trkpt lat="44.71299" lon="5.12676">
        <ele>272.01</ele>
        <time>2018-09-12T07:09:44.000Z</time>
      </trkpt>
      <trkpt lat="44.71304" lon="5.12693">
        <ele>272.95</ele>
        <time>2018-09-12T07:09:54.000Z</time>
      </trkpt>
      <trkpt lat="44.71308" lon="5.12711">
        <ele>274.53</ele>
        <time>2018-09-12T07:10:04.000Z</time>
      </trkpt>
      <trkpt lat="44.71313" lon="5.12725">
        <ele>276.31</ele>
        <time>2018-09-12T07:10:14.000Z</time>
      </trkpt>
      <trkpt lat="44.71316" lon="5.12741">
        <ele>277.62</ele>
        <time>2018-09-12T07:10:24.000Z</time>
      </trkpt>
      <trkpt lat="44.71322" lon="5.12754">
        <ele>278.72</ele>
        <time>2018-09-12T07:10:34.000Z</time>
      </trkpt>
      <trkpt lat="44.71329" lon="5.12767">
        <ele>279.68</ele>
        <time>2018-09-12T07:10:44.000Z</time>
      </trkpt>
      <trkpt lat="44.71337" lon="5.1278">
        <ele>280.26</ele>
        <time>2018-09-12T07:10:54.000Z</time>
      </trkpt>
      <trkpt lat="44.71344" lon="5.12791">
        <ele>280.68</ele>
        <time>2018-09-12T07:11:04.000Z</time>
      </trkpt>
      <trkpt lat="44.71349" lon="5.12804">
        <ele>280.4</ele>
        <time>2018-09-12T07:11:14.000Z</time>
      </trkpt>
      <trkpt lat="44.71354" lon="5.12816">
        <ele>280.07</ele>
        <time>2018-09-12T07:11:24.000Z</time>
      </trkpt>
      <trkpt lat="44.71362" lon="5.12825">
        <ele>280.35</ele>
        <time>2018-09-12T07:11:34.000Z</time>
      </trkpt>
      <trkpt lat="44.71372" lon="5.12827">
        <ele>281.56</ele>
        <time>2018-09-12T07:11:46.000Z</time>
      </trkpt>
      <trkpt lat="44.71382" lon="5.12826">
        <ele>283.19</ele>
        <time>2018-09-12T07:11:56.000Z</time>
      </trkpt>
      <trkpt lat="44.71391" lon="5.12823">
        <ele>285.06</ele>
        <time>2018-09-12T07:12:06.000Z</time>
      </trkpt>
      <trkpt lat="44.714" lon="5.1282">
        <ele>286.87</ele>
        <time>2018-09-12T07:12:17.000Z</time>
      </trkpt>
      <trkpt lat="44.7141" lon="5.12815">
        <ele>289.2</ele>
        <time>2018-09-12T07:12:27.000Z</time>
      </trkpt>
      <trkpt lat="44.7142" lon="5.12806">
        <ele>292.12</ele>
        <time>2018-09-12T07:12:37.000Z</time>
      </trkpt>
      <trkpt lat="44.71432" lon="5.12809">
        <ele>293.61</ele>
        <time>2018-09-12T07:12:47.000Z</time>
      </trkpt>
      <trkpt lat="44.71434" lon="5.12823">
        <ele>292.22</ele>
        <time>2018-09-12T07:12:59.000Z</time>
      </trkpt>
      <trkpt lat="44.71433" lon="5.12836">
        <ele>290.74</ele>
        <time>2018-09-12T07:13:09.000Z</time>
      </trkpt>
      <trkpt lat="44.71426" lon="5.12851">
        <ele>287.82</ele>
        <time>2018-09-12T07:13:19.000Z</time>
      </trkpt>
      <trkpt lat="44.71424" lon="5.12867">
        <ele>285.94</ele>
        <time>2018-09-12T07:13:29.000Z</time>
      </trkpt>
      <trkpt lat="44.7143" lon="5.12878">
        <ele>285.55</ele>
        <time>2018-09-12T07:13:39.000Z</time>
      </trkpt>
      <trkpt lat="44.7144" lon="5.12882">
        <ele>286.12</ele>
        <time>2018-09-12T07:13:49.000Z</time>
      </trkpt>
      <trkpt lat="44.7145" lon="5.12878">
        <ele>287.6</ele>
        <time>2018-09-12T07:13:59.000Z</time>
      </trkpt>
      <trkpt lat="44.7146" lon="5.12871">
        <ele>289.91</ele>
        <time>2018-09-12T07:14:09.000Z</time>
      </trkpt>
      <trkpt lat="44.7147" lon="5.12868">
        <ele>291.9</ele>
        <time>2018-09-12T07:14:19.000Z</time>
      </trkpt>
      <trkpt lat="44.7148" lon="5.12869">
        <ele>292.91</ele>
        <time>2018-09-12T07:14:29.000Z</time>
      </trkpt>
      <trkpt lat="44.71493" lon="5.12869">
        <ele>294.47</ele>
        <time>2018-09-12T07:14:39.000Z</time>
      </trkpt>
      <trkpt lat="44.71503" lon="5.12867">
        <ele>296.28</ele>
        <time>2018-09-12T07:14:49.000Z</time>
      </trkpt>
      <trkpt lat="44.71514" lon="5.12865">
        <ele>297.86</ele>
        <time>2018-09-12T07:14:59.000Z</time>
      </trkpt>
      <trkpt lat="44.71525" lon="5.12865">
        <ele>299.06</ele>
        <time>2018-09-12T07:15:09.000Z</time>
      </trkpt>
      <trkpt lat="44.71534" lon="5.12862">
        <ele>300.91</ele>
        <time>2018-09-12T07:15:19.000Z</time>
      </trkpt>
      <trkpt lat="44.71544" lon="5.12861">
        <ele>302.09</ele>
        <time>2018-09-12T07:15:29.000Z</time>
      </trkpt>
      <trkpt lat="44.71556" lon="5.12858">
        <ele>303.78</ele>
        <time>2018-09-12T07:15:39.000Z</time>
      </trkpt>
      <trkpt lat="44.71566" lon="5.12853">
        <ele>306.3</ele>
        <time>2018-09-12T07:15:49.000Z</time>
      </trkpt>
      <trkpt lat="44.71579" lon="5.12852">
        <ele>307.85</ele>
        <time>2018-09-12T07:15:59.000Z</time>
      </trkpt>
      <trkpt lat="44.71591" lon="5.12855">
        <ele>308.15</ele>
        <time>2018-09-12T07:16:09.000Z</time>
      </trkpt>
      <trkpt lat="44.71601" lon="5.12855">
        <ele>309.17</ele>
        <time>2018-09-12T07:16:19.000Z</time>
      </trkpt>
      <trkpt lat="44.71613" lon="5.12854">
        <ele>311.05</ele>
        <time>2018-09-12T07:16:29.000Z</time>
      </trkpt>
      <trkpt lat="44.71625" lon="5.12851">
        <ele>313.79</ele>
        <time>2018-09-12T07:16:39.000Z</time>
      </trkpt>
      <trkpt lat="44.71635" lon="5.12852">
        <ele>314.78</ele>
        <time>2018-09-12T07:16:49.000Z</time>
      </trkpt>
      <trkpt lat="44.71645" lon="5.12855">
        <ele>314.72</ele>
        <time>2018-09-12T07:17:00.000Z</time>
      </trkpt>
      <trkpt lat="44.71658" lon="5.12854">
        <ele>316.6</ele>
        <time>2018-09-12T07:17:10.000Z</time>
      </trkpt>
      <trkpt lat="44.71669" lon="5.12853">
        <ele>317.65</ele>
        <time>2018-09-12T07:17:20.000Z</time>
      </trkpt>
      <trkpt lat="44.7168" lon="5.12852">
        <ele>318.91</ele>
        <time>2018-09-12T07:17:30.000Z</time>
      </trkpt>
      <trkpt lat="44.71692" lon="5.12849">
        <ele>320.85</ele>
        <time>2018-09-12T07:17:40.000Z</time>
      </trkpt>
      <trkpt lat="44.71703" lon="5.12851">
        <ele>320.2</ele>
        <time>2018-09-12T07:17:51.000Z</time>
      </trkpt>
      <trkpt lat="44.71713" lon="5.12851">
        <ele>320.72</ele>
        <time>2018-09-12T07:18:01.000Z</time>
      </trkpt>
      <trkpt lat="44.71726" lon="5.12849">
        <ele>321.82</ele>
        <time>2018-09-12T07:18:11.000Z</time>
      </trkpt>
      <trkpt lat="44.71737" lon="5.12847">
        <ele>322.97</ele>
        <time>2018-09-12T07:18:21.000Z</time>
      </trkpt>
      <trkpt lat="44.71749" lon="5.12848">
        <ele>323.13</ele>
        <time>2018-09-12T07:18:31.000Z</time>
      </trkpt>
      <trkpt lat="44.71763" lon="5.12848">
        <ele>323.52</ele>
        <time>2018-09-12T07:18:41.000Z</time>
      </trkpt>
      <trkpt lat="44.71774" lon="5.12854">
        <ele>322.14</ele>
        <time>2018-09-12T07:18:51.000Z</time>
      </trkpt>
      <trkpt lat="44.71785" lon="5.12853">
        <ele>323.01</ele>
        <time>2018-09-12T07:19:01.000Z</time>
      </trkpt>
      <trkpt lat="44.71797" lon="5.12854">
        <ele>323.13</ele>
        <time>2018-09-12T07:19:11.000Z</time>
      </trkpt>
      <trkpt lat="44.71807" lon="5.12855">
        <ele>323.66</ele>
        <time>2018-09-12T07:19:21.000Z</time>
      </trkpt>
      <trkpt lat="44.71817" lon="5.12852">
        <ele>325.17</ele>
        <time>2018-09-12T07:19:32.000Z</time>
      </trkpt>
      <trkpt lat="44.71825" lon="5.12846">
        <ele>327.27</ele>
        <time>2018-09-12T07:19:42.000Z</time>
      </trkpt>
      <trkpt lat="44.71836" lon="5.12842">
        <ele>328.93</ele>
        <time>2018-09-12T07:19:52.000Z</time>
      </trkpt>
      <trkpt lat="44.71846" lon="5.12832">
        <ele>331.57</ele>
        <time>2018-09-12T07:20:02.000Z</time>
      </trkpt>
      <trkpt lat="44.71855" lon="5.12824">
        <ele>333.57</ele>
        <time>2018-09-12T07:20:12.000Z</time>
      </trkpt>
      <trkpt lat="44.71867" lon="5.12816">
        <ele>335.27</ele>
        <time>2018-09-12T07:20:22.000Z</time>
      </trkpt>
      <trkpt lat="44.71879" lon="5.12806">
        <ele>336.61</ele>
        <time>2018-09-12T07:20:32.000Z</time>
      </trkpt>
      <trkpt lat="44.71892" lon="5.128">
        <ele>336.81</ele>
        <time>2018-09-12T07:20:42.000Z</time>
      </trkpt>
      <trkpt lat="44.71903" lon="5.12795">
        <ele>336.55</ele>
        <time>2018-09-12T07:20:52.000Z</time>
      </trkpt>
      <trkpt lat="44.71915" lon="5.1279">
        <ele>336.1</ele>
        <time>2018-09-12T07:21:02.000Z</time>
      </trkpt>
      <trkpt lat="44.71927" lon="5.1278">
        <ele>335.82</ele>
        <time>2018-09-12T07:21:12.000Z</time>
      </trkpt>
      <trkpt lat="44.71937" lon="5.12773">
        <ele>335.84</ele>
        <time>2018-09-12T07:21:22.000Z</time>
      </trkpt>
      <trkpt lat="44.71948" lon="5.12773">
        <ele>335.45</ele>
        <time>2018-09-12T07:21:32.000Z</time>
      </trkpt>
      <trkpt lat="44.71954" lon="5.12782">
        <ele>333.73</ele>
        <time>2018-09-12T07:21:42.000Z</time>
      </trkpt>
      <trkpt lat="44.71961" lon="5.12792">
        <ele>331.4</ele>
        <time>2018-09-12T07:21:53.000Z</time>
      </trkpt>
      <trkpt lat="44.7197" lon="5.12791">
        <ele>330.66</ele>
        <time>2018-09-12T07:22:03.000Z</time>
      </trkpt>
      <trkpt lat="44.71976" lon="5.1278">
        <ele>332.9</ele>
        <time>2018-09-12T07:22:13.000Z</time>
      </trkpt>
      <trkpt lat="44.71985" lon="5.12767">
        <ele>336.01</ele>
        <time>2018-09-12T07:22:23.000Z</time>
      </trkpt>
      <trkpt lat="44.71991" lon="5.12755">
        <ele>338.99</ele>
        <time>2018-09-12T07:22:33.000Z</time>
      </trkpt>
      <trkpt lat="44.71996" lon="5.12744">
        <ele>341.26</ele>
        <time>2018-09-12T07:22:44.000Z</time>
      </trkpt>
      <trkpt lat="44.72003" lon="5.12732">
        <ele>343.4</ele>
        <time>2018-09-12T07:22:54.000Z</time>
      </trkpt>
      <trkpt lat="44.72009" lon="5.12721">
        <ele>345.07</ele>
        <time>2018-09-12T07:23:04.000Z</time>
      </trkpt>
      <trkpt lat="44.72017" lon="5.12708">
        <ele>346.65</ele>
        <time>2018-09-12T07:23:14.000Z</time>
      </trkpt>
      <trkpt lat="44.72026" lon="5.12696">
        <ele>347.94</ele>
        <time>2018-09-12T07:23:24.000Z</time>
      </trkpt>
      <trkpt lat="44.72033" lon="5.12687">
        <ele>348.97</ele>
        <time>2018-09-12T07:23:34.000Z</time>
      </trkpt>
      <trkpt lat="44.72042" lon="5.12679">
        <ele>349.26</ele>
        <time>2018-09-12T07:23:44.000Z</time>
      </trkpt>
      <trkpt lat="44.72052" lon="5.12669">
        <ele>350.26</ele>
        <time>2018-09-12T07:23:54.000Z</time>
      </trkpt>
      <trkpt lat="44.72062" lon="5.12663">
        <ele>349.89</ele>
        <time>2018-09-12T07:24:04.000Z</time>
      </trkpt>
      <trkpt lat="44.72072" lon="5.12653">
        <ele>350.83</ele>
        <time>2018-09-12T07:24:14.000Z</time>
      </trkpt>
      <trkpt lat="44.72082" lon="5.12645">
        <ele>351.4</ele>
        <time>2018-09-12T07:24:24.000Z</time>
      </trkpt>
      <trkpt lat="44.72094" lon="5.12638">
        <ele>351.3</ele>
        <time>2018-09-12T07:24:34.000Z</time>
      </trkpt>
      <trkpt lat="44.72105" lon="5.12633">
        <ele>350.28</ele>
        <time>2018-09-12T07:24:44.000Z</time>
      </trkpt>
      <trkpt lat="44.72115" lon="5.12624">
        <ele>349.65</ele>
        <time>2018-09-12T07:24:54.000Z</time>
      </trkpt>
      <trkpt lat="44.72122" lon="5.12611">
        <ele>349.49</ele>
        <time>2018-09-12T07:25:04.000Z</time>
      </trkpt>
      <trkpt lat="44.72125" lon="5.12596">
        <ele>350.33</ele>
        <time>2018-09-12T07:25:14.000Z</time>
      </trkpt>
      <trkpt lat="44.72129" lon="5.12581">
        <ele>350.74</ele>
        <time>2018-09-12T07:25:24.000Z</time>
      </trkpt>
      <trkpt lat="44.72136" lon="5.12564">
        <ele>350.81</ele>
        <time>2018-09-12T07:25:34.000Z</time>
      </trkpt>
      <trkpt lat="44.72138" lon="5.12547">
        <ele>352.63</ele>
        <time>2018-09-12T07:25:44.000Z</time>
      </trkpt>
      <trkpt lat="44.72138" lon="5.12531">
        <ele>354.86</ele>
        <time>2018-09-12T07:25:54.000Z</time>
      </trkpt>
      <trkpt lat="44.72138" lon="5.12514">
        <ele>357.27</ele>
        <time>2018-09-12T07:26:04.000Z</time>
      </trkpt>
      <trkpt lat="44.72137" lon="5.12492">
        <ele>360.27</ele>
        <time>2018-09-12T07:26:14.000Z</time>
      </trkpt>
      <trkpt lat="44.72143" lon="5.12474">
        <ele>360.92</ele>
        <time>2018-09-12T07:26:24.000Z</time>
      </trkpt>
      <trkpt lat="44.72143" lon="5.1246">
        <ele>362.52</ele>
        <time>2018-09-12T07:26:34.000Z</time>
      </trkpt>
      <trkpt lat="44.72147" lon="5.12448">
        <ele>363.49</ele>
        <time>2018-09-12T07:26:44.000Z</time>
      </trkpt>
      <trkpt lat="44.72155" lon="5.12443">
        <ele>363.3</ele>
        <time>2018-09-12T07:26:54.000Z</time>
      </trkpt>
      <trkpt lat="44.72164" lon="5.12435">
        <ele>363.94</ele>
        <time>2018-09-12T07:27:04.000Z</time>
      </trkpt>
      <trkpt lat="44.72172" lon="5.12427">
        <ele>365.01</ele>
        <time>2018-09-12T07:27:16.000Z</time>
      </trkpt>
      <trkpt lat="44.7218" lon="5.12423">
        <ele>365.54</ele>
        <time>2018-09-12T07:27:27.000Z</time>
      </trkpt>
      <trkpt lat="44.72189" lon="5.12418">
        <ele>366.31</ele>
        <time>2018-09-12T07:27:39.000Z</time>
      </trkpt>
      <trkpt lat="44.72188" lon="5.12403">
        <ele>369.06</ele>
        <time>2018-09-12T07:27:49.000Z</time>
      </trkpt>
      <trkpt lat="44.72194" lon="5.12393">
        <ele>371.04</ele>
        <time>2018-09-12T07:28:04.000Z</time>
      </trkpt>
      <trkpt lat="44.72199" lon="5.12382">
        <ele>373.27</ele>
        <time>2018-09-12T07:28:18.000Z</time>
      </trkpt>
      <trkpt lat="44.72204" lon="5.12371">
        <ele>375.23</ele>
        <time>2018-09-12T07:28:28.000Z</time>
      </trkpt>
      <trkpt lat="44.72209" lon="5.1236">
        <ele>377.11</ele>
        <time>2018-09-12T07:28:40.000Z</time>
      </trkpt>
      <trkpt lat="44.72211" lon="5.12348">
        <ele>379.62</ele>
        <time>2018-09-12T07:28:54.000Z</time>
      </trkpt>
      <trkpt lat="44.72215" lon="5.12336">
        <ele>381.32</ele>
        <time>2018-09-12T07:29:07.000Z</time>
      </trkpt>
      <trkpt lat="44.72223" lon="5.1233">
        <ele>381.5</ele>
        <time>2018-09-12T07:29:21.000Z</time>
      </trkpt>
      <trkpt lat="44.72231" lon="5.12322">
        <ele>382.61</ele>
        <time>2018-09-12T07:29:33.000Z</time>
      </trkpt>
      <trkpt lat="44.7224" lon="5.12313">
        <ele>383.99</ele>
        <time>2018-09-12T07:29:43.000Z</time>
      </trkpt>
      <trkpt lat="44.72252" lon="5.12309">
        <ele>385.07</ele>
        <time>2018-09-12T07:29:53.000Z</time>
      </trkpt>
      <trkpt lat="44.72261" lon="5.12308">
        <ele>385.84</ele>
        <time>2018-09-12T07:30:03.000Z</time>
      </trkpt>
      <trkpt lat="44.72272" lon="5.12306">
        <ele>387.66</ele>
        <time>2018-09-12T07:30:13.000Z</time>
      </trkpt>
      <trkpt lat="44.72284" lon="5.12303">
        <ele>389.92</ele>
        <time>2018-09-12T07:30:23.000Z</time>
      </trkpt>
      <trkpt lat="44.72296" lon="5.123">
        <ele>392.11</ele>
        <time>2018-09-12T07:30:33.000Z</time>
      </trkpt>
      <trkpt lat="44.72304" lon="5.12291">
        <ele>393.76</ele>
        <time>2018-09-12T07:30:43.000Z</time>
      </trkpt>
      <trkpt lat="44.72313" lon="5.12288">
        <ele>394.7</ele>
        <time>2018-09-12T07:32:26.000Z</time>
      </trkpt>
      <trkpt lat="44.72322" lon="5.1229">
        <ele>395.56</ele>
        <time>2018-09-12T07:33:56.000Z</time>
      </trkpt>
      <trkpt lat="44.72331" lon="5.12297">
        <ele>396.54</ele>
        <time>2018-09-12T07:34:08.000Z</time>
      </trkpt>
      <trkpt lat="44.72338" lon="5.12304">
        <ele>397.46</ele>
        <time>2018-09-12T07:34:19.000Z</time>
      </trkpt>
      <trkpt lat="44.7235" lon="5.12307">
        <ele>398.38</ele>
        <time>2018-09-12T07:34:29.000Z</time>
      </trkpt>
      <trkpt lat="44.72362" lon="5.1231">
        <ele>399.32</ele>
        <time>2018-09-12T07:34:39.000Z</time>
      </trkpt>
      <trkpt lat="44.7237" lon="5.12319">
        <ele>400.65</ele>
        <time>2018-09-12T07:34:49.000Z</time>
      </trkpt>
      <trkpt lat="44.72379" lon="5.12326">
        <ele>401.86</ele>
        <time>2018-09-12T07:34:59.000Z</time>
      </trkpt>
      <trkpt lat="44.72386" lon="5.12338">
        <ele>403.79</ele>
        <time>2018-09-12T07:35:09.000Z</time>
      </trkpt>
      <trkpt lat="44.72392" lon="5.12352">
        <ele>405.76</ele>
        <time>2018-09-12T07:35:19.000Z</time>
      </trkpt>
      <trkpt lat="44.724" lon="5.1236">
        <ele>407.15</ele>
        <time>2018-09-12T07:35:29.000Z</time>
      </trkpt>
      <trkpt lat="44.72408" lon="5.12372">
        <ele>409.04</ele>
        <time>2018-09-12T07:35:39.000Z</time>
      </trkpt>
      <trkpt lat="44.72415" lon="5.12382">
        <ele>410.46</ele>
        <time>2018-09-12T07:35:49.000Z</time>
      </trkpt>
      <trkpt lat="44.72422" lon="5.12396">
        <ele>411.91</ele>
        <time>2018-09-12T07:35:59.000Z</time>
      </trkpt>
      <trkpt lat="44.72426" lon="5.12409">
        <ele>412.97</ele>
        <time>2018-09-12T07:36:09.000Z</time>
      </trkpt>
      <trkpt lat="44.72432" lon="5.12421">
        <ele>413.5</ele>
        <time>2018-09-12T07:36:21.000Z</time>
      </trkpt>
      <trkpt lat="44.72437" lon="5.12436">
        <ele>414.13</ele>
        <time>2018-09-12T07:36:31.000Z</time>
      </trkpt>
      <trkpt lat="44.72444" lon="5.1245">
        <ele>413.89</ele>
        <time>2018-09-12T07:36:41.000Z</time>
      </trkpt>
      <trkpt lat="44.72449" lon="5.12465">
        <ele>413.59</ele>
        <time>2018-09-12T07:36:51.000Z</time>
      </trkpt>
      <trkpt lat="44.72454" lon="5.12478">
        <ele>412.93</ele>
        <time>2018-09-12T07:37:01.000Z</time>
      </trkpt>
      <trkpt lat="44.72457" lon="5.12491">
        <ele>412.67</ele>
        <time>2018-09-12T07:37:11.000Z</time>
      </trkpt>
      <trkpt lat="44.72462" lon="5.12508">
        <ele>412.25</ele>
        <time>2018-09-12T07:37:21.000Z</time>
      </trkpt>
      <trkpt lat="44.72469" lon="5.12517">
        <ele>410.84</ele>
        <time>2018-09-12T07:37:42.000Z</time>
      </trkpt>
      <trkpt lat="44.72474" lon="5.12528">
        <ele>410.41</ele>
        <time>2018-09-12T07:37:53.000Z</time>
      </trkpt>
      <trkpt lat="44.7248" lon="5.12538">
        <ele>409.92</ele>
        <time>2018-09-12T07:38:03.000Z</time>
      </trkpt>
      <trkpt lat="44.72486" lon="5.12553">
        <ele>410.18</ele>
        <time>2018-09-12T07:38:13.000Z</time>
      </trkpt>
      <trkpt lat="44.72491" lon="5.12568">
        <ele>410.51</ele>
        <time>2018-09-12T07:38:23.000Z</time>
      </trkpt>
      <trkpt lat="44.72495" lon="5.12584">
        <ele>410.6</ele>
        <time>2018-09-12T07:38:33.000Z</time>
      </trkpt>
      <trkpt lat="44.72499" lon="5.126">
        <ele>410.17</ele>
        <time>2018-09-12T07:38:43.000Z</time>
      </trkpt>
      <trkpt lat="44.72503" lon="5.12613">
        <ele>409.58</ele>
        <time>2018-09-12T07:38:53.000Z</time>
      </trkpt>
      <trkpt lat="44.72509" lon="5.12629">
        <ele>408.74</ele>
        <time>2018-09-12T07:39:03.000Z</time>
      </trkpt>
      <trkpt lat="44.72512" lon="5.12643">
        <ele>408.1</ele>
        <time>2018-09-12T07:39:13.000Z</time>
      </trkpt>
      <trkpt lat="44.72514" lon="5.12657">
        <ele>407.52</ele>
        <time>2018-09-12T07:39:23.000Z</time>
      </trkpt>
      <trkpt lat="44.72521" lon="5.12673">
        <ele>407.38</ele>
        <time>2018-09-12T07:39:33.000Z</time>
      </trkpt>
      <trkpt lat="44.72527" lon="5.12686">
        <ele>407.51</ele>
        <time>2018-09-12T07:39:43.000Z</time>
      </trkpt>
      <trkpt lat="44.72536" lon="5.12699">
        <ele>408.59</ele>
        <time>2018-09-12T07:39:53.000Z</time>
      </trkpt>
      <trkpt lat="44.72542" lon="5.12711">
        <ele>409.46</ele>
        <time>2018-09-12T07:40:03.000Z</time>
      </trkpt>
      <trkpt lat="44.72549" lon="5.12724">
        <ele>410.89</ele>
        <time>2018-09-12T07:40:13.000Z</time>
      </trkpt>
      <trkpt lat="44.72558" lon="5.12738">
        <ele>413.38</ele>
        <time>2018-09-12T07:40:23.000Z</time>
      </trkpt>
      <trkpt lat="44.72565" lon="5.12756">
        <ele>415.27</ele>
        <time>2018-09-12T07:40:33.000Z</time>
      </trkpt>
      <trkpt lat="44.72569" lon="5.12771">
        <ele>415.84</ele>
        <time>2018-09-12T07:40:43.000Z</time>
      </trkpt>
      <trkpt lat="44.72574" lon="5.12788">
        <ele>416.21</ele>
        <time>2018-09-12T07:40:53.000Z</time>
      </trkpt>
      <trkpt lat="44.72578" lon="5.12806">
        <ele>416.2</ele>
        <time>2018-09-12T07:41:03.000Z</time>
      </trkpt>
      <trkpt lat="44.72582" lon="5.12821">
        <ele>416.08</ele>
        <time>2018-09-12T07:41:13.000Z</time>
      </trkpt>
      <trkpt lat="44.72584" lon="5.12836">
        <ele>416.09</ele>
        <time>2018-09-12T07:41:23.000Z</time>
      </trkpt>
      <trkpt lat="44.72585" lon="5.12854">
        <ele>415.97</ele>
        <time>2018-09-12T07:41:33.000Z</time>
      </trkpt>
      <trkpt lat="44.72591" lon="5.12867">
        <ele>416.16</ele>
        <time>2018-09-12T07:41:43.000Z</time>
      </trkpt>
      <trkpt lat="44.72596" lon="5.12878">
        <ele>415.96</ele>
        <time>2018-09-12T07:41:53.000Z</time>
      </trkpt>
      <trkpt lat="44.72602" lon="5.1289">
        <ele>415.19</ele>
        <time>2018-09-12T07:42:03.000Z</time>
      </trkpt>
      <trkpt lat="44.72604" lon="5.12909">
        <ele>414.24</ele>
        <time>2018-09-12T07:42:13.000Z</time>
      </trkpt>
      <trkpt lat="44.72606" lon="5.12924">
        <ele>413.79</ele>
        <time>2018-09-12T07:42:23.000Z</time>
      </trkpt>
      <trkpt lat="44.72609" lon="5.12937">
        <ele>413.15</ele>
        <time>2018-09-12T07:42:33.000Z</time>
      </trkpt>
      <trkpt lat="44.72604" lon="5.12948">
        <ele>414.69</ele>
        <time>2018-09-12T07:42:46.000Z</time>
      </trkpt>
      <trkpt lat="44.72599" lon="5.12962">
        <ele>416.3</ele>
        <time>2018-09-12T07:42:56.000Z</time>
      </trkpt>
      <trkpt lat="44.72595" lon="5.12976">
        <ele>417.63</ele>
        <time>2018-09-12T07:43:06.000Z</time>
      </trkpt>
      <trkpt lat="44.72589" lon="5.12985">
        <ele>419.03</ele>
        <time>2018-09-12T07:43:16.000Z</time>
      </trkpt>
      <trkpt lat="44.72583" lon="5.12998">
        <ele>419.99</ele>
        <time>2018-09-12T07:43:26.000Z</time>
      </trkpt>
      <trkpt lat="44.72581" lon="5.13011">
        <ele>420.31</ele>
        <time>2018-09-12T07:43:37.000Z</time>
      </trkpt>
      <trkpt lat="44.72579" lon="5.13029">
        <ele>420.45</ele>
        <time>2018-09-12T07:43:47.000Z</time>
      </trkpt>
      <trkpt lat="44.72571" lon="5.13044">
        <ele>420.38</ele>
        <time>2018-09-12T07:43:57.000Z</time>
      </trkpt>
      <trkpt lat="44.72564" lon="5.13062">
        <ele>420.14</ele>
        <time>2018-09-12T07:44:07.000Z</time>
      </trkpt>
      <trkpt lat="44.72559" lon="5.13077">
        <ele>420.07</ele>
        <time>2018-09-12T07:44:17.000Z</time>
      </trkpt>
      <trkpt lat="44.72554" lon="5.13094">
        <ele>420.23</ele>
        <time>2018-09-12T07:44:27.000Z</time>
      </trkpt>
      <trkpt lat="44.72557" lon="5.13108">
        <ele>420.33</ele>
        <time>2018-09-12T07:44:37.000Z</time>
      </trkpt>
      <trkpt lat="44.72568" lon="5.13109">
        <ele>420.13</ele>
        <time>2018-09-12T07:44:47.000Z</time>
      </trkpt>
      <trkpt lat="44.72578" lon="5.13113">
        <ele>419.99</ele>
        <time>2018-09-12T07:44:57.000Z</time>
      </trkpt>
      <trkpt lat="44.72594" lon="5.13116">
        <ele>419.97</ele>
        <time>2018-09-12T07:45:07.000Z</time>
      </trkpt>
      <trkpt lat="44.72608" lon="5.13116">
        <ele>420.13</ele>
        <time>2018-09-12T07:45:17.000Z</time>
      </trkpt>
      <trkpt lat="44.72616" lon="5.13123">
        <ele>420.21</ele>
        <time>2018-09-12T07:45:27.000Z</time>
      </trkpt>
      <trkpt lat="44.72626" lon="5.13124">
        <ele>420.38</ele>
        <time>2018-09-12T07:45:37.000Z</time>
      </trkpt>
      <trkpt lat="44.72638" lon="5.13131">
        <ele>420.43</ele>
        <time>2018-09-12T07:45:47.000Z</time>
      </trkpt>
      <trkpt lat="44.72652" lon="5.1313">
        <ele>420.57</ele>
        <time>2018-09-12T07:45:57.000Z</time>
      </trkpt>
      <trkpt lat="44.72664" lon="5.13134">
        <ele>420.47</ele>
        <time>2018-09-12T07:46:07.000Z</time>
      </trkpt>
      <trkpt lat="44.72675" lon="5.13137">
        <ele>420.28</ele>
        <time>2018-09-12T07:46:17.000Z</time>
      </trkpt>
      <trkpt lat="44.72687" lon="5.13142">
        <ele>420.03</ele>
        <time>2018-09-12T07:46:27.000Z</time>
      </trkpt>
      <trkpt lat="44.72699" lon="5.13148">
        <ele>419.83</ele>
        <time>2018-09-12T07:46:37.000Z</time>
      </trkpt>
      <trkpt lat="44.72712" lon="5.13152">
        <ele>419.7</ele>
        <time>2018-09-12T07:46:47.000Z</time>
      </trkpt>
      <trkpt lat="44.72721" lon="5.13161">
        <ele>419.84</ele>
        <time>2018-09-12T07:46:57.000Z</time>
      </trkpt>
      <trkpt lat="44.72733" lon="5.13166">
        <ele>419.97</ele>
        <time>2018-09-12T07:47:07.000Z</time>
      </trkpt>
      <trkpt lat="44.72741" lon="5.13177">
        <ele>420.38</ele>
        <time>2018-09-12T07:47:17.000Z</time>
      </trkpt>
      <trkpt lat="44.72754" lon="5.1319">
        <ele>420.79</ele>
        <time>2018-09-12T07:47:27.000Z</time>
      </trkpt>
      <trkpt lat="44.72764" lon="5.13205">
        <ele>421.27</ele>
        <time>2018-09-12T07:47:37.000Z</time>
      </trkpt>
      <trkpt lat="44.72775" lon="5.1322">
        <ele>421.83</ele>
        <time>2018-09-12T07:47:47.000Z</time>
      </trkpt>
      <trkpt lat="44.72783" lon="5.13234">
        <ele>422.35</ele>
        <time>2018-09-12T07:47:57.000Z</time>
      </trkpt>
      <trkpt lat="44.72792" lon="5.13246">
        <ele>422.98</ele>
        <time>2018-09-12T07:48:07.000Z</time>
      </trkpt>
      <trkpt lat="44.728" lon="5.13259">
        <ele>423.78</ele>
        <time>2018-09-12T07:48:17.000Z</time>
      </trkpt>
      <trkpt lat="44.7281" lon="5.13272">
        <ele>424.71</ele>
        <time>2018-09-12T07:48:27.000Z</time>
      </trkpt>
      <trkpt lat="44.72817" lon="5.13289">
        <ele>425.63</ele>
        <time>2018-09-12T07:48:37.000Z</time>
      </trkpt>
      <trkpt lat="44.72824" lon="5.13306">
        <ele>426.54</ele>
        <time>2018-09-12T07:48:47.000Z</time>
      </trkpt>
      <trkpt lat="44.72835" lon="5.13318">
        <ele>427.18</ele>
        <time>2018-09-12T07:48:57.000Z</time>
      </trkpt>
      <trkpt lat="44.72846" lon="5.13326">
        <ele>427.06</ele>
        <time>2018-09-12T07:49:07.000Z</time>
      </trkpt>
      <trkpt lat="44.72856" lon="5.13335">
        <ele>426.6</ele>
        <time>2018-09-12T07:49:17.000Z</time>
      </trkpt>
      <trkpt lat="44.72867" lon="5.13344">
        <ele>425.56</ele>
        <time>2018-09-12T07:49:27.000Z</time>
      </trkpt>
      <trkpt lat="44.72875" lon="5.13359">
        <ele>425.36</ele>
        <time>2018-09-12T07:49:37.000Z</time>
      </trkpt>
      <trkpt lat="44.72884" lon="5.13371">
        <ele>424.77</ele>
        <time>2018-09-12T07:49:47.000Z</time>
      </trkpt>
      <trkpt lat="44.72892" lon="5.13386">
        <ele>425.04</ele>
        <time>2018-09-12T07:49:57.000Z</time>
      </trkpt>
      <trkpt lat="44.72898" lon="5.134">
        <ele>425.41</ele>
        <time>2018-09-12T07:50:07.000Z</time>
      </trkpt>
      <trkpt lat="44.72905" lon="5.13414">
        <ele>425.96</ele>
        <time>2018-09-12T07:50:17.000Z</time>
      </trkpt>
      <trkpt lat="44.72917" lon="5.13425">
        <ele>426</ele>
        <time>2018-09-12T07:50:27.000Z</time>
      </trkpt>
      <trkpt lat="44.72928" lon="5.13425">
        <ele>424.9</ele>
        <time>2018-09-12T07:50:37.000Z</time>
      </trkpt>
      <trkpt lat="44.7294" lon="5.13432">
        <ele>424.7</ele>
        <time>2018-09-12T07:50:47.000Z</time>
      </trkpt>
      <trkpt lat="44.72951" lon="5.1344">
        <ele>424.56</ele>
        <time>2018-09-12T07:50:57.000Z</time>
      </trkpt>
      <trkpt lat="44.72963" lon="5.13448">
        <ele>424.15</ele>
        <time>2018-09-12T07:51:07.000Z</time>
      </trkpt>
      <trkpt lat="44.72973" lon="5.13455">
        <ele>423.71</ele>
        <time>2018-09-12T07:51:17.000Z</time>
      </trkpt>
      <trkpt lat="44.72982" lon="5.13467">
        <ele>424.09</ele>
        <time>2018-09-12T07:51:27.000Z</time>
      </trkpt>
      <trkpt lat="44.72992" lon="5.13476">
        <ele>424.04</ele>
        <time>2018-09-12T07:51:37.000Z</time>
      </trkpt>
      <trkpt lat="44.73" lon="5.13485">
        <ele>424.74</ele>
        <time>2018-09-12T07:51:47.000Z</time>
      </trkpt>
      <trkpt lat="44.73007" lon="5.13499">
        <ele>426.55</ele>
        <time>2018-09-12T07:51:57.000Z</time>
      </trkpt>
      <trkpt lat="44.7302" lon="5.135">
        <ele>426.92</ele>
        <time>2018-09-12T07:52:07.000Z</time>
      </trkpt>
      <trkpt lat="44.73032" lon="5.13506">
        <ele>428.79</ele>
        <time>2018-09-12T07:52:17.000Z</time>
      </trkpt>
      <trkpt lat="44.73043" lon="5.13512">
        <ele>430.66</ele>
        <time>2018-09-12T07:52:27.000Z</time>
      </trkpt>
      <trkpt lat="44.73054" lon="5.13517">
        <ele>432.27</ele>
        <time>2018-09-12T07:52:37.000Z</time>
      </trkpt>
      <trkpt lat="44.73067" lon="5.13521">
        <ele>433.46</ele>
        <time>2018-09-12T07:52:47.000Z</time>
      </trkpt>
      <trkpt lat="44.73077" lon="5.13523">
        <ele>433.83</ele>
        <time>2018-09-12T07:52:58.000Z</time>
      </trkpt>
      <trkpt lat="44.73087" lon="5.13531">
        <ele>434.54</ele>
        <time>2018-09-12T07:53:08.000Z</time>
      </trkpt>
      <trkpt lat="44.73097" lon="5.13539">
        <ele>434.52</ele>
        <time>2018-09-12T07:53:18.000Z</time>
      </trkpt>
      <trkpt lat="44.73106" lon="5.13551">
        <ele>434.92</ele>
        <time>2018-09-12T07:53:28.000Z</time>
      </trkpt>
      <trkpt lat="44.7311" lon="5.13568">
        <ele>436.63</ele>
        <time>2018-09-12T07:53:38.000Z</time>
      </trkpt>
      <trkpt lat="44.73118" lon="5.13582">
        <ele>436.53</ele>
        <time>2018-09-12T07:53:48.000Z</time>
      </trkpt>
      <trkpt lat="44.73124" lon="5.13594">
        <ele>436.62</ele>
        <time>2018-09-12T07:53:58.000Z</time>
      </trkpt>
      <trkpt lat="44.73132" lon="5.13607">
        <ele>435.99</ele>
        <time>2018-09-12T07:54:08.000Z</time>
      </trkpt>
      <trkpt lat="44.73138" lon="5.13621">
        <ele>435.67</ele>
        <time>2018-09-12T07:54:18.000Z</time>
      </trkpt>
      <trkpt lat="44.73141" lon="5.13641">
        <ele>435.95</ele>
        <time>2018-09-12T07:54:28.000Z</time>
      </trkpt>
      <trkpt lat="44.73141" lon="5.13661">
        <ele>437.15</ele>
        <time>2018-09-12T07:54:38.000Z</time>
      </trkpt>
      <trkpt lat="44.73144" lon="5.13677">
        <ele>437.28</ele>
        <time>2018-09-12T07:54:48.000Z</time>
      </trkpt>
      <trkpt lat="44.73146" lon="5.13692">
        <ele>437.15</ele>
        <time>2018-09-12T07:54:58.000Z</time>
      </trkpt>
      <trkpt lat="44.73148" lon="5.13708">
        <ele>437.04</ele>
        <time>2018-09-12T07:55:08.000Z</time>
      </trkpt>
      <trkpt lat="44.73152" lon="5.13721">
        <ele>436.39</ele>
        <time>2018-09-12T07:55:18.000Z</time>
      </trkpt>
      <trkpt lat="44.73155" lon="5.13737">
        <ele>436.21</ele>
        <time>2018-09-12T07:55:28.000Z</time>
      </trkpt>
      <trkpt lat="44.73162" lon="5.13751">
        <ele>435.18</ele>
        <time>2018-09-12T07:55:38.000Z</time>
      </trkpt>
      <trkpt lat="44.7317" lon="5.13762">
        <ele>434.13</ele>
        <time>2018-09-12T07:55:48.000Z</time>
      </trkpt>
      <trkpt lat="44.73178" lon="5.13777">
        <ele>433.86</ele>
        <time>2018-09-12T07:55:58.000Z</time>
      </trkpt>
      <trkpt lat="44.73187" lon="5.1379">
        <ele>434</ele>
        <time>2018-09-12T07:56:08.000Z</time>
      </trkpt>
      <trkpt lat="44.73194" lon="5.13801">
        <ele>434.52</ele>
        <time>2018-09-12T07:56:18.000Z</time>
      </trkpt>
      <trkpt lat="44.73206" lon="5.13805">
        <ele>434.02</ele>
        <time>2018-09-12T07:56:28.000Z</time>
      </trkpt>
      <trkpt lat="44.73216" lon="5.1381">
        <ele>434.11</ele>
        <time>2018-09-12T07:56:38.000Z</time>
      </trkpt>
      <trkpt lat="44.73225" lon="5.13816">
        <ele>434.87</ele>
        <time>2018-09-12T07:56:48.000Z</time>
      </trkpt>
      <trkpt lat="44.73233" lon="5.13823">
        <ele>435.79</ele>
        <time>2018-09-12T07:56:59.000Z</time>
      </trkpt>
      <trkpt lat="44.73242" lon="5.13831">
        <ele>437.04</ele>
        <time>2018-09-12T07:57:09.000Z</time>
      </trkpt>
      <trkpt lat="44.7325" lon="5.13843">
        <ele>438.71</ele>
        <time>2018-09-12T07:57:19.000Z</time>
      </trkpt>
      <trkpt lat="44.73257" lon="5.13851">
        <ele>439.64</ele>
        <time>2018-09-12T07:57:29.000Z</time>
      </trkpt>
      <trkpt lat="44.73263" lon="5.13862">
        <ele>440.75</ele>
        <time>2018-09-12T07:57:40.000Z</time>
      </trkpt>
      <trkpt lat="44.73269" lon="5.13875">
        <ele>442.16</ele>
        <time>2018-09-12T07:57:50.000Z</time>
      </trkpt>
      <trkpt lat="44.73277" lon="5.13887">
        <ele>442.88</ele>
        <time>2018-09-12T07:58:00.000Z</time>
      </trkpt>
      <trkpt lat="44.73284" lon="5.13898">
        <ele>443.28</ele>
        <time>2018-09-12T07:58:10.000Z</time>
      </trkpt>
      <trkpt lat="44.73292" lon="5.13912">
        <ele>443.52</ele>
        <time>2018-09-12T07:58:20.000Z</time>
      </trkpt>
      <trkpt lat="44.73302" lon="5.13923">
        <ele>443.11</ele>
        <time>2018-09-12T07:58:30.000Z</time>
      </trkpt>
      <trkpt lat="44.73308" lon="5.13937">
        <ele>443.1</ele>
        <time>2018-09-12T07:58:40.000Z</time>
      </trkpt>
      <trkpt lat="44.73313" lon="5.13954">
        <ele>443.03</ele>
        <time>2018-09-12T07:58:50.000Z</time>
      </trkpt>
      <trkpt lat="44.73315" lon="5.13972">
        <ele>443.4</ele>
        <time>2018-09-12T07:59:00.000Z</time>
      </trkpt>
      <trkpt lat="44.73321" lon="5.1399">
        <ele>442.99</ele>
        <time>2018-09-12T07:59:10.000Z</time>
      </trkpt>
      <trkpt lat="44.73327" lon="5.14006">
        <ele>442.55</ele>
        <time>2018-09-12T07:59:20.000Z</time>
      </trkpt>
      <trkpt lat="44.73331" lon="5.14021">
        <ele>442.32</ele>
        <time>2018-09-12T07:59:30.000Z</time>
      </trkpt>
      <trkpt lat="44.73336" lon="5.14041">
        <ele>442</ele>
        <time>2018-09-12T07:59:40.000Z</time>
      </trkpt>
      <trkpt lat="44.73339" lon="5.14057">
        <ele>441.68</ele>
        <time>2018-09-12T07:59:50.000Z</time>
      </trkpt>
      <trkpt lat="44.73344" lon="5.14069">
        <ele>440.94</ele>
        <time>2018-09-12T08:05:37.000Z</time>
      </trkpt>
      <trkpt lat="44.73346" lon="5.14084">
        <ele>440.94</ele>
        <time>2018-09-12T08:05:47.000Z</time>
      </trkpt>
      <trkpt lat="44.73347" lon="5.14098">
        <ele>441.12</ele>
        <time>2018-09-12T08:05:57.000Z</time>
      </trkpt>
      <trkpt lat="44.73346" lon="5.14116">
        <ele>442.17</ele>
        <time>2018-09-12T08:06:07.000Z</time>
      </trkpt>
      <trkpt lat="44.73344" lon="5.14131">
        <ele>443.48</ele>
        <time>2018-09-12T08:06:17.000Z</time>
      </trkpt>
      <trkpt lat="44.73346" lon="5.14148">
        <ele>443.16</ele>
        <time>2018-09-12T08:06:27.000Z</time>
      </trkpt>
      <trkpt lat="44.73348" lon="5.14161">
        <ele>442.98</ele>
        <time>2018-09-12T08:06:37.000Z</time>
      </trkpt>
      <trkpt lat="44.73349" lon="5.14177">
        <ele>443.04</ele>
        <time>2018-09-12T08:06:47.000Z</time>
      </trkpt>
      <trkpt lat="44.73349" lon="5.14194">
        <ele>442.96</ele>
        <time>2018-09-12T08:06:57.000Z</time>
      </trkpt>
      <trkpt lat="44.73347" lon="5.14209">
        <ele>443.8</ele>
        <time>2018-09-12T08:07:07.000Z</time>
      </trkpt>
      <trkpt lat="44.73346" lon="5.14224">
        <ele>444.23</ele>
        <time>2018-09-12T08:07:17.000Z</time>
      </trkpt>
      <trkpt lat="44.73342" lon="5.14237">
        <ele>445.37</ele>
        <time>2018-09-12T08:07:27.000Z</time>
      </trkpt>
      <trkpt lat="44.73337" lon="5.1425">
        <ele>446.23</ele>
        <time>2018-09-12T08:07:37.000Z</time>
      </trkpt>
      <trkpt lat="44.73333" lon="5.14266">
        <ele>446.91</ele>
        <time>2018-09-12T08:07:47.000Z</time>
      </trkpt>
      <trkpt lat="44.73333" lon="5.14281">
        <ele>447</ele>
        <time>2018-09-12T08:07:57.000Z</time>
      </trkpt>
      <trkpt lat="44.73336" lon="5.14298">
        <ele>446.77</ele>
        <time>2018-09-12T08:08:07.000Z</time>
      </trkpt>
      <trkpt lat="44.73345" lon="5.14312">
        <ele>445.98</ele>
        <time>2018-09-12T08:08:17.000Z</time>
      </trkpt>
      <trkpt lat="44.73353" lon="5.14328">
        <ele>444.85</ele>
        <time>2018-09-12T08:08:27.000Z</time>
      </trkpt>
      <trkpt lat="44.73358" lon="5.14342">
        <ele>443.17</ele>
        <time>2018-09-12T08:08:37.000Z</time>
      </trkpt>
      <trkpt lat="44.73368" lon="5.14351">
        <ele>441.93</ele>
        <time>2018-09-12T08:08:47.000Z</time>
      </trkpt>
      <trkpt lat="44.73379" lon="5.1436">
        <ele>440.84</ele>
        <time>2018-09-12T08:08:57.000Z</time>
      </trkpt>
      <trkpt lat="44.7339" lon="5.14368">
        <ele>440.24</ele>
        <time>2018-09-12T08:09:07.000Z</time>
      </trkpt>
      <trkpt lat="44.73401" lon="5.14378">
        <ele>439.85</ele>
        <time>2018-09-12T08:09:17.000Z</time>
      </trkpt>
      <trkpt lat="44.73412" lon="5.14386">
        <ele>440.05</ele>
        <time>2018-09-12T08:09:27.000Z</time>
      </trkpt>
      <trkpt lat="44.73418" lon="5.14396">
        <ele>439.75</ele>
        <time>2018-09-12T08:09:37.000Z</time>
      </trkpt>
      <trkpt lat="44.73426" lon="5.14405">
        <ele>439.88</ele>
        <time>2018-09-12T08:09:47.000Z</time>
      </trkpt>
      <trkpt lat="44.73436" lon="5.14419">
        <ele>439.64</ele>
        <time>2018-09-12T08:09:57.000Z</time>
      </trkpt>
      <trkpt lat="44.73445" lon="5.14428">
        <ele>439.8</ele>
        <time>2018-09-12T08:10:07.000Z</time>
      </trkpt>
      <trkpt lat="44.73456" lon="5.14437">
        <ele>440.63</ele>
        <time>2018-09-12T08:10:17.000Z</time>
      </trkpt>
      <trkpt lat="44.73468" lon="5.14444">
        <ele>441.54</ele>
        <time>2018-09-12T08:10:27.000Z</time>
      </trkpt>
      <trkpt lat="44.73476" lon="5.14458">
        <ele>439.39</ele>
        <time>2018-09-12T08:10:37.000Z</time>
      </trkpt>
      <trkpt lat="44.73481" lon="5.14473">
        <ele>436.04</ele>
        <time>2018-09-12T08:10:47.000Z</time>
      </trkpt>
      <trkpt lat="44.73487" lon="5.14486">
        <ele>433.53</ele>
        <time>2018-09-12T08:10:57.000Z</time>
      </trkpt>
      <trkpt lat="44.73495" lon="5.14497">
        <ele>432.2</ele>
        <time>2018-09-12T08:11:07.000Z</time>
      </trkpt>
      <trkpt lat="44.73503" lon="5.1451">
        <ele>429.94</ele>
        <time>2018-09-12T08:11:17.000Z</time>
      </trkpt>
      <trkpt lat="44.73511" lon="5.14523">
        <ele>427.56</ele>
        <time>2018-09-12T08:11:27.000Z</time>
      </trkpt>
      <trkpt lat="44.73518" lon="5.14536">
        <ele>424.94</ele>
        <time>2018-09-12T08:11:37.000Z</time>
      </trkpt>
      <trkpt lat="44.73526" lon="5.1455">
        <ele>422.52</ele>
        <time>2018-09-12T08:11:47.000Z</time>
      </trkpt>
      <trkpt lat="44.73531" lon="5.14563">
        <ele>420.49</ele>
        <time>2018-09-12T08:11:57.000Z</time>
      </trkpt>
      <trkpt lat="44.73537" lon="5.14577">
        <ele>418.88</ele>
        <time>2018-09-12T08:12:07.000Z</time>
      </trkpt>
      <trkpt lat="44.73544" lon="5.1459">
        <ele>418.06</ele>
        <time>2018-09-12T08:12:17.000Z</time>
      </trkpt>
      <trkpt lat="44.7355" lon="5.14606">
        <ele>417.68</ele>
        <time>2018-09-12T08:12:27.000Z</time>
      </trkpt>
      <trkpt lat="44.73552" lon="5.14619">
        <ele>417.56</ele>
        <time>2018-09-12T08:13:11.000Z</time>
      </trkpt>
      <trkpt lat="44.73554" lon="5.14632">
        <ele>417.69</ele>
        <time>2018-09-12T08:13:22.000Z</time>
      </trkpt>
      <trkpt lat="44.73558" lon="5.14647">
        <ele>418.08</ele>
        <time>2018-09-12T08:13:32.000Z</time>
      </trkpt>
      <trkpt lat="44.73562" lon="5.14664">
        <ele>418.42</ele>
        <time>2018-09-12T08:13:42.000Z</time>
      </trkpt>
      <trkpt lat="44.73565" lon="5.1468">
        <ele>418.6</ele>
        <time>2018-09-12T08:13:52.000Z</time>
      </trkpt>
      <trkpt lat="44.73568" lon="5.14697">
        <ele>418.64</ele>
        <time>2018-09-12T08:14:02.000Z</time>
      </trkpt>
      <trkpt lat="44.73572" lon="5.1471">
        <ele>419.16</ele>
        <time>2018-09-12T08:14:12.000Z</time>
      </trkpt>
      <trkpt lat="44.73579" lon="5.14726">
        <ele>419.84</ele>
        <time>2018-09-12T08:14:22.000Z</time>
      </trkpt>
      <trkpt lat="44.73583" lon="5.14743">
        <ele>420.04</ele>
        <time>2018-09-12T08:14:32.000Z</time>
      </trkpt>
      <trkpt lat="44.73576" lon="5.14757">
        <ele>418.43</ele>
        <time>2018-09-12T08:14:42.000Z</time>
      </trkpt>
      <trkpt lat="44.73568" lon="5.14763">
        <ele>415.98</ele>
        <time>2018-09-12T08:14:58.000Z</time>
      </trkpt>
      <trkpt lat="44.73565" lon="5.14776">
        <ele>413.7</ele>
        <time>2018-09-12T08:15:08.000Z</time>
      </trkpt>
      <trkpt lat="44.73574" lon="5.14774">
        <ele>417.19</ele>
        <time>2018-09-12T08:15:25.000Z</time>
      </trkpt>
      <trkpt lat="44.73583" lon="5.14777">
        <ele>419.35</ele>
        <time>2018-09-12T08:15:38.000Z</time>
      </trkpt>
      <trkpt lat="44.73588" lon="5.14789">
        <ele>419.85</ele>
        <time>2018-09-12T08:15:52.000Z</time>
      </trkpt>
      <trkpt lat="44.73591" lon="5.14802">
        <ele>420.14</ele>
        <time>2018-09-12T08:16:03.000Z</time>
      </trkpt>
      <trkpt lat="44.73594" lon="5.14814">
        <ele>420.33</ele>
        <time>2018-09-12T08:16:13.000Z</time>
      </trkpt>
      <trkpt lat="44.73598" lon="5.14827">
        <ele>420.79</ele>
        <time>2018-09-12T08:16:23.000Z</time>
      </trkpt>
      <trkpt lat="44.73604" lon="5.14836">
        <ele>421.41</ele>
        <time>2018-09-12T08:16:36.000Z</time>
      </trkpt>
      <trkpt lat="44.7361" lon="5.14847">
        <ele>422.15</ele>
        <time>2018-09-12T08:16:49.000Z</time>
      </trkpt>
      <trkpt lat="44.73617" lon="5.14858">
        <ele>423.34</ele>
        <time>2018-09-12T08:16:59.000Z</time>
      </trkpt>
      <trkpt lat="44.73625" lon="5.14867">
        <ele>424.68</ele>
        <time>2018-09-12T08:17:09.000Z</time>
      </trkpt>
      <trkpt lat="44.73628" lon="5.1488">
        <ele>426.11</ele>
        <time>2018-09-12T08:17:21.000Z</time>
      </trkpt>
      <trkpt lat="44.73636" lon="5.14886">
        <ele>427.72</ele>
        <time>2018-09-12T08:17:33.000Z</time>
      </trkpt>
      <trkpt lat="44.73641" lon="5.14898">
        <ele>429.33</ele>
        <time>2018-09-12T08:17:43.000Z</time>
      </trkpt>
      <trkpt lat="44.73647" lon="5.1491">
        <ele>430.76</ele>
        <time>2018-09-12T08:17:53.000Z</time>
      </trkpt>
      <trkpt lat="44.73656" lon="5.14923">
        <ele>431.75</ele>
        <time>2018-09-12T08:18:03.000Z</time>
      </trkpt>
      <trkpt lat="44.73666" lon="5.14933">
        <ele>432.75</ele>
        <time>2018-09-12T08:18:13.000Z</time>
      </trkpt>
      <trkpt lat="44.73673" lon="5.14941">
        <ele>433.28</ele>
        <time>2018-09-12T08:18:23.000Z</time>
      </trkpt>
      <trkpt lat="44.73681" lon="5.1495">
        <ele>433.64</ele>
        <time>2018-09-12T08:18:33.000Z</time>
      </trkpt>
      <trkpt lat="44.7369" lon="5.14961">
        <ele>434.44</ele>
        <time>2018-09-12T08:18:43.000Z</time>
      </trkpt>
      <trkpt lat="44.73697" lon="5.14971">
        <ele>435.45</ele>
        <time>2018-09-12T08:18:57.000Z</time>
      </trkpt>
      <trkpt lat="44.73702" lon="5.14982">
        <ele>436.46</ele>
        <time>2018-09-12T08:19:08.000Z</time>
      </trkpt>
      <trkpt lat="44.7371" lon="5.14989">
        <ele>438.97</ele>
        <time>2018-09-12T08:19:19.000Z</time>
      </trkpt>
      <trkpt lat="44.73716" lon="5.14999">
        <ele>441.25</ele>
        <time>2018-09-12T08:19:30.000Z</time>
      </trkpt>
      <trkpt lat="44.7372" lon="5.15013">
        <ele>442.68</ele>
        <time>2018-09-12T08:19:40.000Z</time>
      </trkpt>
      <trkpt lat="44.73728" lon="5.15019">
        <ele>445.78</ele>
        <time>2018-09-12T08:19:52.000Z</time>
      </trkpt>
      <trkpt lat="44.73736" lon="5.15027">
        <ele>448.4</ele>
        <time>2018-09-12T08:20:03.000Z</time>
      </trkpt>
      <trkpt lat="44.73742" lon="5.15037">
        <ele>450.16</ele>
        <time>2018-09-12T08:20:16.000Z</time>
      </trkpt>
      <trkpt lat="44.73749" lon="5.15046">
        <ele>451.95</ele>
        <time>2018-09-12T08:20:26.000Z</time>
      </trkpt>
      <trkpt lat="44.73754" lon="5.15057">
        <ele>452.65</ele>
        <time>2018-09-12T08:20:36.000Z</time>
      </trkpt>
      <trkpt lat="44.7376" lon="5.15067">
        <ele>453.34</ele>
        <time>2018-09-12T08:20:47.000Z</time>
      </trkpt>
      <trkpt lat="44.73764" lon="5.15079">
        <ele>453.55</ele>
        <time>2018-09-12T08:20:58.000Z</time>
      </trkpt>
      <trkpt lat="44.73765" lon="5.15091">
        <ele>453.59</ele>
        <time>2018-09-12T08:21:08.000Z</time>
      </trkpt>
      <trkpt lat="44.73768" lon="5.15107">
        <ele>453.69</ele>
        <time>2018-09-12T08:21:18.000Z</time>
      </trkpt>
      <trkpt lat="44.73772" lon="5.15122">
        <ele>454.21</ele>
        <time>2018-09-12T08:21:28.000Z</time>
      </trkpt>
      <trkpt lat="44.73776" lon="5.15135">
        <ele>455.15</ele>
        <time>2018-09-12T08:21:38.000Z</time>
      </trkpt>
      <trkpt lat="44.73782" lon="5.15146">
        <ele>456.64</ele>
        <time>2018-09-12T08:21:48.000Z</time>
      </trkpt>
      <trkpt lat="44.7379" lon="5.15157">
        <ele>458.51</ele>
        <time>2018-09-12T08:21:58.000Z</time>
      </trkpt>
      <trkpt lat="44.73795" lon="5.15169">
        <ele>459.49</ele>
        <time>2018-09-12T08:22:08.000Z</time>
      </trkpt>
      <trkpt lat="44.73804" lon="5.15182">
        <ele>460.9</ele>
        <time>2018-09-12T08:22:18.000Z</time>
      </trkpt>
      <trkpt lat="44.73815" lon="5.15191">
        <ele>461.68</ele>
        <time>2018-09-12T08:22:28.000Z</time>
      </trkpt>
      <trkpt lat="44.73823" lon="5.15199">
        <ele>461.4</ele>
        <time>2018-09-12T08:22:38.000Z</time>
      </trkpt>
      <trkpt lat="44.73832" lon="5.15209">
        <ele>460.14</ele>
        <time>2018-09-12T08:22:48.000Z</time>
      </trkpt>
      <trkpt lat="44.73842" lon="5.1521">
        <ele>460.13</ele>
        <time>2018-09-12T08:22:58.000Z</time>
      </trkpt>
      <trkpt lat="44.73853" lon="5.1521">
        <ele>459.42</ele>
        <time>2018-09-12T08:23:08.000Z</time>
      </trkpt>
      <trkpt lat="44.73863" lon="5.15207">
        <ele>458.95</ele>
        <time>2018-09-12T08:23:18.000Z</time>
      </trkpt>
      <trkpt lat="44.73873" lon="5.15209">
        <ele>456.96</ele>
        <time>2018-09-12T08:23:28.000Z</time>
      </trkpt>
      <trkpt lat="44.73884" lon="5.15212">
        <ele>454.93</ele>
        <time>2018-09-12T08:23:38.000Z</time>
      </trkpt>
      <trkpt lat="44.73893" lon="5.15219">
        <ele>452.77</ele>
        <time>2018-09-12T08:23:48.000Z</time>
      </trkpt>
      <trkpt lat="44.73901" lon="5.15229">
        <ele>450.65</ele>
        <time>2018-09-12T08:23:58.000Z</time>
      </trkpt>
      <trkpt lat="44.73913" lon="5.15239">
        <ele>448.6</ele>
        <time>2018-09-12T08:24:08.000Z</time>
      </trkpt>
      <trkpt lat="44.73923" lon="5.15249">
        <ele>447.17</ele>
        <time>2018-09-12T08:24:18.000Z</time>
      </trkpt>
      <trkpt lat="44.73936" lon="5.15252">
        <ele>447.38</ele>
        <time>2018-09-12T08:24:28.000Z</time>
      </trkpt>
      <trkpt lat="44.7395" lon="5.15258">
        <ele>447.68</ele>
        <time>2018-09-12T08:24:38.000Z</time>
      </trkpt>
      <trkpt lat="44.73962" lon="5.15265">
        <ele>447.86</ele>
        <time>2018-09-12T08:24:48.000Z</time>
      </trkpt>
      <trkpt lat="44.73975" lon="5.15274">
        <ele>447.86</ele>
        <time>2018-09-12T08:24:58.000Z</time>
      </trkpt>
      <trkpt lat="44.73989" lon="5.15282">
        <ele>447.8</ele>
        <time>2018-09-12T08:25:08.000Z</time>
      </trkpt>
      <trkpt lat="44.73999" lon="5.15291">
        <ele>447.2</ele>
        <time>2018-09-12T08:25:18.000Z</time>
      </trkpt>
      <trkpt lat="44.74006" lon="5.15303">
        <ele>446.4</ele>
        <time>2018-09-12T08:25:28.000Z</time>
      </trkpt>
      <trkpt lat="44.74009" lon="5.15315">
        <ele>445.93</ele>
        <time>2018-09-12T08:25:41.000Z</time>
      </trkpt>
      <trkpt lat="44.74004" lon="5.15326">
        <ele>445.37</ele>
        <time>2018-09-12T08:25:59.000Z</time>
      </trkpt>
      <trkpt lat="44.74001" lon="5.15339">
        <ele>445.31</ele>
        <time>2018-09-12T08:28:08.000Z</time>
      </trkpt>
      <trkpt lat="44.74007" lon="5.15328">
        <ele>445.61</ele>
        <time>2018-09-12T08:28:56.000Z</time>
      </trkpt>
      <trkpt lat="44.74002" lon="5.1534">
        <ele>445.49</ele>
        <time>2018-09-12T08:31:51.000Z</time>
      </trkpt>
      <trkpt lat="44.73997" lon="5.15351">
        <ele>445.44</ele>
        <time>2018-09-12T08:32:01.000Z</time>
      </trkpt>
      <trkpt lat="44.7399" lon="5.15364">
        <ele>444.92</ele>
        <time>2018-09-12T08:32:11.000Z</time>
      </trkpt>
      <trkpt lat="44.73983" lon="5.15376">
        <ele>444.45</ele>
        <time>2018-09-12T08:32:21.000Z</time>
      </trkpt>
      <trkpt lat="44.73979" lon="5.15392">
        <ele>444.75</ele>
        <time>2018-09-12T08:32:31.000Z</time>
      </trkpt>
      <trkpt lat="44.73971" lon="5.15404">
        <ele>443.33</ele>
        <time>2018-09-12T08:32:41.000Z</time>
      </trkpt>
      <trkpt lat="44.73966" lon="5.15417">
        <ele>442.25</ele>
        <time>2018-09-12T08:32:51.000Z</time>
      </trkpt>
      <trkpt lat="44.73964" lon="5.15431">
        <ele>442.37</ele>
        <time>2018-09-12T08:33:02.000Z</time>
      </trkpt>
      <trkpt lat="44.73961" lon="5.15449">
        <ele>442.6</ele>
        <time>2018-09-12T08:33:12.000Z</time>
      </trkpt>
      <trkpt lat="44.73956" lon="5.15466">
        <ele>441.7</ele>
        <time>2018-09-12T08:33:22.000Z</time>
      </trkpt>
      <trkpt lat="44.73953" lon="5.15482">
        <ele>441.65</ele>
        <time>2018-09-12T08:33:32.000Z</time>
      </trkpt>
      <trkpt lat="44.73953" lon="5.15498">
        <ele>441.95</ele>
        <time>2018-09-12T08:33:42.000Z</time>
      </trkpt>
      <trkpt lat="44.73955" lon="5.15511">
        <ele>442.78</ele>
        <time>2018-09-12T08:33:52.000Z</time>
      </trkpt>
      <trkpt lat="44.73957" lon="5.1553">
        <ele>442.99</ele>
        <time>2018-09-12T08:34:02.000Z</time>
      </trkpt>
      <trkpt lat="44.73959" lon="5.15546">
        <ele>442.56</ele>
        <time>2018-09-12T08:34:12.000Z</time>
      </trkpt>
      <trkpt lat="44.73961" lon="5.15563">
        <ele>441.82</ele>
        <time>2018-09-12T08:34:22.000Z</time>
      </trkpt>
      <trkpt lat="44.73965" lon="5.15581">
        <ele>441.49</ele>
        <time>2018-09-12T08:34:32.000Z</time>
      </trkpt>
      <trkpt lat="44.73973" lon="5.15592">
        <ele>442.08</ele>
        <time>2018-09-12T08:34:42.000Z</time>
      </trkpt>
      <trkpt lat="44.73984" lon="5.15599">
        <ele>443.57</ele>
        <time>2018-09-12T08:34:52.000Z</time>
      </trkpt>
      <trkpt lat="44.73995" lon="5.15606">
        <ele>443.79</ele>
        <time>2018-09-12T08:35:02.000Z</time>
      </trkpt>
      <trkpt lat="44.74008" lon="5.15616">
        <ele>442.86</ele>
        <time>2018-09-12T08:35:12.000Z</time>
      </trkpt>
      <trkpt lat="44.74017" lon="5.15626">
        <ele>441.03</ele>
        <time>2018-09-12T08:35:22.000Z</time>
      </trkpt>
      <trkpt lat="44.74027" lon="5.15638">
        <ele>438.38</ele>
        <time>2018-09-12T08:35:32.000Z</time>
      </trkpt>
      <trkpt lat="44.74036" lon="5.15649">
        <ele>436.77</ele>
        <time>2018-09-12T08:35:42.000Z</time>
      </trkpt>
      <trkpt lat="44.74047" lon="5.1566">
        <ele>436.52</ele>
        <time>2018-09-12T08:35:52.000Z</time>
      </trkpt>
      <trkpt lat="44.74057" lon="5.15667">
        <ele>437.9</ele>
        <time>2018-09-12T08:36:02.000Z</time>
      </trkpt>
      <trkpt lat="44.74065" lon="5.15676">
        <ele>439.26</ele>
        <time>2018-09-12T08:36:12.000Z</time>
      </trkpt>
      <trkpt lat="44.74074" lon="5.15687">
        <ele>441.7</ele>
        <time>2018-09-12T08:36:22.000Z</time>
      </trkpt>
      <trkpt lat="44.74081" lon="5.15697">
        <ele>444.36</ele>
        <time>2018-09-12T08:36:32.000Z</time>
      </trkpt>
      <trkpt lat="44.74074" lon="5.15707">
        <ele>443.33</ele>
        <time>2018-09-12T08:36:42.000Z</time>
      </trkpt>
      <trkpt lat="44.74068" lon="5.1572">
        <ele>443.21</ele>
        <time>2018-09-12T08:36:52.000Z</time>
      </trkpt>
      <trkpt lat="44.74061" lon="5.1573">
        <ele>442.28</ele>
        <time>2018-09-12T08:37:02.000Z</time>
      </trkpt>
      <trkpt lat="44.74053" lon="5.15746">
        <ele>440.64</ele>
        <time>2018-09-12T08:37:12.000Z</time>
      </trkpt>
      <trkpt lat="44.74044" lon="5.15753">
        <ele>438.29</ele>
        <time>2018-09-12T08:37:27.000Z</time>
      </trkpt>
      <trkpt lat="44.74034" lon="5.15761">
        <ele>435.19</ele>
        <time>2018-09-12T08:37:37.000Z</time>
      </trkpt>
      <trkpt lat="44.7403" lon="5.15777">
        <ele>433.62</ele>
        <time>2018-09-12T08:37:47.000Z</time>
      </trkpt>
      <trkpt lat="44.74026" lon="5.15791">
        <ele>431.5</ele>
        <time>2018-09-12T08:37:57.000Z</time>
      </trkpt>
      <trkpt lat="44.74029" lon="5.15805">
        <ele>431.04</ele>
        <time>2018-09-12T08:38:07.000Z</time>
      </trkpt>
      <trkpt lat="44.74031" lon="5.15818">
        <ele>429.78</ele>
        <time>2018-09-12T08:38:18.000Z</time>
      </trkpt>
      <trkpt lat="44.74035" lon="5.15833">
        <ele>427.97</ele>
        <time>2018-09-12T08:38:28.000Z</time>
      </trkpt>
      <trkpt lat="44.7404" lon="5.15844">
        <ele>426.56</ele>
        <time>2018-09-12T08:38:40.000Z</time>
      </trkpt>
      <trkpt lat="44.74046" lon="5.15856">
        <ele>424.39</ele>
        <time>2018-09-12T08:38:50.000Z</time>
      </trkpt>
      <trkpt lat="44.74048" lon="5.1587">
        <ele>419.77</ele>
        <time>2018-09-12T08:39:00.000Z</time>
      </trkpt>
      <trkpt lat="44.74055" lon="5.1588">
        <ele>418.72</ele>
        <time>2018-09-12T08:39:10.000Z</time>
      </trkpt>
      <trkpt lat="44.74059" lon="5.15892">
        <ele>415.76</ele>
        <time>2018-09-12T08:39:20.000Z</time>
      </trkpt>
      <trkpt lat="44.7406" lon="5.15905">
        <ele>411.68</ele>
        <time>2018-09-12T08:39:32.000Z</time>
      </trkpt>
      <trkpt lat="44.74062" lon="5.15918">
        <ele>408.6</ele>
        <time>2018-09-12T08:39:43.000Z</time>
      </trkpt>
      <trkpt lat="44.74063" lon="5.1593">
        <ele>406.48</ele>
        <time>2018-09-12T08:39:54.000Z</time>
      </trkpt>
      <trkpt lat="44.74064" lon="5.15943">
        <ele>403.9</ele>
        <time>2018-09-12T08:40:05.000Z</time>
      </trkpt>
      <trkpt lat="44.74064" lon="5.15957">
        <ele>401.34</ele>
        <time>2018-09-12T08:40:15.000Z</time>
      </trkpt>
      <trkpt lat="44.74055" lon="5.15951">
        <ele>398.64</ele>
        <time>2018-09-12T08:40:37.000Z</time>
      </trkpt>
      <trkpt lat="44.74054" lon="5.15964">
        <ele>395.78</ele>
        <time>2018-09-12T08:40:54.000Z</time>
      </trkpt>
      <trkpt lat="44.74055" lon="5.15977">
        <ele>394.27</ele>
        <time>2018-09-12T08:41:07.000Z</time>
      </trkpt>
      <trkpt lat="44.7406" lon="5.15991">
        <ele>394.06</ele>
        <time>2018-09-12T08:41:17.000Z</time>
      </trkpt>
      <trkpt lat="44.74064" lon="5.16004">
        <ele>393.84</ele>
        <time>2018-09-12T08:41:27.000Z</time>
      </trkpt>
      <trkpt lat="44.74066" lon="5.16021">
        <ele>392.96</ele>
        <time>2018-09-12T08:41:37.000Z</time>
      </trkpt>
      <trkpt lat="44.74068" lon="5.16034">
        <ele>392.49</ele>
        <time>2018-09-12T08:41:47.000Z</time>
      </trkpt>
      <trkpt lat="44.74067" lon="5.16047">
        <ele>391.54</ele>
        <time>2018-09-12T08:41:58.000Z</time>
      </trkpt>
      <trkpt lat="44.74058" lon="5.1605">
        <ele>389.92</ele>
        <time>2018-09-12T08:42:12.000Z</time>
      </trkpt>
      <trkpt lat="44.74052" lon="5.1604">
        <ele>389.14</ele>
        <time>2018-09-12T08:42:22.000Z</time>
      </trkpt>
      <trkpt lat="44.74048" lon="5.16052">
        <ele>389</ele>
        <time>2018-09-12T08:42:32.000Z</time>
      </trkpt>
      <trkpt lat="44.7405" lon="5.16067">
        <ele>389.5</ele>
        <time>2018-09-12T08:42:42.000Z</time>
      </trkpt>
      <trkpt lat="44.74055" lon="5.16078">
        <ele>389.7</ele>
        <time>2018-09-12T08:42:54.000Z</time>
      </trkpt>
      <trkpt lat="44.74057" lon="5.16092">
        <ele>389.7</ele>
        <time>2018-09-12T08:43:12.000Z</time>
      </trkpt>
      <trkpt lat="44.74057" lon="5.16108">
        <ele>389.89</ele>
        <time>2018-09-12T08:43:22.000Z</time>
      </trkpt>
      <trkpt lat="44.74058" lon="5.16126">
        <ele>390.17</ele>
        <time>2018-09-12T08:43:32.000Z</time>
      </trkpt>
      <trkpt lat="44.74059" lon="5.16144">
        <ele>390.49</ele>
        <time>2018-09-12T08:43:42.000Z</time>
      </trkpt>
      <trkpt lat="44.74057" lon="5.1616">
        <ele>390.91</ele>
        <time>2018-09-12T08:43:52.000Z</time>
      </trkpt>
      <trkpt lat="44.74057" lon="5.16182">
        <ele>390.88</ele>
        <time>2018-09-12T08:44:02.000Z</time>
      </trkpt>
      <trkpt lat="44.74055" lon="5.16196">
        <ele>391.05</ele>
        <time>2018-09-12T08:44:16.000Z</time>
      </trkpt>
      <trkpt lat="44.74053" lon="5.16209">
        <ele>391.07</ele>
        <time>2018-09-12T08:44:29.000Z</time>
      </trkpt>
      <trkpt lat="44.74053" lon="5.16222">
        <ele>390.86</ele>
        <time>2018-09-12T08:44:41.000Z</time>
      </trkpt>
      <trkpt lat="44.74051" lon="5.16235">
        <ele>391.1</ele>
        <time>2018-09-12T08:44:53.000Z</time>
      </trkpt>
      <trkpt lat="44.74053" lon="5.16248">
        <ele>390.97</ele>
        <time>2018-09-12T08:45:03.000Z</time>
      </trkpt>
      <trkpt lat="44.74053" lon="5.16264">
        <ele>391.2</ele>
        <time>2018-09-12T08:45:13.000Z</time>
      </trkpt>
      <trkpt lat="44.74055" lon="5.16279">
        <ele>391.17</ele>
        <time>2018-09-12T08:45:23.000Z</time>
      </trkpt>
      <trkpt lat="44.74057" lon="5.16292">
        <ele>391.31</ele>
        <time>2018-09-12T08:45:38.000Z</time>
      </trkpt>
      <trkpt lat="44.74055" lon="5.16305">
        <ele>391.96</ele>
        <time>2018-09-12T08:45:50.000Z</time>
      </trkpt>
      <trkpt lat="44.74055" lon="5.16318">
        <ele>392.89</ele>
        <time>2018-09-12T08:46:04.000Z</time>
      </trkpt>
      <trkpt lat="44.74056" lon="5.16331">
        <ele>394.45</ele>
        <time>2018-09-12T08:46:22.000Z</time>
      </trkpt>
      <trkpt lat="44.74055" lon="5.16345">
        <ele>396.87</ele>
        <time>2018-09-12T08:46:34.000Z</time>
      </trkpt>
      <trkpt lat="44.74056" lon="5.16358">
        <ele>399.87</ele>
        <time>2018-09-12T08:46:45.000Z</time>
      </trkpt>
      <trkpt lat="44.74056" lon="5.1637">
        <ele>403.33</ele>
        <time>2018-09-12T08:46:58.000Z</time>
      </trkpt>
      <trkpt lat="44.74056" lon="5.16383">
        <ele>407.05</ele>
        <time>2018-09-12T08:47:10.000Z</time>
      </trkpt>
      <trkpt lat="44.74054" lon="5.16396">
        <ele>410.83</ele>
        <time>2018-09-12T08:47:21.000Z</time>
      </trkpt>
      <trkpt lat="44.74057" lon="5.16409">
        <ele>413.92</ele>
        <time>2018-09-12T08:47:33.000Z</time>
      </trkpt>
      <trkpt lat="44.74063" lon="5.1642">
        <ele>415.67</ele>
        <time>2018-09-12T08:48:39.000Z</time>
      </trkpt>
      <trkpt lat="44.7407" lon="5.16432">
        <ele>416.84</ele>
        <time>2018-09-12T08:48:49.000Z</time>
      </trkpt>
      <trkpt lat="44.74074" lon="5.16444">
        <ele>417.95</ele>
        <time>2018-09-12T08:49:00.000Z</time>
      </trkpt>
      <trkpt lat="44.74079" lon="5.16455">
        <ele>418.57</ele>
        <time>2018-09-12T08:49:10.000Z</time>
      </trkpt>
      <trkpt lat="44.74083" lon="5.16471">
        <ele>419.74</ele>
        <time>2018-09-12T08:49:20.000Z</time>
      </trkpt>
      <trkpt lat="44.74084" lon="5.16484">
        <ele>421.23</ele>
        <time>2018-09-12T08:49:30.000Z</time>
      </trkpt>
      <trkpt lat="44.74091" lon="5.16493">
        <ele>421.76</ele>
        <time>2018-09-12T08:49:40.000Z</time>
      </trkpt>
      <trkpt lat="44.74091" lon="5.16506">
        <ele>424.17</ele>
        <time>2018-09-12T08:50:00.000Z</time>
      </trkpt>
      <trkpt lat="44.74092" lon="5.1652">
        <ele>426.94</ele>
        <time>2018-09-12T08:50:11.000Z</time>
      </trkpt>
      <trkpt lat="44.74095" lon="5.16536">
        <ele>430.75</ele>
        <time>2018-09-12T08:50:21.000Z</time>
      </trkpt>
      <trkpt lat="44.74103" lon="5.16548">
        <ele>432.39</ele>
        <time>2018-09-12T08:50:31.000Z</time>
      </trkpt>
      <trkpt lat="44.74115" lon="5.16552">
        <ele>431.71</ele>
        <time>2018-09-12T08:50:41.000Z</time>
      </trkpt>
      <trkpt lat="44.74123" lon="5.1656">
        <ele>432.2</ele>
        <time>2018-09-12T08:50:51.000Z</time>
      </trkpt>
      <trkpt lat="44.74127" lon="5.16571">
        <ele>434.43</ele>
        <time>2018-09-12T08:51:02.000Z</time>
      </trkpt>
      <trkpt lat="44.74135" lon="5.16582">
        <ele>435.9</ele>
        <time>2018-09-12T08:51:13.000Z</time>
      </trkpt>
      <trkpt lat="44.74141" lon="5.16591">
        <ele>437.44</ele>
        <time>2018-09-12T08:51:24.000Z</time>
      </trkpt>
      <trkpt lat="44.74149" lon="5.16597">
        <ele>438.24</ele>
        <time>2018-09-12T08:51:37.000Z</time>
      </trkpt>
      <trkpt lat="44.74158" lon="5.16603">
        <ele>439.32</ele>
        <time>2018-09-12T08:51:50.000Z</time>
      </trkpt>
      <trkpt lat="44.74167" lon="5.16603">
        <ele>438.51</ele>
        <time>2018-09-12T08:52:06.000Z</time>
      </trkpt>
      <trkpt lat="44.74176" lon="5.16601">
        <ele>436.83</ele>
        <time>2018-09-12T08:52:50.000Z</time>
      </trkpt>
      <trkpt lat="44.74184" lon="5.16609">
        <ele>438.79</ele>
        <time>2018-09-12T08:53:11.000Z</time>
      </trkpt>
      <trkpt lat="44.7419" lon="5.1662">
        <ele>441.92</ele>
        <time>2018-09-12T08:53:22.000Z</time>
      </trkpt>
      <trkpt lat="44.74195" lon="5.16631">
        <ele>445.25</ele>
        <time>2018-09-12T08:53:32.000Z</time>
      </trkpt>
      <trkpt lat="44.74202" lon="5.16621">
        <ele>441.14</ele>
        <time>2018-09-12T08:53:42.000Z</time>
      </trkpt>
      <trkpt lat="44.74212" lon="5.16621">
        <ele>439.52</ele>
        <time>2018-09-12T08:53:52.000Z</time>
      </trkpt>
      <trkpt lat="44.74221" lon="5.16627">
        <ele>440.02</ele>
        <time>2018-09-12T08:54:03.000Z</time>
      </trkpt>
      <trkpt lat="44.7423" lon="5.16638">
        <ele>441.51</ele>
        <time>2018-09-12T08:54:13.000Z</time>
      </trkpt>
      <trkpt lat="44.74238" lon="5.16645">
        <ele>441.87</ele>
        <time>2018-09-12T08:54:23.000Z</time>
      </trkpt>
      <trkpt lat="44.74249" lon="5.16656">
        <ele>442.61</ele>
        <time>2018-09-12T08:54:33.000Z</time>
      </trkpt>
      <trkpt lat="44.74258" lon="5.16666">
        <ele>443.81</ele>
        <time>2018-09-12T08:54:43.000Z</time>
      </trkpt>
      <trkpt lat="44.74267" lon="5.16674">
        <ele>444.51</ele>
        <time>2018-09-12T08:54:53.000Z</time>
      </trkpt>
      <trkpt lat="44.74274" lon="5.16685">
        <ele>446.29</ele>
        <time>2018-09-12T08:55:03.000Z</time>
      </trkpt>
      <trkpt lat="44.74277" lon="5.16697">
        <ele>448.71</ele>
        <time>2018-09-12T08:55:13.000Z</time>
      </trkpt>
      <trkpt lat="44.74287" lon="5.16698">
        <ele>447.72</ele>
        <time>2018-09-12T08:55:23.000Z</time>
      </trkpt>
      <trkpt lat="44.74296" lon="5.16701">
        <ele>447.31</ele>
        <time>2018-09-12T08:55:33.000Z</time>
      </trkpt>
      <trkpt lat="44.74303" lon="5.16709">
        <ele>448.44</ele>
        <time>2018-09-12T08:55:45.000Z</time>
      </trkpt>
      <trkpt lat="44.74312" lon="5.16715">
        <ele>448.96</ele>
        <time>2018-09-12T08:55:55.000Z</time>
      </trkpt>
      <trkpt lat="44.74319" lon="5.16724">
        <ele>450.38</ele>
        <time>2018-09-12T08:56:06.000Z</time>
      </trkpt>
      <trkpt lat="44.74326" lon="5.16733">
        <ele>451.66</ele>
        <time>2018-09-12T08:56:16.000Z</time>
      </trkpt>
      <trkpt lat="44.74333" lon="5.16741">
        <ele>453.24</ele>
        <time>2018-09-12T08:56:27.000Z</time>
      </trkpt>
      <trkpt lat="44.74342" lon="5.16749">
        <ele>454.62</ele>
        <time>2018-09-12T08:56:37.000Z</time>
      </trkpt>
      <trkpt lat="44.74349" lon="5.16761">
        <ele>458.01</ele>
        <time>2018-09-12T08:56:47.000Z</time>
      </trkpt>
      <trkpt lat="44.74356" lon="5.16771">
        <ele>461.09</ele>
        <time>2018-09-12T08:56:59.000Z</time>
      </trkpt>
      <trkpt lat="44.74362" lon="5.16781">
        <ele>464.62</ele>
        <time>2018-09-12T08:57:10.000Z</time>
      </trkpt>
      <trkpt lat="44.7437" lon="5.16788">
        <ele>466.59</ele>
        <time>2018-09-12T08:57:22.000Z</time>
      </trkpt>
      <trkpt lat="44.7438" lon="5.16794">
        <ele>467.88</ele>
        <time>2018-09-12T08:57:36.000Z</time>
      </trkpt>
      <trkpt lat="44.74387" lon="5.16802">
        <ele>469.93</ele>
        <time>2018-09-12T08:57:49.000Z</time>
      </trkpt>
      <trkpt lat="44.74396" lon="5.16809">
        <ele>471.16</ele>
        <time>2018-09-12T08:57:59.000Z</time>
      </trkpt>
      <trkpt lat="44.74404" lon="5.16814">
        <ele>471.71</ele>
        <time>2018-09-12T08:58:10.000Z</time>
      </trkpt>
      <trkpt lat="44.74413" lon="5.16821">
        <ele>472.46</ele>
        <time>2018-09-12T08:58:22.000Z</time>
      </trkpt>
      <trkpt lat="44.74421" lon="5.16826">
        <ele>472.57</ele>
        <time>2018-09-12T08:58:33.000Z</time>
      </trkpt>
      <trkpt lat="44.74429" lon="5.16835">
        <ele>473.3</ele>
        <time>2018-09-12T08:58:46.000Z</time>
      </trkpt>
      <trkpt lat="44.74433" lon="5.16847">
        <ele>474.55</ele>
        <time>2018-09-12T08:59:01.000Z</time>
      </trkpt>
      <trkpt lat="44.74438" lon="5.16859">
        <ele>475.21</ele>
        <time>2018-09-12T09:06:39.000Z</time>
      </trkpt>
      <trkpt lat="44.74437" lon="5.16872">
        <ele>476.63</ele>
        <time>2018-09-12T09:06:49.000Z</time>
      </trkpt>
      <trkpt lat="44.74436" lon="5.16885">
        <ele>477.38</ele>
        <time>2018-09-12T09:07:01.000Z</time>
      </trkpt>
      <trkpt lat="44.74434" lon="5.16901">
        <ele>477.85</ele>
        <time>2018-09-12T09:07:11.000Z</time>
      </trkpt>
      <trkpt lat="44.74427" lon="5.16912">
        <ele>478.86</ele>
        <time>2018-09-12T09:07:21.000Z</time>
      </trkpt>
      <trkpt lat="44.74417" lon="5.16921">
        <ele>480.43</ele>
        <time>2018-09-12T09:07:31.000Z</time>
      </trkpt>
      <trkpt lat="44.74407" lon="5.16929">
        <ele>481.32</ele>
        <time>2018-09-12T09:07:41.000Z</time>
      </trkpt>
      <trkpt lat="44.74397" lon="5.16938">
        <ele>481.37</ele>
        <time>2018-09-12T09:07:51.000Z</time>
      </trkpt>
      <trkpt lat="44.74386" lon="5.16945">
        <ele>482.04</ele>
        <time>2018-09-12T09:08:01.000Z</time>
      </trkpt>
      <trkpt lat="44.74376" lon="5.16954">
        <ele>481.7</ele>
        <time>2018-09-12T09:08:11.000Z</time>
      </trkpt>
      <trkpt lat="44.74366" lon="5.16965">
        <ele>481.15</ele>
        <time>2018-09-12T09:08:21.000Z</time>
      </trkpt>
      <trkpt lat="44.74356" lon="5.16972">
        <ele>481.79</ele>
        <time>2018-09-12T09:08:31.000Z</time>
      </trkpt>
      <trkpt lat="44.74345" lon="5.16981">
        <ele>481.94</ele>
        <time>2018-09-12T09:08:41.000Z</time>
      </trkpt>
      <trkpt lat="44.74335" lon="5.16988">
        <ele>482.73</ele>
        <time>2018-09-12T09:08:51.000Z</time>
      </trkpt>
      <trkpt lat="44.74324" lon="5.16996">
        <ele>483.35</ele>
        <time>2018-09-12T09:09:01.000Z</time>
      </trkpt>
      <trkpt lat="44.74316" lon="5.17003">
        <ele>483.65</ele>
        <time>2018-09-12T09:09:11.000Z</time>
      </trkpt>
      <trkpt lat="44.74304" lon="5.1701">
        <ele>484.39</ele>
        <time>2018-09-12T09:09:21.000Z</time>
      </trkpt>
      <trkpt lat="44.74293" lon="5.17019">
        <ele>484.57</ele>
        <time>2018-09-12T09:09:31.000Z</time>
      </trkpt>
      <trkpt lat="44.74281" lon="5.17027">
        <ele>485.05</ele>
        <time>2018-09-12T09:09:41.000Z</time>
      </trkpt>
      <trkpt lat="44.7427" lon="5.17033">
        <ele>486.29</ele>
        <time>2018-09-12T09:09:51.000Z</time>
      </trkpt>
      <trkpt lat="44.7426" lon="5.17042">
        <ele>486.89</ele>
        <time>2018-09-12T09:10:01.000Z</time>
      </trkpt>
      <trkpt lat="44.74249" lon="5.1705">
        <ele>487.62</ele>
        <time>2018-09-12T09:10:11.000Z</time>
      </trkpt>
      <trkpt lat="44.74239" lon="5.17059">
        <ele>487.95</ele>
        <time>2018-09-12T09:10:21.000Z</time>
      </trkpt>
      <trkpt lat="44.74229" lon="5.1707">
        <ele>487.67</ele>
        <time>2018-09-12T09:10:31.000Z</time>
      </trkpt>
      <trkpt lat="44.74219" lon="5.17081">
        <ele>487.54</ele>
        <time>2018-09-12T09:10:41.000Z</time>
      </trkpt>
      <trkpt lat="44.74209" lon="5.17092">
        <ele>487.41</ele>
        <time>2018-09-12T09:10:51.000Z</time>
      </trkpt>
      <trkpt lat="44.74199" lon="5.17101">
        <ele>487.98</ele>
        <time>2018-09-12T09:11:01.000Z</time>
      </trkpt>
      <trkpt lat="44.74191" lon="5.17112">
        <ele>488.63</ele>
        <time>2018-09-12T09:11:11.000Z</time>
      </trkpt>
      <trkpt lat="44.74183" lon="5.17123">
        <ele>489.94</ele>
        <time>2018-09-12T09:11:21.000Z</time>
      </trkpt>
      <trkpt lat="44.74175" lon="5.17134">
        <ele>491.58</ele>
        <time>2018-09-12T09:11:31.000Z</time>
      </trkpt>
      <trkpt lat="44.74167" lon="5.17146">
        <ele>492.87</ele>
        <time>2018-09-12T09:11:41.000Z</time>
      </trkpt>
      <trkpt lat="44.74158" lon="5.17156">
        <ele>494.83</ele>
        <time>2018-09-12T09:11:51.000Z</time>
      </trkpt>
      <trkpt lat="44.74148" lon="5.17164">
        <ele>496.79</ele>
        <time>2018-09-12T09:12:01.000Z</time>
      </trkpt>
      <trkpt lat="44.74141" lon="5.17179">
        <ele>495.88</ele>
        <time>2018-09-12T09:12:11.000Z</time>
      </trkpt>
      <trkpt lat="44.74135" lon="5.17192">
        <ele>493.99</ele>
        <time>2018-09-12T09:12:21.000Z</time>
      </trkpt>
      <trkpt lat="44.74127" lon="5.17202">
        <ele>493.87</ele>
        <time>2018-09-12T09:12:31.000Z</time>
      </trkpt>
      <trkpt lat="44.74117" lon="5.17212">
        <ele>494.48</ele>
        <time>2018-09-12T09:12:41.000Z</time>
      </trkpt>
      <trkpt lat="44.74109" lon="5.17223">
        <ele>494.96</ele>
        <time>2018-09-12T09:12:51.000Z</time>
      </trkpt>
      <trkpt lat="44.741" lon="5.17233">
        <ele>496.04</ele>
        <time>2018-09-12T09:13:01.000Z</time>
      </trkpt>
      <trkpt lat="44.74093" lon="5.17245">
        <ele>496.55</ele>
        <time>2018-09-12T09:13:11.000Z</time>
      </trkpt>
      <trkpt lat="44.74084" lon="5.17252">
        <ele>498.32</ele>
        <time>2018-09-12T09:13:21.000Z</time>
      </trkpt>
      <trkpt lat="44.74075" lon="5.17262">
        <ele>499.65</ele>
        <time>2018-09-12T09:13:31.000Z</time>
      </trkpt>
      <trkpt lat="44.74066" lon="5.17273">
        <ele>500.85</ele>
        <time>2018-09-12T09:13:41.000Z</time>
      </trkpt>
      <trkpt lat="44.74056" lon="5.17282">
        <ele>502.29</ele>
        <time>2018-09-12T09:13:51.000Z</time>
      </trkpt>
      <trkpt lat="44.74047" lon="5.1729">
        <ele>503.87</ele>
        <time>2018-09-12T09:14:01.000Z</time>
      </trkpt>
      <trkpt lat="44.74036" lon="5.17301">
        <ele>505.42</ele>
        <time>2018-09-12T09:14:11.000Z</time>
      </trkpt>
      <trkpt lat="44.74026" lon="5.17311">
        <ele>507.05</ele>
        <time>2018-09-12T09:14:21.000Z</time>
      </trkpt>
      <trkpt lat="44.74018" lon="5.17322">
        <ele>507.76</ele>
        <time>2018-09-12T09:14:31.000Z</time>
      </trkpt>
      <trkpt lat="44.74009" lon="5.17333">
        <ele>508.56</ele>
        <time>2018-09-12T09:14:41.000Z</time>
      </trkpt>
      <trkpt lat="44.74" lon="5.17342">
        <ele>509.58</ele>
        <time>2018-09-12T09:14:51.000Z</time>
      </trkpt>
      <trkpt lat="44.73988" lon="5.17349">
        <ele>511.52</ele>
        <time>2018-09-12T09:15:01.000Z</time>
      </trkpt>
      <trkpt lat="44.73978" lon="5.17358">
        <ele>512.83</ele>
        <time>2018-09-12T09:15:11.000Z</time>
      </trkpt>
      <trkpt lat="44.73968" lon="5.17367">
        <ele>513.86</ele>
        <time>2018-09-12T09:15:21.000Z</time>
      </trkpt>
      <trkpt lat="44.73959" lon="5.17376">
        <ele>515.03</ele>
        <time>2018-09-12T09:15:31.000Z</time>
      </trkpt>
      <trkpt lat="44.7395" lon="5.17391">
        <ele>515.78</ele>
        <time>2018-09-12T09:15:41.000Z</time>
      </trkpt>
      <trkpt lat="44.73948" lon="5.17406">
        <ele>514.51</ele>
        <time>2018-09-12T09:15:51.000Z</time>
      </trkpt>
      <trkpt lat="44.73943" lon="5.1742">
        <ele>514.26</ele>
        <time>2018-09-12T09:16:01.000Z</time>
      </trkpt>
      <trkpt lat="44.73936" lon="5.17432">
        <ele>514.92</ele>
        <time>2018-09-12T09:16:11.000Z</time>
      </trkpt>
      <trkpt lat="44.73927" lon="5.17445">
        <ele>515.68</ele>
        <time>2018-09-12T09:16:21.000Z</time>
      </trkpt>
      <trkpt lat="44.73922" lon="5.17459">
        <ele>515.58</ele>
        <time>2018-09-12T09:16:31.000Z</time>
      </trkpt>
      <trkpt lat="44.73915" lon="5.1747">
        <ele>516.51</ele>
        <time>2018-09-12T09:16:41.000Z</time>
      </trkpt>
      <trkpt lat="44.73906" lon="5.17481">
        <ele>518.39</ele>
        <time>2018-09-12T09:16:51.000Z</time>
      </trkpt>
      <trkpt lat="44.73898" lon="5.17495">
        <ele>519.95</ele>
        <time>2018-09-12T09:17:01.000Z</time>
      </trkpt>
      <trkpt lat="44.73892" lon="5.17509">
        <ele>521.25</ele>
        <time>2018-09-12T09:17:11.000Z</time>
      </trkpt>
      <trkpt lat="44.73886" lon="5.17523">
        <ele>522.74</ele>
        <time>2018-09-12T09:17:21.000Z</time>
      </trkpt>
      <trkpt lat="44.7388" lon="5.17538">
        <ele>523.67</ele>
        <time>2018-09-12T09:17:31.000Z</time>
      </trkpt>
      <trkpt lat="44.73875" lon="5.17551">
        <ele>524.31</ele>
        <time>2018-09-12T09:17:41.000Z</time>
      </trkpt>
      <trkpt lat="44.7387" lon="5.17567">
        <ele>524.24</ele>
        <time>2018-09-12T09:17:51.000Z</time>
      </trkpt>
      <trkpt lat="44.73861" lon="5.1758">
        <ele>525.53</ele>
        <time>2018-09-12T09:18:01.000Z</time>
      </trkpt>
      <trkpt lat="44.73854" lon="5.17594">
        <ele>526.01</ele>
        <time>2018-09-12T09:18:11.000Z</time>
      </trkpt>
      <trkpt lat="44.73854" lon="5.17609">
        <ele>524.93</ele>
        <time>2018-09-12T09:18:21.000Z</time>
      </trkpt>
      <trkpt lat="44.73851" lon="5.17624">
        <ele>524.91</ele>
        <time>2018-09-12T09:18:31.000Z</time>
      </trkpt>
      <trkpt lat="44.73845" lon="5.17639">
        <ele>526.54</ele>
        <time>2018-09-12T09:18:41.000Z</time>
      </trkpt>
      <trkpt lat="44.7384" lon="5.17654">
        <ele>527.62</ele>
        <time>2018-09-12T09:18:51.000Z</time>
      </trkpt>
      <trkpt lat="44.73832" lon="5.17668">
        <ele>529.24</ele>
        <time>2018-09-12T09:19:01.000Z</time>
      </trkpt>
      <trkpt lat="44.73828" lon="5.17681">
        <ele>529.1</ele>
        <time>2018-09-12T09:19:11.000Z</time>
      </trkpt>
      <trkpt lat="44.73823" lon="5.17695">
        <ele>528.06</ele>
        <time>2018-09-12T09:19:21.000Z</time>
      </trkpt>
      <trkpt lat="44.73815" lon="5.17707">
        <ele>527.94</ele>
        <time>2018-09-12T09:19:31.000Z</time>
      </trkpt>
      <trkpt lat="44.73807" lon="5.17722">
        <ele>527.16</ele>
        <time>2018-09-12T09:19:41.000Z</time>
      </trkpt>
      <trkpt lat="44.73797" lon="5.17733">
        <ele>527.65</ele>
        <time>2018-09-12T09:19:51.000Z</time>
      </trkpt>
      <trkpt lat="44.73786" lon="5.1774">
        <ele>529.29</ele>
        <time>2018-09-12T09:20:01.000Z</time>
      </trkpt>
      <trkpt lat="44.73774" lon="5.17744">
        <ele>531.85</ele>
        <time>2018-09-12T09:20:11.000Z</time>
      </trkpt>
      <trkpt lat="44.73762" lon="5.17748">
        <ele>533.92</ele>
        <time>2018-09-12T09:20:21.000Z</time>
      </trkpt>
      <trkpt lat="44.73751" lon="5.17752">
        <ele>535.4</ele>
        <time>2018-09-12T09:20:31.000Z</time>
      </trkpt>
      <trkpt lat="44.73739" lon="5.17756">
        <ele>536.83</ele>
        <time>2018-09-12T09:20:41.000Z</time>
      </trkpt>
      <trkpt lat="44.73726" lon="5.1776">
        <ele>537.8</ele>
        <time>2018-09-12T09:20:51.000Z</time>
      </trkpt>
      <trkpt lat="44.73714" lon="5.17764">
        <ele>538.86</ele>
        <time>2018-09-12T09:21:01.000Z</time>
      </trkpt>
      <trkpt lat="44.73701" lon="5.17767">
        <ele>540.26</ele>
        <time>2018-09-12T09:21:11.000Z</time>
      </trkpt>
      <trkpt lat="44.73688" lon="5.1777">
        <ele>541.86</ele>
        <time>2018-09-12T09:21:21.000Z</time>
      </trkpt>
      <trkpt lat="44.73681" lon="5.17785">
        <ele>543.5</ele>
        <time>2018-09-12T09:21:31.000Z</time>
      </trkpt>
      <trkpt lat="44.73683" lon="5.17802">
        <ele>544.67</ele>
        <time>2018-09-12T09:21:41.000Z</time>
      </trkpt>
      <trkpt lat="44.73692" lon="5.17812">
        <ele>543.78</ele>
        <time>2018-09-12T09:21:51.000Z</time>
      </trkpt>
      <trkpt lat="44.73699" lon="5.1782">
        <ele>542.45</ele>
        <time>2018-09-12T09:22:01.000Z</time>
      </trkpt>
      <trkpt lat="44.73708" lon="5.17832">
        <ele>540.76</ele>
        <time>2018-09-12T09:22:11.000Z</time>
      </trkpt>
      <trkpt lat="44.73708" lon="5.17847">
        <ele>542.01</ele>
        <time>2018-09-12T09:22:21.000Z</time>
      </trkpt>
      <trkpt lat="44.73711" lon="5.17862">
        <ele>543.31</ele>
        <time>2018-09-12T09:22:31.000Z</time>
      </trkpt>
      <trkpt lat="44.73714" lon="5.1788">
        <ele>544.5</ele>
        <time>2018-09-12T09:22:41.000Z</time>
      </trkpt>
      <trkpt lat="44.73717" lon="5.17898">
        <ele>545.87</ele>
        <time>2018-09-12T09:22:51.000Z</time>
      </trkpt>
      <trkpt lat="44.73716" lon="5.17914">
        <ele>548.08</ele>
        <time>2018-09-12T09:23:01.000Z</time>
      </trkpt>
      <trkpt lat="44.73711" lon="5.17927">
        <ele>550.6</ele>
        <time>2018-09-12T09:23:11.000Z</time>
      </trkpt>
      <trkpt lat="44.73709" lon="5.17944">
        <ele>551.98</ele>
        <time>2018-09-12T09:23:21.000Z</time>
      </trkpt>
      <trkpt lat="44.7371" lon="5.17964">
        <ele>551.37</ele>
        <time>2018-09-12T09:23:31.000Z</time>
      </trkpt>
      <trkpt lat="44.73713" lon="5.17978">
        <ele>550.07</ele>
        <time>2018-09-12T09:23:41.000Z</time>
      </trkpt>
      <trkpt lat="44.73715" lon="5.17992">
        <ele>549.12</ele>
        <time>2018-09-12T09:23:51.000Z</time>
      </trkpt>
      <trkpt lat="44.73718" lon="5.18006">
        <ele>548.27</ele>
        <time>2018-09-12T09:24:01.000Z</time>
      </trkpt>
      <trkpt lat="44.7372" lon="5.1802">
        <ele>548.02</ele>
        <time>2018-09-12T09:24:11.000Z</time>
      </trkpt>
      <trkpt lat="44.73721" lon="5.18035">
        <ele>548</ele>
        <time>2018-09-12T09:24:21.000Z</time>
      </trkpt>
      <trkpt lat="44.73721" lon="5.1805">
        <ele>548.09</ele>
        <time>2018-09-12T09:24:31.000Z</time>
      </trkpt>
      <trkpt lat="44.73721" lon="5.18065">
        <ele>548.14</ele>
        <time>2018-09-12T09:24:41.000Z</time>
      </trkpt>
      <trkpt lat="44.73722" lon="5.18081">
        <ele>548.1</ele>
        <time>2018-09-12T09:24:51.000Z</time>
      </trkpt>
      <trkpt lat="44.73727" lon="5.18092">
        <ele>548.62</ele>
        <time>2018-09-12T09:25:01.000Z</time>
      </trkpt>
      <trkpt lat="44.7373" lon="5.18105">
        <ele>548.85</ele>
        <time>2018-09-12T09:25:29.000Z</time>
      </trkpt>
      <trkpt lat="44.73732" lon="5.18118">
        <ele>548.84</ele>
        <time>2018-09-12T09:25:39.000Z</time>
      </trkpt>
      <trkpt lat="44.73731" lon="5.18132">
        <ele>548.42</ele>
        <time>2018-09-12T09:25:49.000Z</time>
      </trkpt>
      <trkpt lat="44.73731" lon="5.18145">
        <ele>548.02</ele>
        <time>2018-09-12T09:25:59.000Z</time>
      </trkpt>
      <trkpt lat="44.73731" lon="5.18161">
        <ele>547.56</ele>
        <time>2018-09-12T09:26:09.000Z</time>
      </trkpt>
      <trkpt lat="44.73731" lon="5.18174">
        <ele>547.29</ele>
        <time>2018-09-12T09:26:19.000Z</time>
      </trkpt>
      <trkpt lat="44.73739" lon="5.18182">
        <ele>548.35</ele>
        <time>2018-09-12T09:26:37.000Z</time>
      </trkpt>
      <trkpt lat="44.73731" lon="5.18175">
        <ele>547.15</ele>
        <time>2018-09-12T09:35:11.000Z</time>
      </trkpt>
      <trkpt lat="44.73731" lon="5.18155">
        <ele>547.73</ele>
        <time>2018-09-12T09:35:21.000Z</time>
      </trkpt>
      <trkpt lat="44.73732" lon="5.18138">
        <ele>548.47</ele>
        <time>2018-09-12T09:35:31.000Z</time>
      </trkpt>
      <trkpt lat="44.73729" lon="5.18119">
        <ele>548.49</ele>
        <time>2018-09-12T09:35:41.000Z</time>
      </trkpt>
      <trkpt lat="44.73728" lon="5.18102">
        <ele>548.63</ele>
        <time>2018-09-12T09:35:51.000Z</time>
      </trkpt>
      <trkpt lat="44.73721" lon="5.18085">
        <ele>547.98</ele>
        <time>2018-09-12T09:36:01.000Z</time>
      </trkpt>
      <trkpt lat="44.73713" lon="5.18074">
        <ele>547.39</ele>
        <time>2018-09-12T09:36:11.000Z</time>
      </trkpt>
      <trkpt lat="44.73704" lon="5.18063">
        <ele>547.37</ele>
        <time>2018-09-12T09:36:21.000Z</time>
      </trkpt>
      <trkpt lat="44.737" lon="5.1805">
        <ele>548.44</ele>
        <time>2018-09-12T09:36:31.000Z</time>
      </trkpt>
      <trkpt lat="44.73696" lon="5.18038">
        <ele>549.81</ele>
        <time>2018-09-12T09:36:41.000Z</time>
      </trkpt>
      <trkpt lat="44.73688" lon="5.18032">
        <ele>551.17</ele>
        <time>2018-09-12T09:37:30.000Z</time>
      </trkpt>
      <trkpt lat="44.73682" lon="5.18022">
        <ele>553.23</ele>
        <time>2018-09-12T09:37:44.000Z</time>
      </trkpt>
      <trkpt lat="44.73675" lon="5.18014">
        <ele>555.2</ele>
        <time>2018-09-12T09:37:55.000Z</time>
      </trkpt>
      <trkpt lat="44.73668" lon="5.18003">
        <ele>557.44</ele>
        <time>2018-09-12T09:38:05.000Z</time>
      </trkpt>
      <trkpt lat="44.73666" lon="5.1799">
        <ele>559.51</ele>
        <time>2018-09-12T09:38:16.000Z</time>
      </trkpt>
      <trkpt lat="44.7366" lon="5.17978">
        <ele>561.85</ele>
        <time>2018-09-12T09:38:26.000Z</time>
      </trkpt>
      <trkpt lat="44.7365" lon="5.17973">
        <ele>563.02</ele>
        <time>2018-09-12T09:38:36.000Z</time>
      </trkpt>
      <trkpt lat="44.7364" lon="5.17968">
        <ele>563.93</ele>
        <time>2018-09-12T09:38:46.000Z</time>
      </trkpt>
      <trkpt lat="44.73632" lon="5.17963">
        <ele>564.59</ele>
        <time>2018-09-12T09:38:58.000Z</time>
      </trkpt>
      <trkpt lat="44.73623" lon="5.17958">
        <ele>565.1</ele>
        <time>2018-09-12T09:39:08.000Z</time>
      </trkpt>
      <trkpt lat="44.73614" lon="5.17955">
        <ele>565.36</ele>
        <time>2018-09-12T09:39:18.000Z</time>
      </trkpt>
      <trkpt lat="44.73605" lon="5.17952">
        <ele>565.42</ele>
        <time>2018-09-12T09:39:29.000Z</time>
      </trkpt>
      <trkpt lat="44.73596" lon="5.17949">
        <ele>565.67</ele>
        <time>2018-09-12T09:39:40.000Z</time>
      </trkpt>
      <trkpt lat="44.73586" lon="5.17947">
        <ele>565.86</ele>
        <time>2018-09-12T09:39:52.000Z</time>
      </trkpt>
      <trkpt lat="44.73577" lon="5.17945">
        <ele>566.05</ele>
        <time>2018-09-12T09:40:03.000Z</time>
      </trkpt>
      <trkpt lat="44.73567" lon="5.17943">
        <ele>566.28</ele>
        <time>2018-09-12T09:40:13.000Z</time>
      </trkpt>
      <trkpt lat="44.73558" lon="5.1794">
        <ele>566.34</ele>
        <time>2018-09-12T09:40:23.000Z</time>
      </trkpt>
      <trkpt lat="44.73548" lon="5.17935">
        <ele>566.57</ele>
        <time>2018-09-12T09:40:33.000Z</time>
      </trkpt>
      <trkpt lat="44.7354" lon="5.17923">
        <ele>567.5</ele>
        <time>2018-09-12T09:40:43.000Z</time>
      </trkpt>
      <trkpt lat="44.73535" lon="5.17911">
        <ele>568.11</ele>
        <time>2018-09-12T09:40:53.000Z</time>
      </trkpt>
      <trkpt lat="44.7353" lon="5.17896">
        <ele>568.14</ele>
        <time>2018-09-12T09:41:03.000Z</time>
      </trkpt>
      <trkpt lat="44.73523" lon="5.17884">
        <ele>567.99</ele>
        <time>2018-09-12T09:41:13.000Z</time>
      </trkpt>
      <trkpt lat="44.73514" lon="5.17876">
        <ele>568.24</ele>
        <time>2018-09-12T09:41:23.000Z</time>
      </trkpt>
      <trkpt lat="44.73502" lon="5.1787">
        <ele>568.97</ele>
        <time>2018-09-12T09:41:33.000Z</time>
      </trkpt>
      <trkpt lat="44.7349" lon="5.17864">
        <ele>570.06</ele>
        <time>2018-09-12T09:41:43.000Z</time>
      </trkpt>
      <trkpt lat="44.73479" lon="5.17858">
        <ele>571.51</ele>
        <time>2018-09-12T09:41:53.000Z</time>
      </trkpt>
      <trkpt lat="44.73468" lon="5.17852">
        <ele>572.94</ele>
        <time>2018-09-12T09:42:03.000Z</time>
      </trkpt>
      <trkpt lat="44.73458" lon="5.1785">
        <ele>573.9</ele>
        <time>2018-09-12T09:42:13.000Z</time>
      </trkpt>
      <trkpt lat="44.73448" lon="5.17843">
        <ele>575.37</ele>
        <time>2018-09-12T09:42:23.000Z</time>
      </trkpt>
      <trkpt lat="44.73438" lon="5.17837">
        <ele>576.76</ele>
        <time>2018-09-12T09:42:33.000Z</time>
      </trkpt>
      <trkpt lat="44.73428" lon="5.1783">
        <ele>578.53</ele>
        <time>2018-09-12T09:42:43.000Z</time>
      </trkpt>
      <trkpt lat="44.73419" lon="5.17822">
        <ele>580.49</ele>
        <time>2018-09-12T09:42:53.000Z</time>
      </trkpt>
      <trkpt lat="44.73409" lon="5.17813">
        <ele>583.06</ele>
        <time>2018-09-12T09:43:03.000Z</time>
      </trkpt>
      <trkpt lat="44.734" lon="5.17805">
        <ele>585.84</ele>
        <time>2018-09-12T09:43:13.000Z</time>
      </trkpt>
      <trkpt lat="44.73389" lon="5.17798">
        <ele>588.64</ele>
        <time>2018-09-12T09:43:23.000Z</time>
      </trkpt>
      <trkpt lat="44.73377" lon="5.17796">
        <ele>590.24</ele>
        <time>2018-09-12T09:43:33.000Z</time>
      </trkpt>
      <trkpt lat="44.73366" lon="5.17794">
        <ele>591.86</ele>
        <time>2018-09-12T09:43:43.000Z</time>
      </trkpt>
      <trkpt lat="44.73353" lon="5.17795">
        <ele>592</ele>
        <time>2018-09-12T09:43:53.000Z</time>
      </trkpt>
      <trkpt lat="44.73342" lon="5.17796">
        <ele>592.23</ele>
        <time>2018-09-12T09:44:03.000Z</time>
      </trkpt>
      <trkpt lat="44.7333" lon="5.17801">
        <ele>590.76</ele>
        <time>2018-09-12T09:44:13.000Z</time>
      </trkpt>
      <trkpt lat="44.73318" lon="5.17806">
        <ele>590.09</ele>
        <time>2018-09-12T09:44:23.000Z</time>
      </trkpt>
      <trkpt lat="44.73307" lon="5.17806">
        <ele>592.47</ele>
        <time>2018-09-12T09:44:33.000Z</time>
      </trkpt>
      <trkpt lat="44.73296" lon="5.17812">
        <ele>592.3</ele>
        <time>2018-09-12T09:44:43.000Z</time>
      </trkpt>
      <trkpt lat="44.73287" lon="5.17819">
        <ele>591.34</ele>
        <time>2018-09-12T09:44:53.000Z</time>
      </trkpt>
      <trkpt lat="44.73275" lon="5.17825">
        <ele>591.64</ele>
        <time>2018-09-12T09:45:03.000Z</time>
      </trkpt>
      <trkpt lat="44.73266" lon="5.17832">
        <ele>590.94</ele>
        <time>2018-09-12T09:45:13.000Z</time>
      </trkpt>
      <trkpt lat="44.73254" lon="5.1784">
        <ele>590</ele>
        <time>2018-09-12T09:45:23.000Z</time>
      </trkpt>
      <trkpt lat="44.73243" lon="5.17839">
        <ele>590.06</ele>
        <time>2018-09-12T09:45:33.000Z</time>
      </trkpt>
      <trkpt lat="44.73234" lon="5.17829">
        <ele>591.7</ele>
        <time>2018-09-12T09:45:43.000Z</time>
      </trkpt>
      <trkpt lat="44.73225" lon="5.17817">
        <ele>593.07</ele>
        <time>2018-09-12T09:45:53.000Z</time>
      </trkpt>
      <trkpt lat="44.73217" lon="5.17804">
        <ele>593.86</ele>
        <time>2018-09-12T09:46:03.000Z</time>
      </trkpt>
      <trkpt lat="44.73209" lon="5.17793">
        <ele>592.91</ele>
        <time>2018-09-12T09:46:13.000Z</time>
      </trkpt>
      <trkpt lat="44.73202" lon="5.17782">
        <ele>591.66</ele>
        <time>2018-09-12T09:46:23.000Z</time>
      </trkpt>
      <trkpt lat="44.73195" lon="5.17772">
        <ele>589.54</ele>
        <time>2018-09-12T09:46:34.000Z</time>
      </trkpt>
      <trkpt lat="44.73186" lon="5.1776">
        <ele>586.51</ele>
        <time>2018-09-12T09:46:44.000Z</time>
      </trkpt>
      <trkpt lat="44.73175" lon="5.17744">
        <ele>584.11</ele>
        <time>2018-09-12T09:46:54.000Z</time>
      </trkpt>
      <trkpt lat="44.7317" lon="5.17725">
        <ele>587.2</ele>
        <time>2018-09-12T09:47:04.000Z</time>
      </trkpt>
      <trkpt lat="44.73161" lon="5.17713">
        <ele>588.75</ele>
        <time>2018-09-12T09:47:14.000Z</time>
      </trkpt>
      <trkpt lat="44.73151" lon="5.17707">
        <ele>589.7</ele>
        <time>2018-09-12T09:47:24.000Z</time>
      </trkpt>
      <trkpt lat="44.73142" lon="5.17699">
        <ele>592.27</ele>
        <time>2018-09-12T09:47:34.000Z</time>
      </trkpt>
      <trkpt lat="44.73129" lon="5.17694">
        <ele>594.55</ele>
        <time>2018-09-12T09:47:44.000Z</time>
      </trkpt>
      <trkpt lat="44.73117" lon="5.17692">
        <ele>596.34</ele>
        <time>2018-09-12T09:47:54.000Z</time>
      </trkpt>
      <trkpt lat="44.73105" lon="5.17691">
        <ele>597.48</ele>
        <time>2018-09-12T09:48:04.000Z</time>
      </trkpt>
      <trkpt lat="44.73093" lon="5.17689">
        <ele>598.97</ele>
        <time>2018-09-12T09:48:14.000Z</time>
      </trkpt>
      <trkpt lat="44.73081" lon="5.17694">
        <ele>596.14</ele>
        <time>2018-09-12T09:48:24.000Z</time>
      </trkpt>
      <trkpt lat="44.73071" lon="5.17695">
        <ele>595.26</ele>
        <time>2018-09-12T09:48:34.000Z</time>
      </trkpt>
      <trkpt lat="44.73062" lon="5.17702">
        <ele>591.85</ele>
        <time>2018-09-12T09:48:44.000Z</time>
      </trkpt>
      <trkpt lat="44.73053" lon="5.17712">
        <ele>588.37</ele>
        <time>2018-09-12T09:48:54.000Z</time>
      </trkpt>
      <trkpt lat="44.7304" lon="5.1772">
        <ele>585.95</ele>
        <time>2018-09-12T09:49:04.000Z</time>
      </trkpt>
      <trkpt lat="44.73031" lon="5.17728">
        <ele>584.49</ele>
        <time>2018-09-12T09:49:14.000Z</time>
      </trkpt>
      <trkpt lat="44.73023" lon="5.17737">
        <ele>583.31</ele>
        <time>2018-09-12T09:49:24.000Z</time>
      </trkpt>
      <trkpt lat="44.73011" lon="5.17741">
        <ele>583.2</ele>
        <time>2018-09-12T09:49:34.000Z</time>
      </trkpt>
      <trkpt lat="44.73007" lon="5.17728">
        <ele>584.35</ele>
        <time>2018-09-12T09:49:44.000Z</time>
      </trkpt>
      <trkpt lat="44.73006" lon="5.17715">
        <ele>585.33</ele>
        <time>2018-09-12T09:49:54.000Z</time>
      </trkpt>
      <trkpt lat="44.73008" lon="5.177">
        <ele>586.91</ele>
        <time>2018-09-12T09:50:04.000Z</time>
      </trkpt>
      <trkpt lat="44.73007" lon="5.17684">
        <ele>588.23</ele>
        <time>2018-09-12T09:50:14.000Z</time>
      </trkpt>
      <trkpt lat="44.73002" lon="5.17667">
        <ele>588.58</ele>
        <time>2018-09-12T09:50:24.000Z</time>
      </trkpt>
      <trkpt lat="44.72999" lon="5.17654">
        <ele>589.18</ele>
        <time>2018-09-12T09:50:34.000Z</time>
      </trkpt>
      <trkpt lat="44.72993" lon="5.17637">
        <ele>589.69</ele>
        <time>2018-09-12T09:50:44.000Z</time>
      </trkpt>
      <trkpt lat="44.72987" lon="5.17623">
        <ele>589.74</ele>
        <time>2018-09-12T09:50:54.000Z</time>
      </trkpt>
      <trkpt lat="44.72981" lon="5.17609">
        <ele>589.48</ele>
        <time>2018-09-12T09:51:04.000Z</time>
      </trkpt>
      <trkpt lat="44.72971" lon="5.17598">
        <ele>587.19</ele>
        <time>2018-09-12T09:51:14.000Z</time>
      </trkpt>
      <trkpt lat="44.72965" lon="5.17583">
        <ele>586.48</ele>
        <time>2018-09-12T09:51:24.000Z</time>
      </trkpt>
      <trkpt lat="44.7296" lon="5.17567">
        <ele>586.39</ele>
        <time>2018-09-12T09:51:34.000Z</time>
      </trkpt>
      <trkpt lat="44.72955" lon="5.17554">
        <ele>585.97</ele>
        <time>2018-09-12T09:51:44.000Z</time>
      </trkpt>
      <trkpt lat="44.72947" lon="5.17543">
        <ele>584.41</ele>
        <time>2018-09-12T09:51:54.000Z</time>
      </trkpt>
      <trkpt lat="44.72938" lon="5.17532">
        <ele>582.75</ele>
        <time>2018-09-12T09:52:04.000Z</time>
      </trkpt>
      <trkpt lat="44.72928" lon="5.17523">
        <ele>580.73</ele>
        <time>2018-09-12T09:52:14.000Z</time>
      </trkpt>
      <trkpt lat="44.72918" lon="5.17515">
        <ele>578.8</ele>
        <time>2018-09-12T09:52:25.000Z</time>
      </trkpt>
      <trkpt lat="44.72905" lon="5.17508">
        <ele>576.61</ele>
        <time>2018-09-12T09:52:35.000Z</time>
      </trkpt>
      <trkpt lat="44.7289" lon="5.17505">
        <ele>574.73</ele>
        <time>2018-09-12T09:52:45.000Z</time>
      </trkpt>
      <trkpt lat="44.72879" lon="5.17496">
        <ele>573.79</ele>
        <time>2018-09-12T09:52:55.000Z</time>
      </trkpt>
      <trkpt lat="44.72867" lon="5.17487">
        <ele>572.8</ele>
        <time>2018-09-12T09:53:05.000Z</time>
      </trkpt>
      <trkpt lat="44.72856" lon="5.1748">
        <ele>571.75</ele>
        <time>2018-09-12T09:53:15.000Z</time>
      </trkpt>
      <trkpt lat="44.72842" lon="5.17475">
        <ele>570.58</ele>
        <time>2018-09-12T09:53:25.000Z</time>
      </trkpt>
      <trkpt lat="44.7283" lon="5.17469">
        <ele>569.67</ele>
        <time>2018-09-12T09:53:35.000Z</time>
      </trkpt>
      <trkpt lat="44.72819" lon="5.17464">
        <ele>569.24</ele>
        <time>2018-09-12T09:53:45.000Z</time>
      </trkpt>
      <trkpt lat="44.72809" lon="5.17458">
        <ele>569.51</ele>
        <time>2018-09-12T09:53:55.000Z</time>
      </trkpt>
      <trkpt lat="44.72801" lon="5.17448">
        <ele>570.79</ele>
        <time>2018-09-12T09:54:05.000Z</time>
      </trkpt>
      <trkpt lat="44.72793" lon="5.17436">
        <ele>573.29</ele>
        <time>2018-09-12T09:54:15.000Z</time>
      </trkpt>
      <trkpt lat="44.72787" lon="5.17426">
        <ele>575.69</ele>
        <time>2018-09-12T09:54:25.000Z</time>
      </trkpt>
      <trkpt lat="44.72783" lon="5.17414">
        <ele>577.95</ele>
        <time>2018-09-12T09:54:35.000Z</time>
      </trkpt>
      <trkpt lat="44.7278" lon="5.17402">
        <ele>579.5</ele>
        <time>2018-09-12T09:54:46.000Z</time>
      </trkpt>
      <trkpt lat="44.72776" lon="5.1739">
        <ele>580.87</ele>
        <time>2018-09-12T09:54:56.000Z</time>
      </trkpt>
      <trkpt lat="44.72773" lon="5.17377">
        <ele>581.61</ele>
        <time>2018-09-12T09:55:06.000Z</time>
      </trkpt>
      <trkpt lat="44.72769" lon="5.17364">
        <ele>582.19</ele>
        <time>2018-09-12T09:55:16.000Z</time>
      </trkpt>
      <trkpt lat="44.72762" lon="5.17351">
        <ele>583.6</ele>
        <time>2018-09-12T09:55:26.000Z</time>
      </trkpt>
      <trkpt lat="44.72758" lon="5.17339">
        <ele>584.49</ele>
        <time>2018-09-12T09:55:36.000Z</time>
      </trkpt>
      <trkpt lat="44.72753" lon="5.17327">
        <ele>585.73</ele>
        <time>2018-09-12T09:55:46.000Z</time>
      </trkpt>
      <trkpt lat="44.72747" lon="5.17316">
        <ele>586.94</ele>
        <time>2018-09-12T09:55:56.000Z</time>
      </trkpt>
      <trkpt lat="44.72746" lon="5.17302">
        <ele>587.5</ele>
        <time>2018-09-12T09:56:07.000Z</time>
      </trkpt>
      <trkpt lat="44.72749" lon="5.1729">
        <ele>587.11</ele>
        <time>2018-09-12T09:56:21.000Z</time>
      </trkpt>
      <trkpt lat="44.72752" lon="5.17275">
        <ele>586.76</ele>
        <time>2018-09-12T09:56:31.000Z</time>
      </trkpt>
      <trkpt lat="44.72756" lon="5.17258">
        <ele>586.45</ele>
        <time>2018-09-12T09:56:41.000Z</time>
      </trkpt>
      <trkpt lat="44.72755" lon="5.17245">
        <ele>587.93</ele>
        <time>2018-09-12T09:56:51.000Z</time>
      </trkpt>
      <trkpt lat="44.72755" lon="5.17232">
        <ele>589.72</ele>
        <time>2018-09-12T09:57:01.000Z</time>
      </trkpt>
      <trkpt lat="44.72759" lon="5.17219">
        <ele>590.49</ele>
        <time>2018-09-12T09:57:12.000Z</time>
      </trkpt>
      <trkpt lat="44.72758" lon="5.17205">
        <ele>593.26</ele>
        <time>2018-09-12T09:57:23.000Z</time>
      </trkpt>
      <trkpt lat="44.72757" lon="5.1719">
        <ele>596.24</ele>
        <time>2018-09-12T09:57:33.000Z</time>
      </trkpt>
      <trkpt lat="44.72761" lon="5.17175">
        <ele>596.89</ele>
        <time>2018-09-12T09:57:43.000Z</time>
      </trkpt>
      <trkpt lat="44.72765" lon="5.17164">
        <ele>596.32</ele>
        <time>2018-09-12T09:57:54.000Z</time>
      </trkpt>
      <trkpt lat="44.72766" lon="5.17149">
        <ele>597.01</ele>
        <time>2018-09-12T09:58:04.000Z</time>
      </trkpt>
      <trkpt lat="44.7277" lon="5.17136">
        <ele>595.63</ele>
        <time>2018-09-12T09:58:14.000Z</time>
      </trkpt>
      <trkpt lat="44.72771" lon="5.17123">
        <ele>595.63</ele>
        <time>2018-09-12T09:58:24.000Z</time>
      </trkpt>
      <trkpt lat="44.72773" lon="5.17109">
        <ele>595.6</ele>
        <time>2018-09-12T09:58:34.000Z</time>
      </trkpt>
      <trkpt lat="44.72773" lon="5.17092">
        <ele>596.38</ele>
        <time>2018-09-12T09:58:44.000Z</time>
      </trkpt>
      <trkpt lat="44.72769" lon="5.17079">
        <ele>599.78</ele>
        <time>2018-09-12T09:58:56.000Z</time>
      </trkpt>
      <trkpt lat="44.72762" lon="5.17071">
        <ele>604.35</ele>
        <time>2018-09-12T09:59:06.000Z</time>
      </trkpt>
      <trkpt lat="44.72758" lon="5.17057">
        <ele>607.71</ele>
        <time>2018-09-12T09:59:16.000Z</time>
      </trkpt>
      <trkpt lat="44.72759" lon="5.17042">
        <ele>607.98</ele>
        <time>2018-09-12T09:59:26.000Z</time>
      </trkpt>
      <trkpt lat="44.72762" lon="5.17029">
        <ele>608.02</ele>
        <time>2018-09-12T09:59:37.000Z</time>
      </trkpt>
      <trkpt lat="44.72765" lon="5.17016">
        <ele>607.96</ele>
        <time>2018-09-12T09:59:49.000Z</time>
      </trkpt>
      <trkpt lat="44.7277" lon="5.17004">
        <ele>607.81</ele>
        <time>2018-09-12T10:00:01.000Z</time>
      </trkpt>
      <trkpt lat="44.72778" lon="5.1699">
        <ele>607.97</ele>
        <time>2018-09-12T10:00:11.000Z</time>
      </trkpt>
      <trkpt lat="44.72786" lon="5.16981">
        <ele>607.84</ele>
        <time>2018-09-12T10:00:21.000Z</time>
      </trkpt>
      <trkpt lat="44.72794" lon="5.16969">
        <ele>608.78</ele>
        <time>2018-09-12T10:00:31.000Z</time>
      </trkpt>
      <trkpt lat="44.72802" lon="5.16961">
        <ele>608.22</ele>
        <time>2018-09-12T10:00:41.000Z</time>
      </trkpt>
      <trkpt lat="44.72809" lon="5.16951">
        <ele>609.2</ele>
        <time>2018-09-12T10:00:52.000Z</time>
      </trkpt>
      <trkpt lat="44.72818" lon="5.16939">
        <ele>609.31</ele>
        <time>2018-09-12T10:01:02.000Z</time>
      </trkpt>
      <trkpt lat="44.72827" lon="5.16928">
        <ele>609.07</ele>
        <time>2018-09-12T10:01:12.000Z</time>
      </trkpt>
      <trkpt lat="44.72833" lon="5.16918">
        <ele>609.49</ele>
        <time>2018-09-12T10:01:25.000Z</time>
      </trkpt>
      <trkpt lat="44.7284" lon="5.16906">
        <ele>611.08</ele>
        <time>2018-09-12T10:01:35.000Z</time>
      </trkpt>
      <trkpt lat="44.72845" lon="5.16895">
        <ele>612.58</ele>
        <time>2018-09-12T10:02:22.000Z</time>
      </trkpt>
      <trkpt lat="44.72853" lon="5.16888">
        <ele>611.28</ele>
        <time>2018-09-12T10:04:06.000Z</time>
      </trkpt>
      <trkpt lat="44.72857" lon="5.16875">
        <ele>614.11</ele>
        <time>2018-09-12T10:04:20.000Z</time>
      </trkpt>
      <trkpt lat="44.72862" lon="5.16862">
        <ele>615.58</ele>
        <time>2018-09-12T10:04:30.000Z</time>
      </trkpt>
      <trkpt lat="44.72868" lon="5.16849">
        <ele>616.03</ele>
        <time>2018-09-12T10:04:40.000Z</time>
      </trkpt>
      <trkpt lat="44.72873" lon="5.16835">
        <ele>616.03</ele>
        <time>2018-09-12T10:04:50.000Z</time>
      </trkpt>
      <trkpt lat="44.72878" lon="5.16822">
        <ele>616.56</ele>
        <time>2018-09-12T10:05:00.000Z</time>
      </trkpt>
      <trkpt lat="44.72882" lon="5.16811">
        <ele>617.26</ele>
        <time>2018-09-12T10:05:12.000Z</time>
      </trkpt>
      <trkpt lat="44.72886" lon="5.16799">
        <ele>619.38</ele>
        <time>2018-09-12T10:05:23.000Z</time>
      </trkpt>
      <trkpt lat="44.72893" lon="5.16789">
        <ele>619.86</ele>
        <time>2018-09-12T10:05:35.000Z</time>
      </trkpt>
      <trkpt lat="44.72897" lon="5.16778">
        <ele>622.14</ele>
        <time>2018-09-12T10:05:46.000Z</time>
      </trkpt>
      <trkpt lat="44.72902" lon="5.16766">
        <ele>624.44</ele>
        <time>2018-09-12T10:05:56.000Z</time>
      </trkpt>
      <trkpt lat="44.72908" lon="5.16756">
        <ele>626.08</ele>
        <time>2018-09-12T10:06:07.000Z</time>
      </trkpt>
      <trkpt lat="44.72915" lon="5.16742">
        <ele>626.9</ele>
        <time>2018-09-12T10:06:17.000Z</time>
      </trkpt>
      <trkpt lat="44.7292" lon="5.16729">
        <ele>627.51</ele>
        <time>2018-09-12T10:06:31.000Z</time>
      </trkpt>
      <trkpt lat="44.72924" lon="5.16717">
        <ele>627.58</ele>
        <time>2018-09-12T10:06:43.000Z</time>
      </trkpt>
      <trkpt lat="44.72926" lon="5.16705">
        <ele>627.53</ele>
        <time>2018-09-12T10:06:53.000Z</time>
      </trkpt>
      <trkpt lat="44.72929" lon="5.16689">
        <ele>626.96</ele>
        <time>2018-09-12T10:07:03.000Z</time>
      </trkpt>
      <trkpt lat="44.72931" lon="5.16676">
        <ele>626.28</ele>
        <time>2018-09-12T10:07:13.000Z</time>
      </trkpt>
      <trkpt lat="44.72921" lon="5.16676">
        <ele>627.68</ele>
        <time>2018-09-12T10:07:30.000Z</time>
      </trkpt>
      <trkpt lat="44.72913" lon="5.16684">
        <ele>628.74</ele>
        <time>2018-09-12T10:07:41.000Z</time>
      </trkpt>
      <trkpt lat="44.72906" lon="5.16692">
        <ele>629.38</ele>
        <time>2018-09-12T10:07:52.000Z</time>
      </trkpt>
      <trkpt lat="44.729" lon="5.16702">
        <ele>629.96</ele>
        <time>2018-09-12T10:08:03.000Z</time>
      </trkpt>
      <trkpt lat="44.72892" lon="5.1671">
        <ele>630.26</ele>
        <time>2018-09-12T10:08:17.000Z</time>
      </trkpt>
      <trkpt lat="44.72886" lon="5.1672">
        <ele>630.81</ele>
        <time>2018-09-12T10:08:27.000Z</time>
      </trkpt>
      <trkpt lat="44.7288" lon="5.16732">
        <ele>631.41</ele>
        <time>2018-09-12T10:08:37.000Z</time>
      </trkpt>
      <trkpt lat="44.72873" lon="5.16741">
        <ele>631.84</ele>
        <time>2018-09-12T10:08:47.000Z</time>
      </trkpt>
      <trkpt lat="44.72866" lon="5.16752">
        <ele>632.26</ele>
        <time>2018-09-12T10:08:57.000Z</time>
      </trkpt>
      <trkpt lat="44.7286" lon="5.16763">
        <ele>632.64</ele>
        <time>2018-09-12T10:09:07.000Z</time>
      </trkpt>
      <trkpt lat="44.72853" lon="5.16772">
        <ele>633.3</ele>
        <time>2018-09-12T10:09:18.000Z</time>
      </trkpt>
      <trkpt lat="44.72843" lon="5.16779">
        <ele>634.44</ele>
        <time>2018-09-12T10:09:28.000Z</time>
      </trkpt>
      <trkpt lat="44.72838" lon="5.16791">
        <ele>635.6</ele>
        <time>2018-09-12T10:09:38.000Z</time>
      </trkpt>
      <trkpt lat="44.72831" lon="5.16801">
        <ele>636.65</ele>
        <time>2018-09-12T10:09:48.000Z</time>
      </trkpt>
      <trkpt lat="44.72824" lon="5.16808">
        <ele>637.36</ele>
        <time>2018-09-12T10:10:00.000Z</time>
      </trkpt>
      <trkpt lat="44.72815" lon="5.16814">
        <ele>637.57</ele>
        <time>2018-09-12T10:10:10.000Z</time>
      </trkpt>
      <trkpt lat="44.72808" lon="5.16822">
        <ele>637.55</ele>
        <time>2018-09-12T10:10:22.000Z</time>
      </trkpt>
      <trkpt lat="44.728" lon="5.16832">
        <ele>637.34</ele>
        <time>2018-09-12T10:10:34.000Z</time>
      </trkpt>
      <trkpt lat="44.72794" lon="5.16841">
        <ele>636.99</ele>
        <time>2018-09-12T10:10:45.000Z</time>
      </trkpt>
      <trkpt lat="44.72787" lon="5.1685">
        <ele>636.76</ele>
        <time>2018-09-12T10:10:57.000Z</time>
      </trkpt>
      <trkpt lat="44.7278" lon="5.16859">
        <ele>636.92</ele>
        <time>2018-09-12T10:11:07.000Z</time>
      </trkpt>
      <trkpt lat="44.72774" lon="5.16869">
        <ele>637.59</ele>
        <time>2018-09-12T10:11:17.000Z</time>
      </trkpt>
      <trkpt lat="44.72765" lon="5.16879">
        <ele>639.06</ele>
        <time>2018-09-12T10:11:27.000Z</time>
      </trkpt>
      <trkpt lat="44.72757" lon="5.16887">
        <ele>640.68</ele>
        <time>2018-09-12T10:11:37.000Z</time>
      </trkpt>
      <trkpt lat="44.7275" lon="5.16896">
        <ele>642.25</ele>
        <time>2018-09-12T10:11:49.000Z</time>
      </trkpt>
      <trkpt lat="44.72742" lon="5.16905">
        <ele>643.37</ele>
        <time>2018-09-12T10:12:01.000Z</time>
      </trkpt>
      <trkpt lat="44.72734" lon="5.1691">
        <ele>643.91</ele>
        <time>2018-09-12T10:12:12.000Z</time>
      </trkpt>
      <trkpt lat="44.72724" lon="5.16919">
        <ele>644.1</ele>
        <time>2018-09-12T10:12:22.000Z</time>
      </trkpt>
      <trkpt lat="44.72715" lon="5.16927">
        <ele>644.04</ele>
        <time>2018-09-12T10:12:32.000Z</time>
      </trkpt>
      <trkpt lat="44.72707" lon="5.16934">
        <ele>644.24</ele>
        <time>2018-09-12T10:12:43.000Z</time>
      </trkpt>
      <trkpt lat="44.72698" lon="5.16934">
        <ele>644.57</ele>
        <time>2018-09-12T10:12:53.000Z</time>
      </trkpt>
      <trkpt lat="44.72688" lon="5.16931">
        <ele>644.44</ele>
        <time>2018-09-12T10:13:03.000Z</time>
      </trkpt>
      <trkpt lat="44.72675" lon="5.1693">
        <ele>644.53</ele>
        <time>2018-09-12T10:13:13.000Z</time>
      </trkpt>
      <trkpt lat="44.72665" lon="5.16927">
        <ele>644.43</ele>
        <time>2018-09-12T10:13:26.000Z</time>
      </trkpt>
      <trkpt lat="44.72654" lon="5.16923">
        <ele>644.3</ele>
        <time>2018-09-12T10:13:36.000Z</time>
      </trkpt>
      <trkpt lat="44.72643" lon="5.1692">
        <ele>644.42</ele>
        <time>2018-09-12T10:13:46.000Z</time>
      </trkpt>
      <trkpt lat="44.72632" lon="5.16919">
        <ele>645.32</ele>
        <time>2018-09-12T10:13:56.000Z</time>
      </trkpt>
      <trkpt lat="44.72622" lon="5.16913">
        <ele>645.15</ele>
        <time>2018-09-12T10:14:06.000Z</time>
      </trkpt>
      <trkpt lat="44.72612" lon="5.16908">
        <ele>645.07</ele>
        <time>2018-09-12T10:14:16.000Z</time>
      </trkpt>
      <trkpt lat="44.72605" lon="5.16901">
        <ele>644.56</ele>
        <time>2018-09-12T10:14:26.000Z</time>
      </trkpt>
      <trkpt lat="44.72595" lon="5.16894">
        <ele>644.12</ele>
        <time>2018-09-12T10:14:36.000Z</time>
      </trkpt>
      <trkpt lat="44.72586" lon="5.16889">
        <ele>644.11</ele>
        <time>2018-09-12T10:14:46.000Z</time>
      </trkpt>
      <trkpt lat="44.72576" lon="5.16884">
        <ele>643.95</ele>
        <time>2018-09-12T10:14:56.000Z</time>
      </trkpt>
      <trkpt lat="44.72567" lon="5.16877">
        <ele>643.31</ele>
        <time>2018-09-12T10:15:06.000Z</time>
      </trkpt>
      <trkpt lat="44.72556" lon="5.16871">
        <ele>643.18</ele>
        <time>2018-09-12T10:15:16.000Z</time>
      </trkpt>
      <trkpt lat="44.72545" lon="5.16866">
        <ele>643.32</ele>
        <time>2018-09-12T10:15:26.000Z</time>
      </trkpt>
      <trkpt lat="44.72533" lon="5.16862">
        <ele>643.78</ele>
        <time>2018-09-12T10:15:36.000Z</time>
      </trkpt>
      <trkpt lat="44.72522" lon="5.16856">
        <ele>644.01</ele>
        <time>2018-09-12T10:15:46.000Z</time>
      </trkpt>
      <trkpt lat="44.72513" lon="5.16854">
        <ele>644.75</ele>
        <time>2018-09-12T10:15:56.000Z</time>
      </trkpt>
      <trkpt lat="44.72503" lon="5.16849">
        <ele>645.08</ele>
        <time>2018-09-12T10:16:06.000Z</time>
      </trkpt>
      <trkpt lat="44.72494" lon="5.16842">
        <ele>645.04</ele>
        <time>2018-09-12T10:16:18.000Z</time>
      </trkpt>
      <trkpt lat="44.7248" lon="5.16837">
        <ele>646.1</ele>
        <time>2018-09-12T10:16:28.000Z</time>
      </trkpt>
      <trkpt lat="44.72469" lon="5.16832">
        <ele>646.45</ele>
        <time>2018-09-12T10:16:38.000Z</time>
      </trkpt>
      <trkpt lat="44.72456" lon="5.16826">
        <ele>646.86</ele>
        <time>2018-09-12T10:16:48.000Z</time>
      </trkpt>
      <trkpt lat="44.72446" lon="5.16816">
        <ele>645.8</ele>
        <time>2018-09-12T10:16:58.000Z</time>
      </trkpt>
      <trkpt lat="44.72435" lon="5.16809">
        <ele>645.11</ele>
        <time>2018-09-12T10:17:08.000Z</time>
      </trkpt>
      <trkpt lat="44.72424" lon="5.16811">
        <ele>646.66</ele>
        <time>2018-09-12T10:17:18.000Z</time>
      </trkpt>
      <trkpt lat="44.72415" lon="5.16811">
        <ele>647.68</ele>
        <time>2018-09-12T10:17:30.000Z</time>
      </trkpt>
      <trkpt lat="44.72405" lon="5.16812">
        <ele>649.13</ele>
        <time>2018-09-12T10:17:40.000Z</time>
      </trkpt>
      <trkpt lat="44.72395" lon="5.1681">
        <ele>649.98</ele>
        <time>2018-09-12T10:17:50.000Z</time>
      </trkpt>
      <trkpt lat="44.72385" lon="5.16809">
        <ele>651.37</ele>
        <time>2018-09-12T10:18:00.000Z</time>
      </trkpt>
      <trkpt lat="44.72375" lon="5.16807">
        <ele>652.32</ele>
        <time>2018-09-12T10:18:10.000Z</time>
      </trkpt>
      <trkpt lat="44.72363" lon="5.16809">
        <ele>654.33</ele>
        <time>2018-09-12T10:18:20.000Z</time>
      </trkpt>
      <trkpt lat="44.72353" lon="5.16809">
        <ele>654.99</ele>
        <time>2018-09-12T10:18:30.000Z</time>
      </trkpt>
      <trkpt lat="44.72344" lon="5.16812">
        <ele>656</ele>
        <time>2018-09-12T10:18:41.000Z</time>
      </trkpt>
      <trkpt lat="44.72335" lon="5.16816">
        <ele>656.35</ele>
        <time>2018-09-12T10:18:52.000Z</time>
      </trkpt>
      <trkpt lat="44.72325" lon="5.16822">
        <ele>656.26</ele>
        <time>2018-09-12T10:19:02.000Z</time>
      </trkpt>
      <trkpt lat="44.72316" lon="5.16824">
        <ele>654.56</ele>
        <time>2018-09-12T10:19:13.000Z</time>
      </trkpt>
      <trkpt lat="44.72318" lon="5.16837">
        <ele>657.07</ele>
        <time>2018-09-12T10:19:34.000Z</time>
      </trkpt>
      <trkpt lat="44.72324" lon="5.16847">
        <ele>660.34</ele>
        <time>2018-09-12T10:47:20.000Z</time>
      </trkpt>
      <trkpt lat="44.72317" lon="5.16839">
        <ele>657.02</ele>
        <time>2018-09-12T10:49:28.000Z</time>
      </trkpt>
      <trkpt lat="44.72312" lon="5.16829">
        <ele>653.99</ele>
        <time>2018-09-12T11:00:25.000Z</time>
      </trkpt>
      <trkpt lat="44.72306" lon="5.16839">
        <ele>653.27</ele>
        <time>2018-09-12T11:01:16.000Z</time>
      </trkpt>
      <trkpt lat="44.72306" lon="5.16852">
        <ele>654.21</ele>
        <time>2018-09-12T11:01:31.000Z</time>
      </trkpt>
      <trkpt lat="44.72306" lon="5.16866">
        <ele>655.43</ele>
        <time>2018-09-12T11:01:43.000Z</time>
      </trkpt>
      <trkpt lat="44.72308" lon="5.16878">
        <ele>657.03</ele>
        <time>2018-09-12T11:01:54.000Z</time>
      </trkpt>
      <trkpt lat="44.72309" lon="5.16893">
        <ele>658.66</ele>
        <time>2018-09-12T11:02:04.000Z</time>
      </trkpt>
      <trkpt lat="44.72308" lon="5.16907">
        <ele>658.7</ele>
        <time>2018-09-12T11:02:15.000Z</time>
      </trkpt>
      <trkpt lat="44.72308" lon="5.16921">
        <ele>659.21</ele>
        <time>2018-09-12T11:02:25.000Z</time>
      </trkpt>
      <trkpt lat="44.72308" lon="5.16935">
        <ele>659.31</ele>
        <time>2018-09-12T11:02:36.000Z</time>
      </trkpt>
      <trkpt lat="44.72306" lon="5.16948">
        <ele>658.28</ele>
        <time>2018-09-12T11:02:57.000Z</time>
      </trkpt>
      <trkpt lat="44.72305" lon="5.16962">
        <ele>657.5</ele>
        <time>2018-09-12T11:03:12.000Z</time>
      </trkpt>
      <trkpt lat="44.723" lon="5.16973">
        <ele>653.6</ele>
        <time>2018-09-12T11:03:31.000Z</time>
      </trkpt>
      <trkpt lat="44.72297" lon="5.16986">
        <ele>651.87</ele>
        <time>2018-09-12T11:03:44.000Z</time>
      </trkpt>
      <trkpt lat="44.72292" lon="5.16998">
        <ele>648.27</ele>
        <time>2018-09-12T11:03:55.000Z</time>
      </trkpt>
      <trkpt lat="44.72286" lon="5.17011">
        <ele>643.22</ele>
        <time>2018-09-12T11:04:05.000Z</time>
      </trkpt>
      <trkpt lat="44.72285" lon="5.17024">
        <ele>643.06</ele>
        <time>2018-09-12T11:04:16.000Z</time>
      </trkpt>
      <trkpt lat="44.72282" lon="5.17037">
        <ele>641.77</ele>
        <time>2018-09-12T11:04:31.000Z</time>
      </trkpt>
      <trkpt lat="44.72277" lon="5.17048">
        <ele>638.49</ele>
        <time>2018-09-12T11:04:42.000Z</time>
      </trkpt>
      <trkpt lat="44.72273" lon="5.1706">
        <ele>635.24</ele>
        <time>2018-09-12T11:04:53.000Z</time>
      </trkpt>
      <trkpt lat="44.72271" lon="5.17072">
        <ele>633.49</ele>
        <time>2018-09-12T11:05:05.000Z</time>
      </trkpt>
      <trkpt lat="44.72267" lon="5.17086">
        <ele>630.59</ele>
        <time>2018-09-12T11:05:15.000Z</time>
      </trkpt>
      <trkpt lat="44.72265" lon="5.171">
        <ele>628.84</ele>
        <time>2018-09-12T11:05:25.000Z</time>
      </trkpt>
      <trkpt lat="44.72262" lon="5.17113">
        <ele>626.45</ele>
        <time>2018-09-12T11:05:37.000Z</time>
      </trkpt>
      <trkpt lat="44.72259" lon="5.17126">
        <ele>624.45</ele>
        <time>2018-09-12T11:05:54.000Z</time>
      </trkpt>
      <trkpt lat="44.72256" lon="5.17139">
        <ele>622.52</ele>
        <time>2018-09-12T11:06:06.000Z</time>
      </trkpt>
      <trkpt lat="44.72257" lon="5.17152">
        <ele>622.65</ele>
        <time>2018-09-12T11:06:16.000Z</time>
      </trkpt>
      <trkpt lat="44.72257" lon="5.17165">
        <ele>621.29</ele>
        <time>2018-09-12T11:06:26.000Z</time>
      </trkpt>
      <trkpt lat="44.72252" lon="5.17177">
        <ele>618.56</ele>
        <time>2018-09-12T11:06:37.000Z</time>
      </trkpt>
      <trkpt lat="44.72249" lon="5.1719">
        <ele>616.22</ele>
        <time>2018-09-12T11:06:51.000Z</time>
      </trkpt>
      <trkpt lat="44.72247" lon="5.17203">
        <ele>614.03</ele>
        <time>2018-09-12T11:07:04.000Z</time>
      </trkpt>
      <trkpt lat="44.72247" lon="5.17216">
        <ele>612.05</ele>
        <time>2018-09-12T11:07:19.000Z</time>
      </trkpt>
      <trkpt lat="44.72246" lon="5.17231">
        <ele>609.57</ele>
        <time>2018-09-12T11:07:29.000Z</time>
      </trkpt>
      <trkpt lat="44.72242" lon="5.17246">
        <ele>607.56</ele>
        <time>2018-09-12T11:07:39.000Z</time>
      </trkpt>
      <trkpt lat="44.72233" lon="5.17242">
        <ele>607.38</ele>
        <time>2018-09-12T11:07:57.000Z</time>
      </trkpt>
      <trkpt lat="44.72229" lon="5.17227">
        <ele>607.71</ele>
        <time>2018-09-12T11:08:07.000Z</time>
      </trkpt>
      <trkpt lat="44.72219" lon="5.17226">
        <ele>605.55</ele>
        <time>2018-09-12T11:08:20.000Z</time>
      </trkpt>
      <trkpt lat="44.72208" lon="5.17224">
        <ele>603.02</ele>
        <time>2018-09-12T11:08:32.000Z</time>
      </trkpt>
      <trkpt lat="44.72196" lon="5.17225">
        <ele>599.97</ele>
        <time>2018-09-12T11:08:42.000Z</time>
      </trkpt>
      <trkpt lat="44.72185" lon="5.17229">
        <ele>597.86</ele>
        <time>2018-09-12T11:08:52.000Z</time>
      </trkpt>
      <trkpt lat="44.72172" lon="5.17235">
        <ele>596.74</ele>
        <time>2018-09-12T11:09:02.000Z</time>
      </trkpt>
      <trkpt lat="44.72163" lon="5.17245">
        <ele>598.27</ele>
        <time>2018-09-12T11:09:12.000Z</time>
      </trkpt>
      <trkpt lat="44.72152" lon="5.17252">
        <ele>598.88</ele>
        <time>2018-09-12T11:09:22.000Z</time>
      </trkpt>
      <trkpt lat="44.72141" lon="5.17259">
        <ele>599.85</ele>
        <time>2018-09-12T11:09:32.000Z</time>
      </trkpt>
      <trkpt lat="44.72131" lon="5.17265">
        <ele>600.85</ele>
        <time>2018-09-12T11:09:42.000Z</time>
      </trkpt>
      <trkpt lat="44.72121" lon="5.17274">
        <ele>602.9</ele>
        <time>2018-09-12T11:09:52.000Z</time>
      </trkpt>
      <trkpt lat="44.72108" lon="5.17279">
        <ele>602.98</ele>
        <time>2018-09-12T11:10:02.000Z</time>
      </trkpt>
      <trkpt lat="44.72101" lon="5.17288">
        <ele>605.92</ele>
        <time>2018-09-12T11:10:13.000Z</time>
      </trkpt>
      <trkpt lat="44.7209" lon="5.17297">
        <ele>607.72</ele>
        <time>2018-09-12T11:10:23.000Z</time>
      </trkpt>
      <trkpt lat="44.72084" lon="5.17306">
        <ele>609.89</ele>
        <time>2018-09-12T11:10:33.000Z</time>
      </trkpt>
      <trkpt lat="44.72077" lon="5.17315">
        <ele>611.7</ele>
        <time>2018-09-12T11:10:45.000Z</time>
      </trkpt>
      <trkpt lat="44.72068" lon="5.17312">
        <ele>610.76</ele>
        <time>2018-09-12T11:11:27.000Z</time>
      </trkpt>
      <trkpt lat="44.72059" lon="5.17312">
        <ele>610.5</ele>
        <time>2018-09-12T11:11:37.000Z</time>
      </trkpt>
      <trkpt lat="44.72049" lon="5.17315">
        <ele>611.03</ele>
        <time>2018-09-12T11:11:48.000Z</time>
      </trkpt>
      <trkpt lat="44.7204" lon="5.1731">
        <ele>610.53</ele>
        <time>2018-09-12T11:11:58.000Z</time>
      </trkpt>
      <trkpt lat="44.7203" lon="5.17311">
        <ele>610.96</ele>
        <time>2018-09-12T11:12:08.000Z</time>
      </trkpt>
      <trkpt lat="44.72019" lon="5.17312">
        <ele>611.65</ele>
        <time>2018-09-12T11:12:18.000Z</time>
      </trkpt>
      <trkpt lat="44.72009" lon="5.17312">
        <ele>612.08</ele>
        <time>2018-09-12T11:12:30.000Z</time>
      </trkpt>
      <trkpt lat="44.71999" lon="5.17311">
        <ele>612.33</ele>
        <time>2018-09-12T11:12:41.000Z</time>
      </trkpt>
      <trkpt lat="44.7199" lon="5.17306">
        <ele>612.11</ele>
        <time>2018-09-12T11:12:53.000Z</time>
      </trkpt>
      <trkpt lat="44.71981" lon="5.17303">
        <ele>612.24</ele>
        <time>2018-09-12T11:13:06.000Z</time>
      </trkpt>
      <trkpt lat="44.71971" lon="5.17299">
        <ele>612.44</ele>
        <time>2018-09-12T11:13:19.000Z</time>
      </trkpt>
      <trkpt lat="44.71959" lon="5.17296">
        <ele>613.3</ele>
        <time>2018-09-12T11:13:29.000Z</time>
      </trkpt>
      <trkpt lat="44.71948" lon="5.17296">
        <ele>614.47</ele>
        <time>2018-09-12T11:13:39.000Z</time>
      </trkpt>
      <trkpt lat="44.71935" lon="5.17296">
        <ele>615.72</ele>
        <time>2018-09-12T11:13:49.000Z</time>
      </trkpt>
      <trkpt lat="44.71924" lon="5.17293">
        <ele>616.45</ele>
        <time>2018-09-12T11:13:59.000Z</time>
      </trkpt>
      <trkpt lat="44.71914" lon="5.17289">
        <ele>617.02</ele>
        <time>2018-09-12T11:14:09.000Z</time>
      </trkpt>
      <trkpt lat="44.719" lon="5.17292">
        <ele>618.1</ele>
        <time>2018-09-12T11:14:19.000Z</time>
      </trkpt>
      <trkpt lat="44.71889" lon="5.17292">
        <ele>618.68</ele>
        <time>2018-09-12T11:14:29.000Z</time>
      </trkpt>
      <trkpt lat="44.71877" lon="5.17294">
        <ele>619.19</ele>
        <time>2018-09-12T11:14:39.000Z</time>
      </trkpt>
      <trkpt lat="44.71864" lon="5.17295">
        <ele>619.67</ele>
        <time>2018-09-12T11:14:49.000Z</time>
      </trkpt>
      <trkpt lat="44.71851" lon="5.17297">
        <ele>620.08</ele>
        <time>2018-09-12T11:14:59.000Z</time>
      </trkpt>
      <trkpt lat="44.71838" lon="5.17297">
        <ele>620.57</ele>
        <time>2018-09-12T11:15:09.000Z</time>
      </trkpt>
      <trkpt lat="44.71828" lon="5.17294">
        <ele>621.15</ele>
        <time>2018-09-12T11:15:19.000Z</time>
      </trkpt>
      <trkpt lat="44.71817" lon="5.17294">
        <ele>621.63</ele>
        <time>2018-09-12T11:15:30.000Z</time>
      </trkpt>
      <trkpt lat="44.71806" lon="5.17299">
        <ele>621.95</ele>
        <time>2018-09-12T11:15:40.000Z</time>
      </trkpt>
      <trkpt lat="44.71795" lon="5.17298">
        <ele>622.54</ele>
        <time>2018-09-12T11:15:50.000Z</time>
      </trkpt>
      <trkpt lat="44.71785" lon="5.17299">
        <ele>623.02</ele>
        <time>2018-09-12T11:16:00.000Z</time>
      </trkpt>
      <trkpt lat="44.71774" lon="5.17299">
        <ele>623.62</ele>
        <time>2018-09-12T11:16:10.000Z</time>
      </trkpt>
      <trkpt lat="44.71763" lon="5.17303">
        <ele>624.23</ele>
        <time>2018-09-12T11:16:20.000Z</time>
      </trkpt>
      <trkpt lat="44.71752" lon="5.17302">
        <ele>624.94</ele>
        <time>2018-09-12T11:16:30.000Z</time>
      </trkpt>
      <trkpt lat="44.7174" lon="5.17305">
        <ele>625.76</ele>
        <time>2018-09-12T11:16:40.000Z</time>
      </trkpt>
      <trkpt lat="44.71728" lon="5.17305">
        <ele>626.74</ele>
        <time>2018-09-12T11:16:50.000Z</time>
      </trkpt>
      <trkpt lat="44.71717" lon="5.17305">
        <ele>627.68</ele>
        <time>2018-09-12T11:17:00.000Z</time>
      </trkpt>
      <trkpt lat="44.71706" lon="5.1731">
        <ele>628.81</ele>
        <time>2018-09-12T11:17:10.000Z</time>
      </trkpt>
      <trkpt lat="44.71696" lon="5.17312">
        <ele>629.83</ele>
        <time>2018-09-12T11:17:20.000Z</time>
      </trkpt>
      <trkpt lat="44.71684" lon="5.17317">
        <ele>631.06</ele>
        <time>2018-09-12T11:17:30.000Z</time>
      </trkpt>
      <trkpt lat="44.71674" lon="5.17317">
        <ele>632.11</ele>
        <time>2018-09-12T11:17:40.000Z</time>
      </trkpt>
      <trkpt lat="44.71663" lon="5.17319">
        <ele>633.14</ele>
        <time>2018-09-12T11:17:50.000Z</time>
      </trkpt>
      <trkpt lat="44.71654" lon="5.1732">
        <ele>634.07</ele>
        <time>2018-09-12T11:18:00.000Z</time>
      </trkpt>
      <trkpt lat="44.71644" lon="5.1732">
        <ele>635.09</ele>
        <time>2018-09-12T11:18:12.000Z</time>
      </trkpt>
      <trkpt lat="44.71632" lon="5.17316">
        <ele>636.45</ele>
        <time>2018-09-12T11:18:22.000Z</time>
      </trkpt>
      <trkpt lat="44.71619" lon="5.17312">
        <ele>637.81</ele>
        <time>2018-09-12T11:18:32.000Z</time>
      </trkpt>
      <trkpt lat="44.71609" lon="5.17315">
        <ele>638.73</ele>
        <time>2018-09-12T11:18:42.000Z</time>
      </trkpt>
      <trkpt lat="44.71598" lon="5.17314">
        <ele>639.71</ele>
        <time>2018-09-12T11:18:52.000Z</time>
      </trkpt>
      <trkpt lat="44.71585" lon="5.17312">
        <ele>640.59</ele>
        <time>2018-09-12T11:19:02.000Z</time>
      </trkpt>
      <trkpt lat="44.71572" lon="5.17309">
        <ele>641.15</ele>
        <time>2018-09-12T11:19:12.000Z</time>
      </trkpt>
      <trkpt lat="44.71559" lon="5.17311">
        <ele>641.45</ele>
        <time>2018-09-12T11:19:22.000Z</time>
      </trkpt>
      <trkpt lat="44.71546" lon="5.17316">
        <ele>641.5</ele>
        <time>2018-09-12T11:19:32.000Z</time>
      </trkpt>
      <trkpt lat="44.71536" lon="5.1732">
        <ele>641.33</ele>
        <time>2018-09-12T11:19:42.000Z</time>
      </trkpt>
      <trkpt lat="44.71525" lon="5.17323">
        <ele>641.11</ele>
        <time>2018-09-12T11:19:52.000Z</time>
      </trkpt>
      <trkpt lat="44.71512" lon="5.17324">
        <ele>641.09</ele>
        <time>2018-09-12T11:20:02.000Z</time>
      </trkpt>
      <trkpt lat="44.715" lon="5.1733">
        <ele>640.58</ele>
        <time>2018-09-12T11:20:12.000Z</time>
      </trkpt>
      <trkpt lat="44.71488" lon="5.17333">
        <ele>640.16</ele>
        <time>2018-09-12T11:20:22.000Z</time>
      </trkpt>
      <trkpt lat="44.71477" lon="5.17335">
        <ele>639.82</ele>
        <time>2018-09-12T11:20:32.000Z</time>
      </trkpt>
      <trkpt lat="44.71463" lon="5.17335">
        <ele>639.89</ele>
        <time>2018-09-12T11:20:42.000Z</time>
      </trkpt>
      <trkpt lat="44.71451" lon="5.17334">
        <ele>640.11</ele>
        <time>2018-09-12T11:20:52.000Z</time>
      </trkpt>
      <trkpt lat="44.71439" lon="5.1733">
        <ele>640.47</ele>
        <time>2018-09-12T11:21:02.000Z</time>
      </trkpt>
      <trkpt lat="44.71427" lon="5.17331">
        <ele>640.31</ele>
        <time>2018-09-12T11:21:12.000Z</time>
      </trkpt>
      <trkpt lat="44.71413" lon="5.17333">
        <ele>640.04</ele>
        <time>2018-09-12T11:21:22.000Z</time>
      </trkpt>
      <trkpt lat="44.714" lon="5.17335">
        <ele>639.7</ele>
        <time>2018-09-12T11:21:32.000Z</time>
      </trkpt>
      <trkpt lat="44.71387" lon="5.17335">
        <ele>639.55</ele>
        <time>2018-09-12T11:21:42.000Z</time>
      </trkpt>
      <trkpt lat="44.71373" lon="5.17334">
        <ele>639.47</ele>
        <time>2018-09-12T11:21:52.000Z</time>
      </trkpt>
      <trkpt lat="44.71362" lon="5.17337">
        <ele>639.2</ele>
        <time>2018-09-12T11:22:02.000Z</time>
      </trkpt>
      <trkpt lat="44.7135" lon="5.1734">
        <ele>638.92</ele>
        <time>2018-09-12T11:22:12.000Z</time>
      </trkpt>
      <trkpt lat="44.71338" lon="5.17344">
        <ele>638.55</ele>
        <time>2018-09-12T11:22:22.000Z</time>
      </trkpt>
      <trkpt lat="44.71328" lon="5.17345">
        <ele>638.5</ele>
        <time>2018-09-12T11:22:32.000Z</time>
      </trkpt>
      <trkpt lat="44.71315" lon="5.17347">
        <ele>638.25</ele>
        <time>2018-09-12T11:22:42.000Z</time>
      </trkpt>
      <trkpt lat="44.71302" lon="5.17346">
        <ele>638.4</ele>
        <time>2018-09-12T11:22:52.000Z</time>
      </trkpt>
      <trkpt lat="44.7129" lon="5.17346">
        <ele>638.42</ele>
        <time>2018-09-12T11:23:02.000Z</time>
      </trkpt>
      <trkpt lat="44.71277" lon="5.17345">
        <ele>638.41</ele>
        <time>2018-09-12T11:23:12.000Z</time>
      </trkpt>
      <trkpt lat="44.71264" lon="5.17339">
        <ele>638.87</ele>
        <time>2018-09-12T11:23:22.000Z</time>
      </trkpt>
      <trkpt lat="44.71251" lon="5.17336">
        <ele>638.97</ele>
        <time>2018-09-12T11:23:32.000Z</time>
      </trkpt>
      <trkpt lat="44.71241" lon="5.17334">
        <ele>639.08</ele>
        <time>2018-09-12T11:23:42.000Z</time>
      </trkpt>
      <trkpt lat="44.7123" lon="5.17332">
        <ele>639.42</ele>
        <time>2018-09-12T11:23:52.000Z</time>
      </trkpt>
      <trkpt lat="44.71221" lon="5.1733">
        <ele>639.83</ele>
        <time>2018-09-12T11:24:02.000Z</time>
      </trkpt>
      <trkpt lat="44.71209" lon="5.17326">
        <ele>640.42</ele>
        <time>2018-09-12T11:24:12.000Z</time>
      </trkpt>
      <trkpt lat="44.71198" lon="5.17325">
        <ele>640.82</ele>
        <time>2018-09-12T11:24:22.000Z</time>
      </trkpt>
      <trkpt lat="44.71186" lon="5.17324">
        <ele>640.99</ele>
        <time>2018-09-12T11:24:32.000Z</time>
      </trkpt>
      <trkpt lat="44.71173" lon="5.17322">
        <ele>640.64</ele>
        <time>2018-09-12T11:24:42.000Z</time>
      </trkpt>
      <trkpt lat="44.71166" lon="5.17314">
        <ele>640.25</ele>
        <time>2018-09-12T11:24:53.000Z</time>
      </trkpt>
      <trkpt lat="44.71164" lon="5.17301">
        <ele>639.58</ele>
        <time>2018-09-12T11:25:04.000Z</time>
      </trkpt>
      <trkpt lat="44.7116" lon="5.17288">
        <ele>638.05</ele>
        <time>2018-09-12T11:25:15.000Z</time>
      </trkpt>
      <trkpt lat="44.71153" lon="5.17274">
        <ele>635.45</ele>
        <time>2018-09-12T11:25:25.000Z</time>
      </trkpt>
      <trkpt lat="44.71152" lon="5.17258">
        <ele>633.27</ele>
        <time>2018-09-12T11:25:35.000Z</time>
      </trkpt>
      <trkpt lat="44.71147" lon="5.17246">
        <ele>631.06</ele>
        <time>2018-09-12T11:25:45.000Z</time>
      </trkpt>
      <trkpt lat="44.7115" lon="5.17232">
        <ele>629.24</ele>
        <time>2018-09-12T11:25:55.000Z</time>
      </trkpt>
      <trkpt lat="44.71147" lon="5.17219">
        <ele>626.61</ele>
        <time>2018-09-12T11:26:05.000Z</time>
      </trkpt>
      <trkpt lat="44.7114" lon="5.17208">
        <ele>623.81</ele>
        <time>2018-09-12T11:26:17.000Z</time>
      </trkpt>
      <trkpt lat="44.71135" lon="5.17197">
        <ele>621.04</ele>
        <time>2018-09-12T11:26:27.000Z</time>
      </trkpt>
      <trkpt lat="44.7113" lon="5.17185">
        <ele>618.26</ele>
        <time>2018-09-12T11:26:39.000Z</time>
      </trkpt>
      <trkpt lat="44.71127" lon="5.17173">
        <ele>615.68</ele>
        <time>2018-09-12T11:26:52.000Z</time>
      </trkpt>
      <trkpt lat="44.71125" lon="5.17159">
        <ele>613.4</ele>
        <time>2018-09-12T11:27:02.000Z</time>
      </trkpt>
      <trkpt lat="44.71124" lon="5.17146">
        <ele>611.49</ele>
        <time>2018-09-12T11:27:12.000Z</time>
      </trkpt>
      <trkpt lat="44.71118" lon="5.17137">
        <ele>609.87</ele>
        <time>2018-09-12T11:27:22.000Z</time>
      </trkpt>
      <trkpt lat="44.7111" lon="5.1713">
        <ele>608.58</ele>
        <time>2018-09-12T11:27:34.000Z</time>
      </trkpt>
      <trkpt lat="44.71104" lon="5.17119">
        <ele>607.37</ele>
        <time>2018-09-12T11:27:45.000Z</time>
      </trkpt>
      <trkpt lat="44.71096" lon="5.17113">
        <ele>606.37</ele>
        <time>2018-09-12T11:27:58.000Z</time>
      </trkpt>
      <trkpt lat="44.71094" lon="5.17101">
        <ele>605.46</ele>
        <time>2018-09-12T11:28:11.000Z</time>
      </trkpt>
      <trkpt lat="44.71087" lon="5.17091">
        <ele>604.14</ele>
        <time>2018-09-12T11:28:31.000Z</time>
      </trkpt>
      <trkpt lat="44.71077" lon="5.17092">
        <ele>602.87</ele>
        <time>2018-09-12T11:28:41.000Z</time>
      </trkpt>
      <trkpt lat="44.71069" lon="5.17083">
        <ele>600.81</ele>
        <time>2018-09-12T11:28:51.000Z</time>
      </trkpt>
      <trkpt lat="44.71061" lon="5.17076">
        <ele>598.5</ele>
        <time>2018-09-12T11:29:03.000Z</time>
      </trkpt>
      <trkpt lat="44.71054" lon="5.17068">
        <ele>596.05</ele>
        <time>2018-09-12T11:29:14.000Z</time>
      </trkpt>
      <trkpt lat="44.71044" lon="5.17064">
        <ele>593.39</ele>
        <time>2018-09-12T11:29:42.000Z</time>
      </trkpt>
      <trkpt lat="44.71035" lon="5.1706">
        <ele>590.88</ele>
        <time>2018-09-12T11:29:52.000Z</time>
      </trkpt>
      <trkpt lat="44.71027" lon="5.17052">
        <ele>588.52</ele>
        <time>2018-09-12T11:30:04.000Z</time>
      </trkpt>
      <trkpt lat="44.71018" lon="5.17048">
        <ele>586.44</ele>
        <time>2018-09-12T11:30:14.000Z</time>
      </trkpt>
      <trkpt lat="44.71009" lon="5.17039">
        <ele>584.71</ele>
        <time>2018-09-12T11:30:24.000Z</time>
      </trkpt>
      <trkpt lat="44.71002" lon="5.1703">
        <ele>583.65</ele>
        <time>2018-09-12T11:30:34.000Z</time>
      </trkpt>
      <trkpt lat="44.70995" lon="5.17019">
        <ele>583.33</ele>
        <time>2018-09-12T11:30:44.000Z</time>
      </trkpt>
      <trkpt lat="44.70992" lon="5.17004">
        <ele>583.68</ele>
        <time>2018-09-12T11:30:54.000Z</time>
      </trkpt>
      <trkpt lat="44.7099" lon="5.16992">
        <ele>583.87</ele>
        <time>2018-09-12T11:31:04.000Z</time>
      </trkpt>
      <trkpt lat="44.70984" lon="5.16982">
        <ele>583.96</ele>
        <time>2018-09-12T11:33:50.000Z</time>
      </trkpt>
      <trkpt lat="44.70979" lon="5.1697">
        <ele>583.94</ele>
        <time>2018-09-12T11:34:30.000Z</time>
      </trkpt>
      <trkpt lat="44.70973" lon="5.16955">
        <ele>583.66</ele>
        <time>2018-09-12T11:34:40.000Z</time>
      </trkpt>
      <trkpt lat="44.70967" lon="5.16944">
        <ele>583.46</ele>
        <time>2018-09-12T11:34:50.000Z</time>
      </trkpt>
      <trkpt lat="44.70962" lon="5.1693">
        <ele>583.23</ele>
        <time>2018-09-12T11:35:00.000Z</time>
      </trkpt>
      <trkpt lat="44.70956" lon="5.16918">
        <ele>583.57</ele>
        <time>2018-09-12T11:35:10.000Z</time>
      </trkpt>
      <trkpt lat="44.7095" lon="5.16904">
        <ele>585</ele>
        <time>2018-09-12T11:35:20.000Z</time>
      </trkpt>
      <trkpt lat="44.70949" lon="5.16891">
        <ele>586.84</ele>
        <time>2018-09-12T11:35:40.000Z</time>
      </trkpt>
      <trkpt lat="44.70947" lon="5.16878">
        <ele>589.16</ele>
        <time>2018-09-12T11:36:04.000Z</time>
      </trkpt>
      <trkpt lat="44.70942" lon="5.16867">
        <ele>591.92</ele>
        <time>2018-09-12T11:36:22.000Z</time>
      </trkpt>
      <trkpt lat="44.70939" lon="5.16854">
        <ele>594.68</ele>
        <time>2018-09-12T11:36:44.000Z</time>
      </trkpt>
      <trkpt lat="44.70932" lon="5.16845">
        <ele>597.27</ele>
        <time>2018-09-12T11:37:05.000Z</time>
      </trkpt>
      <trkpt lat="44.70927" lon="5.16834">
        <ele>599.32</ele>
        <time>2018-09-12T11:37:26.000Z</time>
      </trkpt>
      <trkpt lat="44.70923" lon="5.16822">
        <ele>600.8</ele>
        <time>2018-09-12T11:37:46.000Z</time>
      </trkpt>
      <trkpt lat="44.70916" lon="5.16813">
        <ele>601.91</ele>
        <time>2018-09-12T11:38:00.000Z</time>
      </trkpt>
      <trkpt lat="44.7091" lon="5.16803">
        <ele>602.67</ele>
        <time>2018-09-12T11:38:14.000Z</time>
      </trkpt>
      <trkpt lat="44.70905" lon="5.16792">
        <ele>603.36</ele>
        <time>2018-09-12T11:38:29.000Z</time>
      </trkpt>
      <trkpt lat="44.70899" lon="5.16779">
        <ele>604.09</ele>
        <time>2018-09-12T11:38:52.000Z</time>
      </trkpt>
      <trkpt lat="44.70893" lon="5.16769">
        <ele>604.73</ele>
        <time>2018-09-12T11:39:14.000Z</time>
      </trkpt>
      <trkpt lat="44.70888" lon="5.16759">
        <ele>605.31</ele>
        <time>2018-09-12T11:39:29.000Z</time>
      </trkpt>
      <trkpt lat="44.70883" lon="5.16748">
        <ele>605.74</ele>
        <time>2018-09-12T11:39:48.000Z</time>
      </trkpt>
      <trkpt lat="44.70874" lon="5.16744">
        <ele>606.29</ele>
        <time>2018-09-12T11:46:37.000Z</time>
      </trkpt>
      <trkpt lat="44.70869" lon="5.16733">
        <ele>606.55</ele>
        <time>2018-09-12T11:46:48.000Z</time>
      </trkpt>
      <trkpt lat="44.70861" lon="5.16724">
        <ele>606.97</ele>
        <time>2018-09-12T11:46:58.000Z</time>
      </trkpt>
      <trkpt lat="44.70856" lon="5.16713">
        <ele>606.86</ele>
        <time>2018-09-12T11:47:08.000Z</time>
      </trkpt>
      <trkpt lat="44.7085" lon="5.16703">
        <ele>606.69</ele>
        <time>2018-09-12T11:47:24.000Z</time>
      </trkpt>
      <trkpt lat="44.70844" lon="5.16691">
        <ele>606.03</ele>
        <time>2018-09-12T11:47:38.000Z</time>
      </trkpt>
      <trkpt lat="44.70842" lon="5.16678">
        <ele>604.53</ele>
        <time>2018-09-12T11:47:52.000Z</time>
      </trkpt>
      <trkpt lat="44.70835" lon="5.16669">
        <ele>603.45</ele>
        <time>2018-09-12T11:48:06.000Z</time>
      </trkpt>
      <trkpt lat="44.7083" lon="5.16657">
        <ele>601.12</ele>
        <time>2018-09-12T11:48:22.000Z</time>
      </trkpt>
      <trkpt lat="44.70826" lon="5.16646">
        <ele>598.06</ele>
        <time>2018-09-12T11:48:35.000Z</time>
      </trkpt>
      <trkpt lat="44.70823" lon="5.16634">
        <ele>594.36</ele>
        <time>2018-09-12T11:48:46.000Z</time>
      </trkpt>
      <trkpt lat="44.70818" lon="5.16622">
        <ele>590.15</ele>
        <time>2018-09-12T11:48:57.000Z</time>
      </trkpt>
      <trkpt lat="44.70815" lon="5.16609">
        <ele>585.52</ele>
        <time>2018-09-12T11:49:07.000Z</time>
      </trkpt>
      <trkpt lat="44.70808" lon="5.16595">
        <ele>580.63</ele>
        <time>2018-09-12T11:49:17.000Z</time>
      </trkpt>
      <trkpt lat="44.70801" lon="5.16584">
        <ele>577.2</ele>
        <time>2018-09-12T11:49:27.000Z</time>
      </trkpt>
      <trkpt lat="44.70797" lon="5.16572">
        <ele>574.52</ele>
        <time>2018-09-12T11:49:37.000Z</time>
      </trkpt>
      <trkpt lat="44.70793" lon="5.16559">
        <ele>572.02</ele>
        <time>2018-09-12T11:49:47.000Z</time>
      </trkpt>
      <trkpt lat="44.70788" lon="5.16546">
        <ele>570.16</ele>
        <time>2018-09-12T11:49:57.000Z</time>
      </trkpt>
      <trkpt lat="44.70787" lon="5.16533">
        <ele>568.64</ele>
        <time>2018-09-12T11:50:07.000Z</time>
      </trkpt>
      <trkpt lat="44.70784" lon="5.16521">
        <ele>567.91</ele>
        <time>2018-09-12T11:50:17.000Z</time>
      </trkpt>
      <trkpt lat="44.70779" lon="5.16507">
        <ele>567.98</ele>
        <time>2018-09-12T11:50:27.000Z</time>
      </trkpt>
      <trkpt lat="44.70774" lon="5.16495">
        <ele>568.4</ele>
        <time>2018-09-12T11:50:37.000Z</time>
      </trkpt>
      <trkpt lat="44.7077" lon="5.16482">
        <ele>568.98</ele>
        <time>2018-09-12T11:50:47.000Z</time>
      </trkpt>
      <trkpt lat="44.70769" lon="5.16468">
        <ele>568.84</ele>
        <time>2018-09-12T11:50:57.000Z</time>
      </trkpt>
      <trkpt lat="44.70769" lon="5.16453">
        <ele>568.44</ele>
        <time>2018-09-12T11:51:07.000Z</time>
      </trkpt>
      <trkpt lat="44.70762" lon="5.16439">
        <ele>569.76</ele>
        <time>2018-09-12T11:51:17.000Z</time>
      </trkpt>
      <trkpt lat="44.70757" lon="5.16427">
        <ele>569.97</ele>
        <time>2018-09-12T11:51:27.000Z</time>
      </trkpt>
      <trkpt lat="44.70753" lon="5.16413">
        <ele>569.4</ele>
        <time>2018-09-12T11:51:37.000Z</time>
      </trkpt>
      <trkpt lat="44.70751" lon="5.16398">
        <ele>567.8</ele>
        <time>2018-09-12T11:51:47.000Z</time>
      </trkpt>
      <trkpt lat="44.70749" lon="5.16385">
        <ele>565.91</ele>
        <time>2018-09-12T11:51:57.000Z</time>
      </trkpt>
      <trkpt lat="44.70744" lon="5.16374">
        <ele>564.56</ele>
        <time>2018-09-12T11:52:07.000Z</time>
      </trkpt>
      <trkpt lat="44.70737" lon="5.16364">
        <ele>563.31</ele>
        <time>2018-09-12T11:52:17.000Z</time>
      </trkpt>
      <trkpt lat="44.70729" lon="5.16354">
        <ele>561.99</ele>
        <time>2018-09-12T11:52:27.000Z</time>
      </trkpt>
      <trkpt lat="44.70725" lon="5.1634">
        <ele>560.46</ele>
        <time>2018-09-12T11:52:37.000Z</time>
      </trkpt>
      <trkpt lat="44.70719" lon="5.16325">
        <ele>559.17</ele>
        <time>2018-09-12T11:52:47.000Z</time>
      </trkpt>
      <trkpt lat="44.70718" lon="5.16308">
        <ele>557.49</ele>
        <time>2018-09-12T11:52:57.000Z</time>
      </trkpt>
      <trkpt lat="44.70717" lon="5.16292">
        <ele>555.61</ele>
        <time>2018-09-12T11:53:07.000Z</time>
      </trkpt>
      <trkpt lat="44.70718" lon="5.16275">
        <ele>553.53</ele>
        <time>2018-09-12T11:53:17.000Z</time>
      </trkpt>
      <trkpt lat="44.70721" lon="5.16257">
        <ele>551.36</ele>
        <time>2018-09-12T11:53:27.000Z</time>
      </trkpt>
      <trkpt lat="44.70717" lon="5.16243">
        <ele>550.68</ele>
        <time>2018-09-12T11:53:38.000Z</time>
      </trkpt>
      <trkpt lat="44.70717" lon="5.16226">
        <ele>549.78</ele>
        <time>2018-09-12T11:53:48.000Z</time>
      </trkpt>
      <trkpt lat="44.70715" lon="5.16211">
        <ele>549.58</ele>
        <time>2018-09-12T11:53:58.000Z</time>
      </trkpt>
      <trkpt lat="44.70715" lon="5.16196">
        <ele>549.1</ele>
        <time>2018-09-12T11:54:08.000Z</time>
      </trkpt>
      <trkpt lat="44.70713" lon="5.16183">
        <ele>548.98</ele>
        <time>2018-09-12T11:54:18.000Z</time>
      </trkpt>
      <trkpt lat="44.7071" lon="5.16169">
        <ele>548.94</ele>
        <time>2018-09-12T11:54:28.000Z</time>
      </trkpt>
      <trkpt lat="44.70708" lon="5.16152">
        <ele>549.11</ele>
        <time>2018-09-12T11:54:38.000Z</time>
      </trkpt>
      <trkpt lat="44.70704" lon="5.16138">
        <ele>550.09</ele>
        <time>2018-09-12T11:54:48.000Z</time>
      </trkpt>
      <trkpt lat="44.70701" lon="5.16125">
        <ele>551.23</ele>
        <time>2018-09-12T11:54:58.000Z</time>
      </trkpt>
      <trkpt lat="44.70695" lon="5.1611">
        <ele>552.86</ele>
        <time>2018-09-12T11:55:08.000Z</time>
      </trkpt>
      <trkpt lat="44.70693" lon="5.16096">
        <ele>553.07</ele>
        <time>2018-09-12T11:55:20.000Z</time>
      </trkpt>
      <trkpt lat="44.7069" lon="5.16084">
        <ele>552.97</ele>
        <time>2018-09-12T11:55:30.000Z</time>
      </trkpt>
      <trkpt lat="44.70688" lon="5.16071">
        <ele>551.34</ele>
        <time>2018-09-12T11:55:40.000Z</time>
      </trkpt>
      <trkpt lat="44.70684" lon="5.16058">
        <ele>548.93</ele>
        <time>2018-09-12T11:55:52.000Z</time>
      </trkpt>
      <trkpt lat="44.7068" lon="5.16046">
        <ele>546.27</ele>
        <time>2018-09-12T11:57:51.000Z</time>
      </trkpt>
      <trkpt lat="44.70678" lon="5.16033">
        <ele>542.4</ele>
        <time>2018-09-12T11:58:54.000Z</time>
      </trkpt>
      <trkpt lat="44.70679" lon="5.16019">
        <ele>538.48</ele>
        <time>2018-09-12T11:59:14.000Z</time>
      </trkpt>
      <trkpt lat="44.70684" lon="5.16009">
        <ele>534.66</ele>
        <time>2018-09-12T11:59:26.000Z</time>
      </trkpt>
      <trkpt lat="44.70682" lon="5.15997">
        <ele>532.97</ele>
        <time>2018-09-12T11:59:44.000Z</time>
      </trkpt>
      <trkpt lat="44.7068" lon="5.15984">
        <ele>531.37</ele>
        <time>2018-09-12T12:00:02.000Z</time>
      </trkpt>
      <trkpt lat="44.70677" lon="5.15971">
        <ele>530.66</ele>
        <time>2018-09-12T12:00:13.000Z</time>
      </trkpt>
      <trkpt lat="44.70675" lon="5.15953">
        <ele>529.32</ele>
        <time>2018-09-12T12:00:23.000Z</time>
      </trkpt>
      <trkpt lat="44.70674" lon="5.15934">
        <ele>528.31</ele>
        <time>2018-09-12T12:00:33.000Z</time>
      </trkpt>
      <trkpt lat="44.70675" lon="5.15919">
        <ele>527.2</ele>
        <time>2018-09-12T12:00:43.000Z</time>
      </trkpt>
      <trkpt lat="44.7068" lon="5.15901">
        <ele>525.39</ele>
        <time>2018-09-12T12:00:53.000Z</time>
      </trkpt>
      <trkpt lat="44.70685" lon="5.15885">
        <ele>523.94</ele>
        <time>2018-09-12T12:01:03.000Z</time>
      </trkpt>
      <trkpt lat="44.70688" lon="5.15866">
        <ele>523.57</ele>
        <time>2018-09-12T12:01:13.000Z</time>
      </trkpt>
      <trkpt lat="44.70692" lon="5.15853">
        <ele>523.18</ele>
        <time>2018-09-12T12:01:23.000Z</time>
      </trkpt>
      <trkpt lat="44.70697" lon="5.15841">
        <ele>522.88</ele>
        <time>2018-09-12T12:01:33.000Z</time>
      </trkpt>
      <trkpt lat="44.70704" lon="5.15829">
        <ele>522.59</ele>
        <time>2018-09-12T12:01:43.000Z</time>
      </trkpt>
      <trkpt lat="44.70707" lon="5.15811">
        <ele>523.76</ele>
        <time>2018-09-12T12:01:53.000Z</time>
      </trkpt>
      <trkpt lat="44.70707" lon="5.15796">
        <ele>525.37</ele>
        <time>2018-09-12T12:02:03.000Z</time>
      </trkpt>
      <trkpt lat="44.70712" lon="5.15783">
        <ele>526.55</ele>
        <time>2018-09-12T12:02:13.000Z</time>
      </trkpt>
      <trkpt lat="44.70717" lon="5.1577">
        <ele>527.95</ele>
        <time>2018-09-12T12:02:23.000Z</time>
      </trkpt>
      <trkpt lat="44.70719" lon="5.15755">
        <ele>529.48</ele>
        <time>2018-09-12T12:02:33.000Z</time>
      </trkpt>
      <trkpt lat="44.70724" lon="5.15741">
        <ele>530.54</ele>
        <time>2018-09-12T12:02:43.000Z</time>
      </trkpt>
      <trkpt lat="44.70729" lon="5.15729">
        <ele>531.3</ele>
        <time>2018-09-12T12:02:53.000Z</time>
      </trkpt>
      <trkpt lat="44.70732" lon="5.15716">
        <ele>531.73</ele>
        <time>2018-09-12T12:03:03.000Z</time>
      </trkpt>
      <trkpt lat="44.70735" lon="5.15699">
        <ele>531.87</ele>
        <time>2018-09-12T12:03:13.000Z</time>
      </trkpt>
      <trkpt lat="44.70743" lon="5.15689">
        <ele>531.51</ele>
        <time>2018-09-12T12:03:23.000Z</time>
      </trkpt>
      <trkpt lat="44.70748" lon="5.15678">
        <ele>530.78</ele>
        <time>2018-09-12T12:03:33.000Z</time>
      </trkpt>
      <trkpt lat="44.70749" lon="5.15664">
        <ele>529.95</ele>
        <time>2018-09-12T12:03:43.000Z</time>
      </trkpt>
      <trkpt lat="44.70745" lon="5.15649">
        <ele>529.33</ele>
        <time>2018-09-12T12:03:53.000Z</time>
      </trkpt>
      <trkpt lat="44.70741" lon="5.15636">
        <ele>528</ele>
        <time>2018-09-12T12:04:03.000Z</time>
      </trkpt>
      <trkpt lat="44.70739" lon="5.15622">
        <ele>526.13</ele>
        <time>2018-09-12T12:04:13.000Z</time>
      </trkpt>
      <trkpt lat="44.70739" lon="5.15609">
        <ele>524.35</ele>
        <time>2018-09-12T12:04:24.000Z</time>
      </trkpt>
      <trkpt lat="44.70739" lon="5.15595">
        <ele>522.86</ele>
        <time>2018-09-12T12:04:34.000Z</time>
      </trkpt>
      <trkpt lat="44.70741" lon="5.15582">
        <ele>521.9</ele>
        <time>2018-09-12T12:04:45.000Z</time>
      </trkpt>
      <trkpt lat="44.7074" lon="5.15567">
        <ele>521.39</ele>
        <time>2018-09-12T12:04:55.000Z</time>
      </trkpt>
      <trkpt lat="44.70738" lon="5.15554">
        <ele>521.26</ele>
        <time>2018-09-12T12:05:05.000Z</time>
      </trkpt>
      <trkpt lat="44.70739" lon="5.15537">
        <ele>521.4</ele>
        <time>2018-09-12T12:05:15.000Z</time>
      </trkpt>
      <trkpt lat="44.70736" lon="5.1552">
        <ele>521.98</ele>
        <time>2018-09-12T12:05:25.000Z</time>
      </trkpt>
      <trkpt lat="44.70733" lon="5.15506">
        <ele>522.69</ele>
        <time>2018-09-12T12:05:35.000Z</time>
      </trkpt>
      <trkpt lat="44.70737" lon="5.15494">
        <ele>523.29</ele>
        <time>2018-09-12T12:05:45.000Z</time>
      </trkpt>
      <trkpt lat="44.70741" lon="5.15482">
        <ele>524.01</ele>
        <time>2018-09-12T12:05:56.000Z</time>
      </trkpt>
      <trkpt lat="44.70742" lon="5.15468">
        <ele>525.53</ele>
        <time>2018-09-12T12:06:06.000Z</time>
      </trkpt>
      <trkpt lat="44.7074" lon="5.15455">
        <ele>527.3</ele>
        <time>2018-09-12T12:06:17.000Z</time>
      </trkpt>
      <trkpt lat="44.70742" lon="5.15442">
        <ele>528.76</ele>
        <time>2018-09-12T12:06:27.000Z</time>
      </trkpt>
      <trkpt lat="44.70744" lon="5.15427">
        <ele>530.05</ele>
        <time>2018-09-12T12:06:37.000Z</time>
      </trkpt>
      <trkpt lat="44.70751" lon="5.15414">
        <ele>530.04</ele>
        <time>2018-09-12T12:06:47.000Z</time>
      </trkpt>
      <trkpt lat="44.70756" lon="5.15398">
        <ele>529.92</ele>
        <time>2018-09-12T12:06:57.000Z</time>
      </trkpt>
      <trkpt lat="44.7076" lon="5.15384">
        <ele>529.73</ele>
        <time>2018-09-12T12:07:07.000Z</time>
      </trkpt>
      <trkpt lat="44.70768" lon="5.15377">
        <ele>527.7</ele>
        <time>2018-09-12T12:07:19.000Z</time>
      </trkpt>
      <trkpt lat="44.7077" lon="5.15363">
        <ele>527.73</ele>
        <time>2018-09-12T12:07:30.000Z</time>
      </trkpt>
      <trkpt lat="44.70764" lon="5.15348">
        <ele>529.25</ele>
        <time>2018-09-12T12:07:40.000Z</time>
      </trkpt>
      <trkpt lat="44.70757" lon="5.15336">
        <ele>529.35</ele>
        <time>2018-09-12T12:07:50.000Z</time>
      </trkpt>
      <trkpt lat="44.70753" lon="5.15323">
        <ele>527.98</ele>
        <time>2018-09-12T12:08:00.000Z</time>
      </trkpt>
      <trkpt lat="44.70747" lon="5.15311">
        <ele>526.06</ele>
        <time>2018-09-12T12:08:10.000Z</time>
      </trkpt>
      <trkpt lat="44.7074" lon="5.15297">
        <ele>523.28</ele>
        <time>2018-09-12T12:08:20.000Z</time>
      </trkpt>
      <trkpt lat="44.70732" lon="5.15287">
        <ele>521.55</ele>
        <time>2018-09-12T12:08:30.000Z</time>
      </trkpt>
      <trkpt lat="44.70722" lon="5.15277">
        <ele>520.79</ele>
        <time>2018-09-12T12:08:40.000Z</time>
      </trkpt>
      <trkpt lat="44.70715" lon="5.15269">
        <ele>520.39</ele>
        <time>2018-09-12T12:08:51.000Z</time>
      </trkpt>
      <trkpt lat="44.70708" lon="5.1526">
        <ele>520.13</ele>
        <time>2018-09-12T12:09:01.000Z</time>
      </trkpt>
      <trkpt lat="44.70707" lon="5.15247">
        <ele>518.49</ele>
        <time>2018-09-12T12:09:11.000Z</time>
      </trkpt>
      <trkpt lat="44.70705" lon="5.15234">
        <ele>516.91</ele>
        <time>2018-09-12T12:09:22.000Z</time>
      </trkpt>
      <trkpt lat="44.70705" lon="5.15221">
        <ele>514.7</ele>
        <time>2018-09-12T12:09:34.000Z</time>
      </trkpt>
      <trkpt lat="44.70706" lon="5.15207">
        <ele>511.73</ele>
        <time>2018-09-12T12:09:46.000Z</time>
      </trkpt>
      <trkpt lat="44.70708" lon="5.15194">
        <ele>508.86</ele>
        <time>2018-09-12T12:09:57.000Z</time>
      </trkpt>
      <trkpt lat="44.70705" lon="5.15178">
        <ele>507.08</ele>
        <time>2018-09-12T12:10:07.000Z</time>
      </trkpt>
      <trkpt lat="44.70707" lon="5.15164">
        <ele>504.62</ele>
        <time>2018-09-12T12:10:17.000Z</time>
      </trkpt>
      <trkpt lat="44.70707" lon="5.15146">
        <ele>503.53</ele>
        <time>2018-09-12T12:10:27.000Z</time>
      </trkpt>
      <trkpt lat="44.70702" lon="5.15132">
        <ele>504.38</ele>
        <time>2018-09-12T12:10:37.000Z</time>
      </trkpt>
      <trkpt lat="44.70703" lon="5.15118">
        <ele>503.77</ele>
        <time>2018-09-12T12:10:47.000Z</time>
      </trkpt>
      <trkpt lat="44.70705" lon="5.151">
        <ele>502.87</ele>
        <time>2018-09-12T12:10:57.000Z</time>
      </trkpt>
      <trkpt lat="44.70708" lon="5.15085">
        <ele>501.81</ele>
        <time>2018-09-12T12:11:07.000Z</time>
      </trkpt>
      <trkpt lat="44.7071" lon="5.1507">
        <ele>501.13</ele>
        <time>2018-09-12T12:11:17.000Z</time>
      </trkpt>
      <trkpt lat="44.7071" lon="5.15055">
        <ele>501.04</ele>
        <time>2018-09-12T12:11:27.000Z</time>
      </trkpt>
      <trkpt lat="44.70712" lon="5.15038">
        <ele>500.8</ele>
        <time>2018-09-12T12:11:37.000Z</time>
      </trkpt>
      <trkpt lat="44.70712" lon="5.15023">
        <ele>501.02</ele>
        <time>2018-09-12T12:11:47.000Z</time>
      </trkpt>
      <trkpt lat="44.70714" lon="5.15008">
        <ele>500.73</ele>
        <time>2018-09-12T12:11:57.000Z</time>
      </trkpt>
      <trkpt lat="44.70716" lon="5.14992">
        <ele>500.47</ele>
        <time>2018-09-12T12:12:07.000Z</time>
      </trkpt>
      <trkpt lat="44.70718" lon="5.14974">
        <ele>500.25</ele>
        <time>2018-09-12T12:12:17.000Z</time>
      </trkpt>
      <trkpt lat="44.70721" lon="5.14959">
        <ele>500</ele>
        <time>2018-09-12T12:12:27.000Z</time>
      </trkpt>
      <trkpt lat="44.70726" lon="5.14946">
        <ele>499.78</ele>
        <time>2018-09-12T12:12:37.000Z</time>
      </trkpt>
      <trkpt lat="44.70727" lon="5.14931">
        <ele>499.98</ele>
        <time>2018-09-12T12:12:47.000Z</time>
      </trkpt>
      <trkpt lat="44.70731" lon="5.14913">
        <ele>500.06</ele>
        <time>2018-09-12T12:12:57.000Z</time>
      </trkpt>
      <trkpt lat="44.70737" lon="5.14897">
        <ele>500.21</ele>
        <time>2018-09-12T12:13:07.000Z</time>
      </trkpt>
      <trkpt lat="44.70741" lon="5.14886">
        <ele>500.25</ele>
        <time>2018-09-12T12:13:17.000Z</time>
      </trkpt>
      <trkpt lat="44.70743" lon="5.14869">
        <ele>500.71</ele>
        <time>2018-09-12T12:13:27.000Z</time>
      </trkpt>
      <trkpt lat="44.70746" lon="5.14855">
        <ele>500.56</ele>
        <time>2018-09-12T12:13:37.000Z</time>
      </trkpt>
      <trkpt lat="44.70748" lon="5.14842">
        <ele>500.47</ele>
        <time>2018-09-12T12:19:02.000Z</time>
      </trkpt>
      <trkpt lat="44.7075" lon="5.14829">
        <ele>499.88</ele>
        <time>2018-09-12T12:19:12.000Z</time>
      </trkpt>
      <trkpt lat="44.70755" lon="5.14816">
        <ele>498.56</ele>
        <time>2018-09-12T12:19:22.000Z</time>
      </trkpt>
      <trkpt lat="44.70755" lon="5.14799">
        <ele>498</ele>
        <time>2018-09-12T12:19:32.000Z</time>
      </trkpt>
      <trkpt lat="44.70752" lon="5.14785">
        <ele>497.93</ele>
        <time>2018-09-12T12:19:42.000Z</time>
      </trkpt>
      <trkpt lat="44.70747" lon="5.14774">
        <ele>497.82</ele>
        <time>2018-09-12T12:19:54.000Z</time>
      </trkpt>
      <trkpt lat="44.7074" lon="5.14763">
        <ele>497.32</ele>
        <time>2018-09-12T12:20:04.000Z</time>
      </trkpt>
      <trkpt lat="44.70731" lon="5.14756">
        <ele>496.47</ele>
        <time>2018-09-12T12:20:14.000Z</time>
      </trkpt>
      <trkpt lat="44.70724" lon="5.14745">
        <ele>494.44</ele>
        <time>2018-09-12T12:20:25.000Z</time>
      </trkpt>
      <trkpt lat="44.70722" lon="5.14732">
        <ele>491.73</ele>
        <time>2018-09-12T12:20:36.000Z</time>
      </trkpt>
      <trkpt lat="44.70715" lon="5.14719">
        <ele>488.56</ele>
        <time>2018-09-12T12:20:46.000Z</time>
      </trkpt>
      <trkpt lat="44.70712" lon="5.14705">
        <ele>485.47</ele>
        <time>2018-09-12T12:20:56.000Z</time>
      </trkpt>
      <trkpt lat="44.7071" lon="5.14687">
        <ele>482.07</ele>
        <time>2018-09-12T12:21:06.000Z</time>
      </trkpt>
      <trkpt lat="44.70708" lon="5.14671">
        <ele>479.98</ele>
        <time>2018-09-12T12:21:16.000Z</time>
      </trkpt>
      <trkpt lat="44.70707" lon="5.14655">
        <ele>478.94</ele>
        <time>2018-09-12T12:21:26.000Z</time>
      </trkpt>
      <trkpt lat="44.70707" lon="5.14638">
        <ele>478.54</ele>
        <time>2018-09-12T12:21:36.000Z</time>
      </trkpt>
      <trkpt lat="44.70702" lon="5.14625">
        <ele>479.31</ele>
        <time>2018-09-12T12:21:46.000Z</time>
      </trkpt>
      <trkpt lat="44.70702" lon="5.14609">
        <ele>479.31</ele>
        <time>2018-09-12T12:21:56.000Z</time>
      </trkpt>
      <trkpt lat="44.707" lon="5.14593">
        <ele>479.27</ele>
        <time>2018-09-12T12:22:06.000Z</time>
      </trkpt>
      <trkpt lat="44.70694" lon="5.14583">
        <ele>479.7</ele>
        <time>2018-09-12T12:22:16.000Z</time>
      </trkpt>
      <trkpt lat="44.7069" lon="5.14569">
        <ele>479.6</ele>
        <time>2018-09-12T12:22:26.000Z</time>
      </trkpt>
      <trkpt lat="44.70685" lon="5.14554">
        <ele>479.66</ele>
        <time>2018-09-12T12:22:36.000Z</time>
      </trkpt>
      <trkpt lat="44.70681" lon="5.1454">
        <ele>479.88</ele>
        <time>2018-09-12T12:22:46.000Z</time>
      </trkpt>
      <trkpt lat="44.70679" lon="5.14523">
        <ele>480.06</ele>
        <time>2018-09-12T12:22:56.000Z</time>
      </trkpt>
      <trkpt lat="44.70677" lon="5.14509">
        <ele>480.32</ele>
        <time>2018-09-12T12:23:06.000Z</time>
      </trkpt>
      <trkpt lat="44.70678" lon="5.14492">
        <ele>480.1</ele>
        <time>2018-09-12T12:23:16.000Z</time>
      </trkpt>
      <trkpt lat="44.70677" lon="5.14474">
        <ele>480.13</ele>
        <time>2018-09-12T12:23:26.000Z</time>
      </trkpt>
      <trkpt lat="44.70673" lon="5.14458">
        <ele>480.72</ele>
        <time>2018-09-12T12:23:36.000Z</time>
      </trkpt>
      <trkpt lat="44.70677" lon="5.14444">
        <ele>480.1</ele>
        <time>2018-09-12T12:23:46.000Z</time>
      </trkpt>
      <trkpt lat="44.70676" lon="5.14428">
        <ele>479.92</ele>
        <time>2018-09-12T12:23:56.000Z</time>
      </trkpt>
      <trkpt lat="44.70677" lon="5.14416">
        <ele>479.44</ele>
        <time>2018-09-12T12:24:09.000Z</time>
      </trkpt>
      <trkpt lat="44.70677" lon="5.14402">
        <ele>478.78</ele>
        <time>2018-09-12T12:24:45.000Z</time>
      </trkpt>
      <trkpt lat="44.70678" lon="5.14388">
        <ele>478.03</ele>
        <time>2018-09-12T12:24:55.000Z</time>
      </trkpt>
      <trkpt lat="44.70677" lon="5.14375">
        <ele>477.3</ele>
        <time>2018-09-12T12:25:05.000Z</time>
      </trkpt>
      <trkpt lat="44.70679" lon="5.14359">
        <ele>476.04</ele>
        <time>2018-09-12T12:25:15.000Z</time>
      </trkpt>
      <trkpt lat="44.70683" lon="5.14344">
        <ele>474.42</ele>
        <time>2018-09-12T12:25:25.000Z</time>
      </trkpt>
      <trkpt lat="44.70688" lon="5.14332">
        <ele>472.6</ele>
        <time>2018-09-12T12:25:35.000Z</time>
      </trkpt>
      <trkpt lat="44.70688" lon="5.14318">
        <ele>471.08</ele>
        <time>2018-09-12T12:25:45.000Z</time>
      </trkpt>
      <trkpt lat="44.70689" lon="5.14305">
        <ele>469.23</ele>
        <time>2018-09-12T12:25:56.000Z</time>
      </trkpt>
      <trkpt lat="44.7069" lon="5.1429">
        <ele>467.09</ele>
        <time>2018-09-12T12:26:06.000Z</time>
      </trkpt>
      <trkpt lat="44.7069" lon="5.14277">
        <ele>465.73</ele>
        <time>2018-09-12T12:26:16.000Z</time>
      </trkpt>
      <trkpt lat="44.70691" lon="5.14264">
        <ele>464</ele>
        <time>2018-09-12T12:26:26.000Z</time>
      </trkpt>
      <trkpt lat="44.70692" lon="5.14247">
        <ele>462.06</ele>
        <time>2018-09-12T12:26:36.000Z</time>
      </trkpt>
      <trkpt lat="44.70697" lon="5.14232">
        <ele>459.36</ele>
        <time>2018-09-12T12:26:46.000Z</time>
      </trkpt>
      <trkpt lat="44.70698" lon="5.14215">
        <ele>459.18</ele>
        <time>2018-09-12T12:26:56.000Z</time>
      </trkpt>
      <trkpt lat="44.70701" lon="5.142">
        <ele>458.95</ele>
        <time>2018-09-12T12:27:06.000Z</time>
      </trkpt>
      <trkpt lat="44.70703" lon="5.14184">
        <ele>458.94</ele>
        <time>2018-09-12T12:27:16.000Z</time>
      </trkpt>
      <trkpt lat="44.70696" lon="5.14169">
        <ele>460.94</ele>
        <time>2018-09-12T12:27:26.000Z</time>
      </trkpt>
      <trkpt lat="44.70687" lon="5.1416">
        <ele>462.58</ele>
        <time>2018-09-12T12:27:36.000Z</time>
      </trkpt>
      <trkpt lat="44.70675" lon="5.1415">
        <ele>463.51</ele>
        <time>2018-09-12T12:27:46.000Z</time>
      </trkpt>
      <trkpt lat="44.70671" lon="5.14137">
        <ele>462.99</ele>
        <time>2018-09-12T12:27:56.000Z</time>
      </trkpt>
      <trkpt lat="44.70671" lon="5.14123">
        <ele>462.08</ele>
        <time>2018-09-12T12:28:06.000Z</time>
      </trkpt>
      <trkpt lat="44.7067" lon="5.14107">
        <ele>460.97</ele>
        <time>2018-09-12T12:28:16.000Z</time>
      </trkpt>
      <trkpt lat="44.70671" lon="5.14091">
        <ele>459.46</ele>
        <time>2018-09-12T12:28:26.000Z</time>
      </trkpt>
      <trkpt lat="44.70669" lon="5.14075">
        <ele>457.96</ele>
        <time>2018-09-12T12:28:36.000Z</time>
      </trkpt>
      <trkpt lat="44.70663" lon="5.1406">
        <ele>456.41</ele>
        <time>2018-09-12T12:28:46.000Z</time>
      </trkpt>
      <trkpt lat="44.70656" lon="5.14045">
        <ele>454.69</ele>
        <time>2018-09-12T12:28:56.000Z</time>
      </trkpt>
      <trkpt lat="44.7065" lon="5.14031">
        <ele>453.01</ele>
        <time>2018-09-12T12:29:06.000Z</time>
      </trkpt>
      <trkpt lat="44.70646" lon="5.14014">
        <ele>451.15</ele>
        <time>2018-09-12T12:29:16.000Z</time>
      </trkpt>
      <trkpt lat="44.70642" lon="5.14">
        <ele>449.98</ele>
        <time>2018-09-12T12:29:26.000Z</time>
      </trkpt>
      <trkpt lat="44.70636" lon="5.13982">
        <ele>449.28</ele>
        <time>2018-09-12T12:29:36.000Z</time>
      </trkpt>
      <trkpt lat="44.70631" lon="5.13969">
        <ele>449.36</ele>
        <time>2018-09-12T12:29:46.000Z</time>
      </trkpt>
      <trkpt lat="44.70624" lon="5.13954">
        <ele>450.05</ele>
        <time>2018-09-12T12:29:56.000Z</time>
      </trkpt>
      <trkpt lat="44.70622" lon="5.13941">
        <ele>450.68</ele>
        <time>2018-09-12T12:30:06.000Z</time>
      </trkpt>
      <trkpt lat="44.70615" lon="5.13929">
        <ele>451.75</ele>
        <time>2018-09-12T12:30:16.000Z</time>
      </trkpt>
      <trkpt lat="44.70612" lon="5.13917">
        <ele>452.41</ele>
        <time>2018-09-12T12:30:26.000Z</time>
      </trkpt>
      <trkpt lat="44.70609" lon="5.13903">
        <ele>453.04</ele>
        <time>2018-09-12T12:30:36.000Z</time>
      </trkpt>
      <trkpt lat="44.70607" lon="5.13887">
        <ele>453.62</ele>
        <time>2018-09-12T12:30:46.000Z</time>
      </trkpt>
      <trkpt lat="44.70604" lon="5.13874">
        <ele>454.13</ele>
        <time>2018-09-12T12:30:56.000Z</time>
      </trkpt>
      <trkpt lat="44.706" lon="5.13861">
        <ele>455.16</ele>
        <time>2018-09-12T12:31:06.000Z</time>
      </trkpt>
      <trkpt lat="44.70596" lon="5.13848">
        <ele>455.8</ele>
        <time>2018-09-12T12:31:18.000Z</time>
      </trkpt>
      <trkpt lat="44.70589" lon="5.13839">
        <ele>456.94</ele>
        <time>2018-09-12T12:31:28.000Z</time>
      </trkpt>
      <trkpt lat="44.70582" lon="5.1383">
        <ele>458.04</ele>
        <time>2018-09-12T12:31:39.000Z</time>
      </trkpt>
      <trkpt lat="44.70571" lon="5.13825">
        <ele>459.66</ele>
        <time>2018-09-12T12:31:49.000Z</time>
      </trkpt>
      <trkpt lat="44.70562" lon="5.13816">
        <ele>460.12</ele>
        <time>2018-09-12T12:31:59.000Z</time>
      </trkpt>
      <trkpt lat="44.70552" lon="5.13808">
        <ele>460.37</ele>
        <time>2018-09-12T12:32:09.000Z</time>
      </trkpt>
      <trkpt lat="44.70542" lon="5.13798">
        <ele>460.07</ele>
        <time>2018-09-12T12:32:19.000Z</time>
      </trkpt>
      <trkpt lat="44.70531" lon="5.13788">
        <ele>459.15</ele>
        <time>2018-09-12T12:32:29.000Z</time>
      </trkpt>
      <trkpt lat="44.70522" lon="5.1378">
        <ele>458.34</ele>
        <time>2018-09-12T12:32:39.000Z</time>
      </trkpt>
      <trkpt lat="44.70515" lon="5.13769">
        <ele>456.94</ele>
        <time>2018-09-12T12:32:49.000Z</time>
      </trkpt>
      <trkpt lat="44.70509" lon="5.13755">
        <ele>455.24</ele>
        <time>2018-09-12T12:32:59.000Z</time>
      </trkpt>
      <trkpt lat="44.70503" lon="5.1374">
        <ele>453.52</ele>
        <time>2018-09-12T12:33:09.000Z</time>
      </trkpt>
      <trkpt lat="44.70498" lon="5.13726">
        <ele>451.92</ele>
        <time>2018-09-12T12:33:19.000Z</time>
      </trkpt>
      <trkpt lat="44.70498" lon="5.13713">
        <ele>449.75</ele>
        <time>2018-09-12T12:33:31.000Z</time>
      </trkpt>
      <trkpt lat="44.70496" lon="5.137">
        <ele>447.88</ele>
        <time>2018-09-12T12:33:41.000Z</time>
      </trkpt>
      <trkpt lat="44.70495" lon="5.13687">
        <ele>446.06</ele>
        <time>2018-09-12T12:33:51.000Z</time>
      </trkpt>
      <trkpt lat="44.70494" lon="5.13673">
        <ele>444.2</ele>
        <time>2018-09-12T12:34:01.000Z</time>
      </trkpt>
      <trkpt lat="44.70492" lon="5.1366">
        <ele>442.83</ele>
        <time>2018-09-12T12:34:11.000Z</time>
      </trkpt>
      <trkpt lat="44.70487" lon="5.13646">
        <ele>442.59</ele>
        <time>2018-09-12T12:34:21.000Z</time>
      </trkpt>
      <trkpt lat="44.70482" lon="5.13634">
        <ele>442.81</ele>
        <time>2018-09-12T12:34:31.000Z</time>
      </trkpt>
      <trkpt lat="44.70474" lon="5.13624">
        <ele>443.46</ele>
        <time>2018-09-12T12:34:41.000Z</time>
      </trkpt>
      <trkpt lat="44.70468" lon="5.13613">
        <ele>443.62</ele>
        <time>2018-09-12T12:34:52.000Z</time>
      </trkpt>
      <trkpt lat="44.70461" lon="5.13602">
        <ele>443.75</ele>
        <time>2018-09-12T12:35:04.000Z</time>
      </trkpt>
      <trkpt lat="44.70457" lon="5.13589">
        <ele>442.69</ele>
        <time>2018-09-12T12:35:14.000Z</time>
      </trkpt>
      <trkpt lat="44.70454" lon="5.13576">
        <ele>440.92</ele>
        <time>2018-09-12T12:35:24.000Z</time>
      </trkpt>
      <trkpt lat="44.7045" lon="5.13564">
        <ele>438.88</ele>
        <time>2018-09-12T12:35:35.000Z</time>
      </trkpt>
      <trkpt lat="44.70448" lon="5.13551">
        <ele>435.95</ele>
        <time>2018-09-12T12:35:45.000Z</time>
      </trkpt>
      <trkpt lat="44.70444" lon="5.13539">
        <ele>433.41</ele>
        <time>2018-09-12T12:35:57.000Z</time>
      </trkpt>
      <trkpt lat="44.70441" lon="5.13526">
        <ele>430.83</ele>
        <time>2018-09-12T12:36:09.000Z</time>
      </trkpt>
      <trkpt lat="44.7044" lon="5.13512">
        <ele>427.63</ele>
        <time>2018-09-12T12:36:21.000Z</time>
      </trkpt>
      <trkpt lat="44.70439" lon="5.13498">
        <ele>425.36</ele>
        <time>2018-09-12T12:36:31.000Z</time>
      </trkpt>
      <trkpt lat="44.70437" lon="5.13484">
        <ele>423.85</ele>
        <time>2018-09-12T12:36:41.000Z</time>
      </trkpt>
      <trkpt lat="44.70434" lon="5.13471">
        <ele>423.21</ele>
        <time>2018-09-12T12:36:51.000Z</time>
      </trkpt>
      <trkpt lat="44.7043" lon="5.13458">
        <ele>422.73</ele>
        <time>2018-09-12T12:37:01.000Z</time>
      </trkpt>
      <trkpt lat="44.70428" lon="5.13443">
        <ele>421.81</ele>
        <time>2018-09-12T12:37:11.000Z</time>
      </trkpt>
      <trkpt lat="44.70425" lon="5.13431">
        <ele>421.42</ele>
        <time>2018-09-12T12:37:22.000Z</time>
      </trkpt>
      <trkpt lat="44.70423" lon="5.13418">
        <ele>420.58</ele>
        <time>2018-09-12T12:38:00.000Z</time>
      </trkpt>
      <trkpt lat="44.70416" lon="5.13408">
        <ele>421.14</ele>
        <time>2018-09-12T12:38:10.000Z</time>
      </trkpt>
      <trkpt lat="44.7041" lon="5.13396">
        <ele>420.5</ele>
        <time>2018-09-12T12:38:20.000Z</time>
      </trkpt>
      <trkpt lat="44.70404" lon="5.13383">
        <ele>419.47</ele>
        <time>2018-09-12T12:38:30.000Z</time>
      </trkpt>
      <trkpt lat="44.704" lon="5.13369">
        <ele>417.84</ele>
        <time>2018-09-12T12:38:40.000Z</time>
      </trkpt>
      <trkpt lat="44.70395" lon="5.13355">
        <ele>416.02</ele>
        <time>2018-09-12T12:38:50.000Z</time>
      </trkpt>
      <trkpt lat="44.70393" lon="5.1334">
        <ele>414.17</ele>
        <time>2018-09-12T12:39:00.000Z</time>
      </trkpt>
      <trkpt lat="44.70391" lon="5.13326">
        <ele>412.34</ele>
        <time>2018-09-12T12:39:10.000Z</time>
      </trkpt>
      <trkpt lat="44.70389" lon="5.13309">
        <ele>409.91</ele>
        <time>2018-09-12T12:39:20.000Z</time>
      </trkpt>
      <trkpt lat="44.70389" lon="5.13296">
        <ele>408.03</ele>
        <time>2018-09-12T12:39:30.000Z</time>
      </trkpt>
      <trkpt lat="44.7039" lon="5.13279">
        <ele>405.68</ele>
        <time>2018-09-12T12:39:40.000Z</time>
      </trkpt>
      <trkpt lat="44.70388" lon="5.13262">
        <ele>404.1</ele>
        <time>2018-09-12T12:39:50.000Z</time>
      </trkpt>
      <trkpt lat="44.70387" lon="5.13245">
        <ele>403.33</ele>
        <time>2018-09-12T12:40:00.000Z</time>
      </trkpt>
      <trkpt lat="44.70386" lon="5.13229">
        <ele>403.4</ele>
        <time>2018-09-12T12:40:10.000Z</time>
      </trkpt>
      <trkpt lat="44.70386" lon="5.13212">
        <ele>404.07</ele>
        <time>2018-09-12T12:40:20.000Z</time>
      </trkpt>
      <trkpt lat="44.70388" lon="5.13193">
        <ele>405.08</ele>
        <time>2018-09-12T12:40:30.000Z</time>
      </trkpt>
      <trkpt lat="44.7039" lon="5.13176">
        <ele>405.89</ele>
        <time>2018-09-12T12:40:40.000Z</time>
      </trkpt>
      <trkpt lat="44.70391" lon="5.13158">
        <ele>406.17</ele>
        <time>2018-09-12T12:40:50.000Z</time>
      </trkpt>
      <trkpt lat="44.70394" lon="5.13143">
        <ele>406.46</ele>
        <time>2018-09-12T12:41:00.000Z</time>
      </trkpt>
      <trkpt lat="44.704" lon="5.13129">
        <ele>407.11</ele>
        <time>2018-09-12T12:41:10.000Z</time>
      </trkpt>
      <trkpt lat="44.70405" lon="5.13115">
        <ele>407.88</ele>
        <time>2018-09-12T12:41:20.000Z</time>
      </trkpt>
      <trkpt lat="44.7041" lon="5.13102">
        <ele>408.81</ele>
        <time>2018-09-12T12:41:30.000Z</time>
      </trkpt>
      <trkpt lat="44.70413" lon="5.13088">
        <ele>409.49</ele>
        <time>2018-09-12T12:41:40.000Z</time>
      </trkpt>
      <trkpt lat="44.70419" lon="5.13075">
        <ele>410.33</ele>
        <time>2018-09-12T12:41:50.000Z</time>
      </trkpt>
      <trkpt lat="44.70425" lon="5.13059">
        <ele>411.09</ele>
        <time>2018-09-12T12:42:00.000Z</time>
      </trkpt>
      <trkpt lat="44.70431" lon="5.13048">
        <ele>411.49</ele>
        <time>2018-09-12T12:42:10.000Z</time>
      </trkpt>
      <trkpt lat="44.70437" lon="5.13035">
        <ele>411.48</ele>
        <time>2018-09-12T12:42:20.000Z</time>
      </trkpt>
      <trkpt lat="44.70441" lon="5.13024">
        <ele>411.02</ele>
        <time>2018-09-12T12:42:30.000Z</time>
      </trkpt>
      <trkpt lat="44.70448" lon="5.1301">
        <ele>409.86</ele>
        <time>2018-09-12T12:42:40.000Z</time>
      </trkpt>
      <trkpt lat="44.70452" lon="5.12998">
        <ele>408.42</ele>
        <time>2018-09-12T12:42:50.000Z</time>
      </trkpt>
      <trkpt lat="44.70451" lon="5.12985">
        <ele>406.81</ele>
        <time>2018-09-12T12:43:02.000Z</time>
      </trkpt>
      <trkpt lat="44.70451" lon="5.12972">
        <ele>404.68</ele>
        <time>2018-09-12T12:43:14.000Z</time>
      </trkpt>
      <trkpt lat="44.70448" lon="5.12958">
        <ele>402.35</ele>
        <time>2018-09-12T12:43:31.000Z</time>
      </trkpt>
      <trkpt lat="44.70445" lon="5.12946">
        <ele>400.21</ele>
        <time>2018-09-12T12:43:45.000Z</time>
      </trkpt>
      <trkpt lat="44.70438" lon="5.12937">
        <ele>399.24</ele>
        <time>2018-09-12T12:43:56.000Z</time>
      </trkpt>
      <trkpt lat="44.70436" lon="5.12925">
        <ele>397.1</ele>
        <time>2018-09-12T12:44:06.000Z</time>
      </trkpt>
      <trkpt lat="44.70432" lon="5.12909">
        <ele>394.85</ele>
        <time>2018-09-12T12:44:16.000Z</time>
      </trkpt>
      <trkpt lat="44.7043" lon="5.12896">
        <ele>392.92</ele>
        <time>2018-09-12T12:44:26.000Z</time>
      </trkpt>
      <trkpt lat="44.7043" lon="5.12882">
        <ele>390.88</ele>
        <time>2018-09-12T12:44:36.000Z</time>
      </trkpt>
      <trkpt lat="44.70427" lon="5.12864">
        <ele>388.63</ele>
        <time>2018-09-12T12:44:46.000Z</time>
      </trkpt>
      <trkpt lat="44.70425" lon="5.12848">
        <ele>386.63</ele>
        <time>2018-09-12T12:44:56.000Z</time>
      </trkpt>
      <trkpt lat="44.70427" lon="5.12832">
        <ele>384.22</ele>
        <time>2018-09-12T12:45:06.000Z</time>
      </trkpt>
      <trkpt lat="44.70432" lon="5.12816">
        <ele>380.92</ele>
        <time>2018-09-12T12:45:16.000Z</time>
      </trkpt>
      <trkpt lat="44.70432" lon="5.12801">
        <ele>379.31</ele>
        <time>2018-09-12T12:45:26.000Z</time>
      </trkpt>
      <trkpt lat="44.70436" lon="5.12787">
        <ele>376.79</ele>
        <time>2018-09-12T12:45:36.000Z</time>
      </trkpt>
      <trkpt lat="44.70438" lon="5.12774">
        <ele>374.92</ele>
        <time>2018-09-12T12:46:22.000Z</time>
      </trkpt>
      <trkpt lat="44.70441" lon="5.12761">
        <ele>373.01</ele>
        <time>2018-09-12T12:46:32.000Z</time>
      </trkpt>
      <trkpt lat="44.70445" lon="5.12746">
        <ele>370.45</ele>
        <time>2018-09-12T12:46:42.000Z</time>
      </trkpt>
      <trkpt lat="44.70447" lon="5.1273">
        <ele>368.77</ele>
        <time>2018-09-12T12:46:52.000Z</time>
      </trkpt>
      <trkpt lat="44.7045" lon="5.12718">
        <ele>367</ele>
        <time>2018-09-12T12:47:02.000Z</time>
      </trkpt>
      <trkpt lat="44.70451" lon="5.12705">
        <ele>365.93</ele>
        <time>2018-09-12T12:47:14.000Z</time>
      </trkpt>
      <trkpt lat="44.70455" lon="5.12691">
        <ele>364.2</ele>
        <time>2018-09-12T12:47:25.000Z</time>
      </trkpt>
      <trkpt lat="44.70457" lon="5.12679">
        <ele>363.16</ele>
        <time>2018-09-12T12:47:37.000Z</time>
      </trkpt>
      <trkpt lat="44.70461" lon="5.12667">
        <ele>361.65</ele>
        <time>2018-09-12T12:47:47.000Z</time>
      </trkpt>
      <trkpt lat="44.70464" lon="5.12654">
        <ele>360.8</ele>
        <time>2018-09-12T12:47:57.000Z</time>
      </trkpt>
      <trkpt lat="44.7047" lon="5.12642">
        <ele>359.86</ele>
        <time>2018-09-12T12:48:07.000Z</time>
      </trkpt>
      <trkpt lat="44.70477" lon="5.1263">
        <ele>359.24</ele>
        <time>2018-09-12T12:48:17.000Z</time>
      </trkpt>
      <trkpt lat="44.70482" lon="5.12616">
        <ele>359.48</ele>
        <time>2018-09-12T12:48:27.000Z</time>
      </trkpt>
      <trkpt lat="44.70486" lon="5.12604">
        <ele>359.77</ele>
        <time>2018-09-12T12:48:37.000Z</time>
      </trkpt>
      <trkpt lat="44.70488" lon="5.12591">
        <ele>360.08</ele>
        <time>2018-09-12T12:48:47.000Z</time>
      </trkpt>
      <trkpt lat="44.70491" lon="5.12575">
        <ele>360.06</ele>
        <time>2018-09-12T12:48:57.000Z</time>
      </trkpt>
      <trkpt lat="44.70495" lon="5.12562">
        <ele>359.92</ele>
        <time>2018-09-12T12:49:07.000Z</time>
      </trkpt>
      <trkpt lat="44.70499" lon="5.12548">
        <ele>359.75</ele>
        <time>2018-09-12T12:49:17.000Z</time>
      </trkpt>
      <trkpt lat="44.70502" lon="5.12535">
        <ele>359.42</ele>
        <time>2018-09-12T12:49:27.000Z</time>
      </trkpt>
      <trkpt lat="44.70509" lon="5.12521">
        <ele>358.54</ele>
        <time>2018-09-12T12:49:37.000Z</time>
      </trkpt>
      <trkpt lat="44.70519" lon="5.12516">
        <ele>357.34</ele>
        <time>2018-09-12T12:49:52.000Z</time>
      </trkpt>
      <trkpt lat="44.70528" lon="5.12512">
        <ele>355.55</ele>
        <time>2018-09-12T12:50:02.000Z</time>
      </trkpt>
      <trkpt lat="44.70537" lon="5.12507">
        <ele>353.6</ele>
        <time>2018-09-12T12:50:12.000Z</time>
      </trkpt>
      <trkpt lat="44.70545" lon="5.12511">
        <ele>351.34</ele>
        <time>2018-09-12T12:50:24.000Z</time>
      </trkpt>
      <trkpt lat="44.70543" lon="5.12524">
        <ele>351.11</ele>
        <time>2018-09-12T12:50:38.000Z</time>
      </trkpt>
      <trkpt lat="44.70541" lon="5.12537">
        <ele>350.11</ele>
        <time>2018-09-12T12:50:48.000Z</time>
      </trkpt>
      <trkpt lat="44.70536" lon="5.1255">
        <ele>350.27</ele>
        <time>2018-09-12T12:51:00.000Z</time>
      </trkpt>
      <trkpt lat="44.70533" lon="5.12563">
        <ele>349.72</ele>
        <time>2018-09-12T12:51:10.000Z</time>
      </trkpt>
      <trkpt lat="44.70531" lon="5.12576">
        <ele>349.07</ele>
        <time>2018-09-12T12:51:20.000Z</time>
      </trkpt>
      <trkpt lat="44.70529" lon="5.12593">
        <ele>348.26</ele>
        <time>2018-09-12T12:51:30.000Z</time>
      </trkpt>
      <trkpt lat="44.70528" lon="5.12611">
        <ele>346.78</ele>
        <time>2018-09-12T12:51:40.000Z</time>
      </trkpt>
      <trkpt lat="44.70531" lon="5.12627">
        <ele>343.71</ele>
        <time>2018-09-12T12:51:50.000Z</time>
      </trkpt>
      <trkpt lat="44.70531" lon="5.12641">
        <ele>341.99</ele>
        <time>2018-09-12T12:52:00.000Z</time>
      </trkpt>
      <trkpt lat="44.7053" lon="5.12655">
        <ele>341.22</ele>
        <time>2018-09-12T12:52:11.000Z</time>
      </trkpt>
      <trkpt lat="44.70526" lon="5.12667">
        <ele>341.5</ele>
        <time>2018-09-12T12:52:54.000Z</time>
      </trkpt>
      <trkpt lat="44.70526" lon="5.12681">
        <ele>340.76</ele>
        <time>2018-09-12T12:53:06.000Z</time>
      </trkpt>
      <trkpt lat="44.70525" lon="5.12698">
        <ele>339.64</ele>
        <time>2018-09-12T12:53:16.000Z</time>
      </trkpt>
      <trkpt lat="44.70524" lon="5.12715">
        <ele>338.92</ele>
        <time>2018-09-12T12:53:26.000Z</time>
      </trkpt>
      <trkpt lat="44.70524" lon="5.12731">
        <ele>338.17</ele>
        <time>2018-09-12T12:53:36.000Z</time>
      </trkpt>
      <trkpt lat="44.70533" lon="5.12721">
        <ele>334.92</ele>
        <time>2018-09-12T12:53:46.000Z</time>
      </trkpt>
      <trkpt lat="44.70539" lon="5.12709">
        <ele>333.17</ele>
        <time>2018-09-12T12:53:56.000Z</time>
      </trkpt>
      <trkpt lat="44.70543" lon="5.12697">
        <ele>332.01</ele>
        <time>2018-09-12T12:54:06.000Z</time>
      </trkpt>
      <trkpt lat="44.70553" lon="5.127">
        <ele>327.72</ele>
        <time>2018-09-12T12:54:27.000Z</time>
      </trkpt>
      <trkpt lat="44.70562" lon="5.12696">
        <ele>324.3</ele>
        <time>2018-09-12T12:54:37.000Z</time>
      </trkpt>
      <trkpt lat="44.70566" lon="5.12683">
        <ele>323.66</ele>
        <time>2018-09-12T12:54:48.000Z</time>
      </trkpt>
      <trkpt lat="44.70574" lon="5.12677">
        <ele>321.23</ele>
        <time>2018-09-12T12:54:59.000Z</time>
      </trkpt>
      <trkpt lat="44.70581" lon="5.12668">
        <ele>319.54</ele>
        <time>2018-09-12T12:55:16.000Z</time>
      </trkpt>
      <trkpt lat="44.7059" lon="5.12666">
        <ele>317.33</ele>
        <time>2018-09-12T12:56:00.000Z</time>
      </trkpt>
      <trkpt lat="44.70599" lon="5.12665">
        <ele>315.63</ele>
        <time>2018-09-12T12:56:10.000Z</time>
      </trkpt>
      <trkpt lat="44.70608" lon="5.1266">
        <ele>314.38</ele>
        <time>2018-09-12T12:56:21.000Z</time>
      </trkpt>
      <trkpt lat="44.70621" lon="5.12658">
        <ele>312.92</ele>
        <time>2018-09-12T12:56:31.000Z</time>
      </trkpt>
      <trkpt lat="44.70629" lon="5.12654">
        <ele>312.02</ele>
        <time>2018-09-12T12:56:41.000Z</time>
      </trkpt>
      <trkpt lat="44.70639" lon="5.12653">
        <ele>310.99</ele>
        <time>2018-09-12T12:56:53.000Z</time>
      </trkpt>
      <trkpt lat="44.70648" lon="5.12647">
        <ele>309.81</ele>
        <time>2018-09-12T12:57:03.000Z</time>
      </trkpt>
      <trkpt lat="44.70657" lon="5.1264">
        <ele>308.3</ele>
        <time>2018-09-12T12:57:13.000Z</time>
      </trkpt>
      <trkpt lat="44.70665" lon="5.12633">
        <ele>306.59</ele>
        <time>2018-09-12T12:57:25.000Z</time>
      </trkpt>
      <trkpt lat="44.70674" lon="5.12628">
        <ele>304.76</ele>
        <time>2018-09-12T12:57:37.000Z</time>
      </trkpt>
      <trkpt lat="44.70683" lon="5.12625">
        <ele>302.87</ele>
        <time>2018-09-12T12:57:51.000Z</time>
      </trkpt>
      <trkpt lat="44.70693" lon="5.12624">
        <ele>301.1</ele>
        <time>2018-09-12T12:58:03.000Z</time>
      </trkpt>
      <trkpt lat="44.70704" lon="5.12621">
        <ele>299.06</ele>
        <time>2018-09-12T12:58:13.000Z</time>
      </trkpt>
      <trkpt lat="44.70713" lon="5.12617">
        <ele>297.58</ele>
        <time>2018-09-12T12:58:24.000Z</time>
      </trkpt>
      <trkpt lat="44.7072" lon="5.12628">
        <ele>295.73</ele>
        <time>2018-09-12T12:58:34.000Z</time>
      </trkpt>
      <trkpt lat="44.7072" lon="5.12641">
        <ele>294.89</ele>
        <time>2018-09-12T12:58:46.000Z</time>
      </trkpt>
      <trkpt lat="44.70715" lon="5.12652">
        <ele>295.7</ele>
        <time>2018-09-12T12:58:56.000Z</time>
      </trkpt>
      <trkpt lat="44.7071" lon="5.12666">
        <ele>296.59</ele>
        <time>2018-09-12T12:59:06.000Z</time>
      </trkpt>
      <trkpt lat="44.70704" lon="5.12679">
        <ele>297.95</ele>
        <time>2018-09-12T12:59:16.000Z</time>
      </trkpt>
      <trkpt lat="44.707" lon="5.12696">
        <ele>297.94</ele>
        <time>2018-09-12T12:59:26.000Z</time>
      </trkpt>
      <trkpt lat="44.70708" lon="5.12702">
        <ele>296.03</ele>
        <time>2018-09-12T12:59:53.000Z</time>
      </trkpt>
      <trkpt lat="44.70717" lon="5.12696">
        <ele>294.49</ele>
        <time>2018-09-12T13:00:04.000Z</time>
      </trkpt>
      <trkpt lat="44.70726" lon="5.12691">
        <ele>292.69</ele>
        <time>2018-09-12T13:00:20.000Z</time>
      </trkpt>
      <trkpt lat="44.70736" lon="5.12688">
        <ele>290.39</ele>
        <time>2018-09-12T13:00:30.000Z</time>
      </trkpt>
      <trkpt lat="44.70746" lon="5.12685">
        <ele>288.35</ele>
        <time>2018-09-12T13:00:40.000Z</time>
      </trkpt>
      <trkpt lat="44.70755" lon="5.12681">
        <ele>286.39</ele>
        <time>2018-09-12T13:00:53.000Z</time>
      </trkpt>
      <trkpt lat="44.70765" lon="5.12677">
        <ele>284.52</ele>
        <time>2018-09-12T13:01:05.000Z</time>
      </trkpt>
      <trkpt lat="44.70775" lon="5.12676">
        <ele>282.99</ele>
        <time>2018-09-12T13:01:15.000Z</time>
      </trkpt>
      <trkpt lat="44.70785" lon="5.12673">
        <ele>281.42</ele>
        <time>2018-09-12T13:01:25.000Z</time>
      </trkpt>
      <trkpt lat="44.70795" lon="5.12666">
        <ele>279.89</ele>
        <time>2018-09-12T13:01:35.000Z</time>
      </trkpt>
      <trkpt lat="44.70804" lon="5.12668">
        <ele>278.75</ele>
        <time>2018-09-12T13:01:54.000Z</time>
      </trkpt>
      <trkpt lat="44.70814" lon="5.12671">
        <ele>277.61</ele>
        <time>2018-09-12T13:02:05.000Z</time>
      </trkpt>
      <trkpt lat="44.70819" lon="5.12655">
        <ele>276.73</ele>
        <time>2018-09-12T13:02:15.000Z</time>
      </trkpt>
      <trkpt lat="44.7082" lon="5.12639">
        <ele>276.47</ele>
        <time>2018-09-12T13:02:25.000Z</time>
      </trkpt>
      <trkpt lat="44.70821" lon="5.12624">
        <ele>276.12</ele>
        <time>2018-09-12T13:02:35.000Z</time>
      </trkpt>
      <trkpt lat="44.70825" lon="5.12608">
        <ele>275.31</ele>
        <time>2018-09-12T13:02:45.000Z</time>
      </trkpt>
      <trkpt lat="44.70827" lon="5.12592">
        <ele>274.56</ele>
        <time>2018-09-12T13:02:55.000Z</time>
      </trkpt>
      <trkpt lat="44.70826" lon="5.12577">
        <ele>274.35</ele>
        <time>2018-09-12T13:03:05.000Z</time>
      </trkpt>
      <trkpt lat="44.70828" lon="5.12558">
        <ele>273.51</ele>
        <time>2018-09-12T13:03:15.000Z</time>
      </trkpt>
      <trkpt lat="44.70829" lon="5.12543">
        <ele>272.85</ele>
        <time>2018-09-12T13:03:25.000Z</time>
      </trkpt>
      <trkpt lat="44.70829" lon="5.12526">
        <ele>272.36</ele>
        <time>2018-09-12T13:03:35.000Z</time>
      </trkpt>
      <trkpt lat="44.70829" lon="5.12508">
        <ele>271.82</ele>
        <time>2018-09-12T13:03:45.000Z</time>
      </trkpt>
      <trkpt lat="44.70828" lon="5.12491">
        <ele>271.49</ele>
        <time>2018-09-12T13:03:55.000Z</time>
      </trkpt>
      <trkpt lat="44.70827" lon="5.12475">
        <ele>271</ele>
        <time>2018-09-12T13:04:05.000Z</time>
      </trkpt>
      <trkpt lat="44.70828" lon="5.12459">
        <ele>270.27</ele>
        <time>2018-09-12T13:04:15.000Z</time>
      </trkpt>
      <trkpt lat="44.70826" lon="5.12442">
        <ele>269.77</ele>
        <time>2018-09-12T13:04:25.000Z</time>
      </trkpt>
      <trkpt lat="44.70825" lon="5.12423">
        <ele>269.17</ele>
        <time>2018-09-12T13:04:35.000Z</time>
      </trkpt>
      <trkpt lat="44.70825" lon="5.12407">
        <ele>268.51</ele>
        <time>2018-09-12T13:04:45.000Z</time>
      </trkpt>
      <trkpt lat="44.70826" lon="5.1239">
        <ele>267.77</ele>
        <time>2018-09-12T13:04:55.000Z</time>
      </trkpt>
      <trkpt lat="44.70828" lon="5.12374">
        <ele>266.94</ele>
        <time>2018-09-12T13:05:05.000Z</time>
      </trkpt>
      <trkpt lat="44.70832" lon="5.12356">
        <ele>265.87</ele>
        <time>2018-09-12T13:05:15.000Z</time>
      </trkpt>
      <trkpt lat="44.70835" lon="5.12339">
        <ele>264.95</ele>
        <time>2018-09-12T13:05:25.000Z</time>
      </trkpt>
      <trkpt lat="44.7084" lon="5.12326">
        <ele>264.06</ele>
        <time>2018-09-12T13:05:35.000Z</time>
      </trkpt>
      <trkpt lat="44.70847" lon="5.12311">
        <ele>263.1</ele>
        <time>2018-09-12T13:05:45.000Z</time>
      </trkpt>
      <trkpt lat="44.70855" lon="5.123">
        <ele>262.2</ele>
        <time>2018-09-12T13:05:55.000Z</time>
      </trkpt>
      <trkpt lat="44.70863" lon="5.1229">
        <ele>261.37</ele>
        <time>2018-09-12T13:06:05.000Z</time>
      </trkpt>
      <trkpt lat="44.70873" lon="5.12282">
        <ele>260.56</ele>
        <time>2018-09-12T13:06:15.000Z</time>
      </trkpt>
      <trkpt lat="44.70883" lon="5.12273">
        <ele>259.88</ele>
        <time>2018-09-12T13:06:25.000Z</time>
      </trkpt>
      <trkpt lat="44.70894" lon="5.12267">
        <ele>259.24</ele>
        <time>2018-09-12T13:06:35.000Z</time>
      </trkpt>
      <trkpt lat="44.70904" lon="5.12259">
        <ele>258.67</ele>
        <time>2018-09-12T13:06:45.000Z</time>
      </trkpt>
      <trkpt lat="44.70915" lon="5.12253">
        <ele>258.16</ele>
        <time>2018-09-12T13:06:55.000Z</time>
      </trkpt>
      <trkpt lat="44.70926" lon="5.12252">
        <ele>258</ele>
        <time>2018-09-12T13:07:05.000Z</time>
      </trkpt>
      <trkpt lat="44.70932" lon="5.12265">
        <ele>258.72</ele>
        <time>2018-09-12T13:07:15.000Z</time>
      </trkpt>
      <trkpt lat="44.70939" lon="5.12277">
        <ele>259.56</ele>
        <time>2018-09-12T13:07:25.000Z</time>
      </trkpt>
      <trkpt lat="44.70945" lon="5.12289">
        <ele>260.61</ele>
        <time>2018-09-12T13:07:35.000Z</time>
      </trkpt>
      <trkpt lat="44.70956" lon="5.12293">
        <ele>261.89</ele>
        <time>2018-09-12T13:07:45.000Z</time>
      </trkpt>
      <trkpt lat="44.70967" lon="5.12287">
        <ele>262.28</ele>
        <time>2018-09-12T13:07:55.000Z</time>
      </trkpt>
      <trkpt lat="44.70976" lon="5.12276">
        <ele>261.87</ele>
        <time>2018-09-12T13:08:05.000Z</time>
      </trkpt>
      <trkpt lat="44.70978" lon="5.12265">
        <ele>260.8</ele>
        <time>2018-09-12T13:08:33.000Z</time>
      </trkpt>
    </trkseg>
  </trk>
</gpx>